<?xml version="1.0" encoding="UTF-8" standalone="no" ?>
<gpx xmlns="http://www.topografix.com/GPX/1/1" xmlns:xsi="http://www.w3.org/2001/XMLSchema-instance" xsi:schemaLocation="http://www.topografix.com/GPX/1/1 http://www.topografix.com/GPX/1/1/gpx.xsd" version="1.1" creator="VisuGPX - https://www.visugpx.com">
  <metadata>
    <name>J1 Porticcio-Bisinao</name>
    <desc><![CDATA[Une traversé de la Corse Sud de Porticcio à Porto-Vecchio, 
avec plusieurs passages de GR:
Mare e Monti Sud, GR20, Mare a Mare Sud.]]></desc>
  </metadata>
  <trk>
    <name><![CDATA[25-AVR-22 04:04:00 PM]]></name>
    <extensions>
      <line xmlns="http://www.topografix.com/GPX/gpx_style/0/2">
        <color>0000FF</color>
        <width>4</width>
      </line>
    </extensions>
    <trkseg>
      <trkpt lat="41.88814" lon="8.80304">
        <ele>5.91</ele>
        <time>2022-04-25T07:53:12Z</time>
      </trkpt>
      <trkpt lat="41.88819" lon="8.80306">
        <ele>5.42</ele>
        <time>2022-04-25T07:53:39Z</time>
      </trkpt>
      <trkpt lat="41.88818" lon="8.80311">
        <ele>5.91</ele>
        <time>2022-04-25T07:53:56Z</time>
      </trkpt>
      <trkpt lat="41.88817" lon="8.8031">
        <ele>5.91</ele>
        <time>2022-04-25T07:54:14Z</time>
      </trkpt>
      <trkpt lat="41.88816" lon="8.80305">
        <ele>6.39</ele>
        <time>2022-04-25T07:54:27Z</time>
      </trkpt>
      <trkpt lat="41.88817" lon="8.80303">
        <ele>6.39</ele>
        <time>2022-04-25T07:54:51Z</time>
      </trkpt>
      <trkpt lat="41.88816" lon="8.80307">
        <ele>5.91</ele>
        <time>2022-04-25T07:55:17Z</time>
      </trkpt>
      <trkpt lat="41.88818" lon="8.80304">
        <ele>6.87</ele>
        <time>2022-04-25T07:55:44Z</time>
      </trkpt>
      <trkpt lat="41.8882" lon="8.80306">
        <ele>5.91</ele>
        <time>2022-04-25T07:56:02Z</time>
      </trkpt>
      <trkpt lat="41.88818" lon="8.80304">
        <ele>6.87</ele>
        <time>2022-04-25T07:56:21Z</time>
      </trkpt>
      <trkpt lat="41.88816" lon="8.80303">
        <ele>6.87</ele>
        <time>2022-04-25T07:56:43Z</time>
      </trkpt>
      <trkpt lat="41.88819" lon="8.80303">
        <ele>6.87</ele>
        <time>2022-04-25T07:56:57Z</time>
      </trkpt>
      <trkpt lat="41.88819" lon="8.803">
        <ele>6.39</ele>
        <time>2022-04-25T07:57:16Z</time>
      </trkpt>
      <trkpt lat="41.88813" lon="8.80302">
        <ele>7.35</ele>
        <time>2022-04-25T07:57:43Z</time>
      </trkpt>
      <trkpt lat="41.88819" lon="8.80299">
        <ele>7.35</ele>
        <time>2022-04-25T07:58:04Z</time>
      </trkpt>
      <trkpt lat="41.88814" lon="8.80306">
        <ele>6.39</ele>
        <time>2022-04-25T07:58:18Z</time>
      </trkpt>
      <trkpt lat="41.88811" lon="8.80305">
        <ele>6.39</ele>
        <time>2022-04-25T07:58:51Z</time>
      </trkpt>
      <trkpt lat="41.88814" lon="8.80306">
        <ele>5.91</ele>
        <time>2022-04-25T07:59:23Z</time>
      </trkpt>
      <trkpt lat="41.88812" lon="8.80305">
        <ele>5.91</ele>
        <time>2022-04-25T07:59:53Z</time>
      </trkpt>
      <trkpt lat="41.88814" lon="8.80306">
        <ele>6.87</ele>
        <time>2022-04-25T08:00:27Z</time>
      </trkpt>
      <trkpt lat="41.88817" lon="8.80304">
        <ele>7.35</ele>
        <time>2022-04-25T08:00:42Z</time>
      </trkpt>
      <trkpt lat="41.88826" lon="8.80297">
        <ele>7.83</ele>
        <time>2022-04-25T08:01:01Z</time>
      </trkpt>
      <trkpt lat="41.88827" lon="8.80299">
        <ele>17.92</ele>
        <time>2022-04-25T08:01:07Z</time>
      </trkpt>
      <trkpt lat="41.88827" lon="8.80298">
        <ele>17.92</ele>
        <time>2022-04-25T08:01:08Z</time>
      </trkpt>
      <trkpt lat="41.88829" lon="8.80296">
        <ele>17.92</ele>
        <time>2022-04-25T08:01:10Z</time>
      </trkpt>
      <trkpt lat="41.8883" lon="8.80293">
        <ele>16.48</ele>
        <time>2022-04-25T08:01:13Z</time>
      </trkpt>
      <trkpt lat="41.88831" lon="8.80292">
        <ele>16</ele>
        <time>2022-04-25T08:01:14Z</time>
      </trkpt>
      <trkpt lat="41.88837" lon="8.8029">
        <ele>16.96</ele>
        <time>2022-04-25T08:01:27Z</time>
      </trkpt>
      <trkpt lat="41.88839" lon="8.8029">
        <ele>17.44</ele>
        <time>2022-04-25T08:01:29Z</time>
      </trkpt>
      <trkpt lat="41.88848" lon="8.80293">
        <ele>17.44</ele>
        <time>2022-04-25T08:01:40Z</time>
      </trkpt>
      <trkpt lat="41.88855" lon="8.80291">
        <ele>17.44</ele>
        <time>2022-04-25T08:01:46Z</time>
      </trkpt>
      <trkpt lat="41.88863" lon="8.80285">
        <ele>16.48</ele>
        <time>2022-04-25T08:02:00Z</time>
      </trkpt>
      <trkpt lat="41.88864" lon="8.80284">
        <ele>16.96</ele>
        <time>2022-04-25T08:02:06Z</time>
      </trkpt>
      <trkpt lat="41.88869" lon="8.80284">
        <ele>16.48</ele>
        <time>2022-04-25T08:02:33Z</time>
      </trkpt>
      <trkpt lat="41.88869" lon="8.80288">
        <ele>16</ele>
        <time>2022-04-25T08:02:44Z</time>
      </trkpt>
      <trkpt lat="41.88884" lon="8.80283">
        <ele>15.04</ele>
        <time>2022-04-25T08:02:59Z</time>
      </trkpt>
      <trkpt lat="41.88885" lon="8.80282">
        <ele>15.04</ele>
        <time>2022-04-25T08:03:00Z</time>
      </trkpt>
      <trkpt lat="41.88894" lon="8.80271">
        <ele>15.52</ele>
        <time>2022-04-25T08:03:12Z</time>
      </trkpt>
      <trkpt lat="41.88899" lon="8.80271">
        <ele>15.04</ele>
        <time>2022-04-25T08:03:17Z</time>
      </trkpt>
      <trkpt lat="41.88908" lon="8.80273">
        <ele>14.08</ele>
        <time>2022-04-25T08:03:26Z</time>
      </trkpt>
      <trkpt lat="41.88926" lon="8.80275">
        <ele>13.6</ele>
        <time>2022-04-25T08:03:42Z</time>
      </trkpt>
      <trkpt lat="41.88932" lon="8.80269">
        <ele>14.08</ele>
        <time>2022-04-25T08:03:49Z</time>
      </trkpt>
      <trkpt lat="41.88941" lon="8.80263">
        <ele>13.6</ele>
        <time>2022-04-25T08:03:58Z</time>
      </trkpt>
      <trkpt lat="41.88953" lon="8.80267">
        <ele>13.12</ele>
        <time>2022-04-25T08:04:13Z</time>
      </trkpt>
      <trkpt lat="41.88965" lon="8.80248">
        <ele>12.15</ele>
        <time>2022-04-25T08:04:28Z</time>
      </trkpt>
      <trkpt lat="41.88969" lon="8.80239">
        <ele>11.67</ele>
        <time>2022-04-25T08:04:34Z</time>
      </trkpt>
      <trkpt lat="41.88974" lon="8.80232">
        <ele>11.67</ele>
        <time>2022-04-25T08:04:40Z</time>
      </trkpt>
      <trkpt lat="41.88976" lon="8.80226">
        <ele>11.67</ele>
        <time>2022-04-25T08:04:55Z</time>
      </trkpt>
      <trkpt lat="41.88977" lon="8.80227">
        <ele>11.67</ele>
        <time>2022-04-25T08:05:20Z</time>
      </trkpt>
      <trkpt lat="41.88979" lon="8.8023">
        <ele>10.71</ele>
        <time>2022-04-25T08:05:23Z</time>
      </trkpt>
      <trkpt lat="41.88981" lon="8.80231">
        <ele>11.19</ele>
        <time>2022-04-25T08:05:25Z</time>
      </trkpt>
      <trkpt lat="41.88989" lon="8.80232">
        <ele>10.71</ele>
        <time>2022-04-25T08:05:40Z</time>
      </trkpt>
      <trkpt lat="41.8899" lon="8.80233">
        <ele>10.71</ele>
        <time>2022-04-25T08:06:02Z</time>
      </trkpt>
      <trkpt lat="41.88989" lon="8.80228">
        <ele>9.75</ele>
        <time>2022-04-25T08:06:15Z</time>
      </trkpt>
      <trkpt lat="41.8899" lon="8.80229">
        <ele>9.75</ele>
        <time>2022-04-25T08:06:34Z</time>
      </trkpt>
      <trkpt lat="41.8899" lon="8.80224">
        <ele>10.23</ele>
        <time>2022-04-25T08:07:06Z</time>
      </trkpt>
      <trkpt lat="41.88992" lon="8.80222">
        <ele>9.75</ele>
        <time>2022-04-25T08:07:10Z</time>
      </trkpt>
      <trkpt lat="41.88998" lon="8.80212">
        <ele>9.75</ele>
        <time>2022-04-25T08:07:26Z</time>
      </trkpt>
      <trkpt lat="41.89" lon="8.8021">
        <ele>9.75</ele>
        <time>2022-04-25T08:07:47Z</time>
      </trkpt>
      <trkpt lat="41.89" lon="8.8021">
        <ele>9.75</ele>
        <time>2022-04-25T08:08:09Z</time>
      </trkpt>
      <trkpt lat="41.88998" lon="8.80216">
        <ele>9.75</ele>
        <time>2022-04-25T08:08:15Z</time>
      </trkpt>
      <trkpt lat="41.88986" lon="8.80238">
        <ele>9.75</ele>
        <time>2022-04-25T08:08:32Z</time>
      </trkpt>
      <trkpt lat="41.8898" lon="8.80259">
        <ele>10.23</ele>
        <time>2022-04-25T08:08:47Z</time>
      </trkpt>
      <trkpt lat="41.8898" lon="8.80261">
        <ele>10.23</ele>
        <time>2022-04-25T08:08:48Z</time>
      </trkpt>
      <trkpt lat="41.88996" lon="8.80281">
        <ele>10.23</ele>
        <time>2022-04-25T08:09:06Z</time>
      </trkpt>
      <trkpt lat="41.89" lon="8.80294">
        <ele>9.75</ele>
        <time>2022-04-25T08:09:19Z</time>
      </trkpt>
      <trkpt lat="41.88999" lon="8.80322">
        <ele>11.67</ele>
        <time>2022-04-25T08:09:37Z</time>
      </trkpt>
      <trkpt lat="41.89" lon="8.80325">
        <ele>11.67</ele>
        <time>2022-04-25T08:09:39Z</time>
      </trkpt>
      <trkpt lat="41.89001" lon="8.8033">
        <ele>11.19</ele>
        <time>2022-04-25T08:09:42Z</time>
      </trkpt>
      <trkpt lat="41.89" lon="8.80341">
        <ele>11.67</ele>
        <time>2022-04-25T08:09:49Z</time>
      </trkpt>
      <trkpt lat="41.88991" lon="8.80355">
        <ele>11.19</ele>
        <time>2022-04-25T08:10:00Z</time>
      </trkpt>
      <trkpt lat="41.8898" lon="8.80375">
        <ele>10.23</ele>
        <time>2022-04-25T08:10:16Z</time>
      </trkpt>
      <trkpt lat="41.88976" lon="8.80387">
        <ele>10.23</ele>
        <time>2022-04-25T08:10:28Z</time>
      </trkpt>
      <trkpt lat="41.88973" lon="8.80415">
        <ele>9.75</ele>
        <time>2022-04-25T08:10:45Z</time>
      </trkpt>
      <trkpt lat="41.88968" lon="8.80441">
        <ele>10.23</ele>
        <time>2022-04-25T08:11:01Z</time>
      </trkpt>
      <trkpt lat="41.88965" lon="8.80464">
        <ele>10.23</ele>
        <time>2022-04-25T08:11:15Z</time>
      </trkpt>
      <trkpt lat="41.88963" lon="8.80491">
        <ele>10.71</ele>
        <time>2022-04-25T08:11:32Z</time>
      </trkpt>
      <trkpt lat="41.88962" lon="8.80508">
        <ele>11.19</ele>
        <time>2022-04-25T08:11:45Z</time>
      </trkpt>
      <trkpt lat="41.88955" lon="8.80537">
        <ele>11.19</ele>
        <time>2022-04-25T08:12:02Z</time>
      </trkpt>
      <trkpt lat="41.88952" lon="8.80558">
        <ele>10.71</ele>
        <time>2022-04-25T08:12:15Z</time>
      </trkpt>
      <trkpt lat="41.88944" lon="8.80583">
        <ele>11.19</ele>
        <time>2022-04-25T08:12:32Z</time>
      </trkpt>
      <trkpt lat="41.88941" lon="8.80608">
        <ele>11.67</ele>
        <time>2022-04-25T08:12:48Z</time>
      </trkpt>
      <trkpt lat="41.88939" lon="8.80615">
        <ele>11.67</ele>
        <time>2022-04-25T08:12:53Z</time>
      </trkpt>
      <trkpt lat="41.88932" lon="8.80638">
        <ele>11.19</ele>
        <time>2022-04-25T08:13:08Z</time>
      </trkpt>
      <trkpt lat="41.88929" lon="8.80652">
        <ele>11.19</ele>
        <time>2022-04-25T08:13:20Z</time>
      </trkpt>
      <trkpt lat="41.88923" lon="8.80673">
        <ele>12.15</ele>
        <time>2022-04-25T08:13:34Z</time>
      </trkpt>
      <trkpt lat="41.88919" lon="8.80689">
        <ele>12.15</ele>
        <time>2022-04-25T08:13:43Z</time>
      </trkpt>
      <trkpt lat="41.88904" lon="8.80713">
        <ele>13.12</ele>
        <time>2022-04-25T08:14:02Z</time>
      </trkpt>
      <trkpt lat="41.88887" lon="8.80739">
        <ele>12.15</ele>
        <time>2022-04-25T08:14:22Z</time>
      </trkpt>
      <trkpt lat="41.88871" lon="8.80763">
        <ele>14.08</ele>
        <time>2022-04-25T08:14:41Z</time>
      </trkpt>
      <trkpt lat="41.88862" lon="8.80776">
        <ele>13.6</ele>
        <time>2022-04-25T08:14:52Z</time>
      </trkpt>
      <trkpt lat="41.88846" lon="8.80796">
        <ele>13.6</ele>
        <time>2022-04-25T08:15:10Z</time>
      </trkpt>
      <trkpt lat="41.88831" lon="8.80821">
        <ele>14.08</ele>
        <time>2022-04-25T08:15:29Z</time>
      </trkpt>
      <trkpt lat="41.88828" lon="8.80828">
        <ele>15.04</ele>
        <time>2022-04-25T08:15:34Z</time>
      </trkpt>
      <trkpt lat="41.88814" lon="8.80852">
        <ele>15.52</ele>
        <time>2022-04-25T08:15:53Z</time>
      </trkpt>
      <trkpt lat="41.88804" lon="8.80872">
        <ele>16</ele>
        <time>2022-04-25T08:16:10Z</time>
      </trkpt>
      <trkpt lat="41.88803" lon="8.80873">
        <ele>16</ele>
        <time>2022-04-25T08:16:11Z</time>
      </trkpt>
      <trkpt lat="41.88791" lon="8.80899">
        <ele>16.96</ele>
        <time>2022-04-25T08:16:30Z</time>
      </trkpt>
      <trkpt lat="41.88789" lon="8.80902">
        <ele>15.52</ele>
        <time>2022-04-25T08:16:33Z</time>
      </trkpt>
      <trkpt lat="41.8878" lon="8.8092">
        <ele>17.92</ele>
        <time>2022-04-25T08:16:47Z</time>
      </trkpt>
      <trkpt lat="41.88772" lon="8.80938">
        <ele>17.44</ele>
        <time>2022-04-25T08:17:03Z</time>
      </trkpt>
      <trkpt lat="41.88767" lon="8.80946">
        <ele>17.92</ele>
        <time>2022-04-25T08:17:10Z</time>
      </trkpt>
      <trkpt lat="41.88747" lon="8.80957">
        <ele>17.44</ele>
        <time>2022-04-25T08:17:26Z</time>
      </trkpt>
      <trkpt lat="41.88733" lon="8.80966">
        <ele>17.92</ele>
        <time>2022-04-25T08:17:40Z</time>
      </trkpt>
      <trkpt lat="41.8872" lon="8.80965">
        <ele>18.4</ele>
        <time>2022-04-25T08:17:52Z</time>
      </trkpt>
      <trkpt lat="41.88702" lon="8.80954">
        <ele>18.88</ele>
        <time>2022-04-25T08:18:09Z</time>
      </trkpt>
      <trkpt lat="41.88699" lon="8.80953">
        <ele>18.4</ele>
        <time>2022-04-25T08:18:11Z</time>
      </trkpt>
      <trkpt lat="41.88682" lon="8.8095">
        <ele>17.92</ele>
        <time>2022-04-25T08:18:24Z</time>
      </trkpt>
      <trkpt lat="41.88676" lon="8.80947">
        <ele>19.84</ele>
        <time>2022-04-25T08:18:29Z</time>
      </trkpt>
      <trkpt lat="41.8866" lon="8.80933">
        <ele>19.36</ele>
        <time>2022-04-25T08:18:45Z</time>
      </trkpt>
      <trkpt lat="41.88656" lon="8.8093">
        <ele>20.32</ele>
        <time>2022-04-25T08:18:49Z</time>
      </trkpt>
      <trkpt lat="41.8864" lon="8.80924">
        <ele>23.21</ele>
        <time>2022-04-25T08:19:06Z</time>
      </trkpt>
      <trkpt lat="41.88631" lon="8.80916">
        <ele>24.65</ele>
        <time>2022-04-25T08:19:22Z</time>
      </trkpt>
      <trkpt lat="41.88627" lon="8.80909">
        <ele>24.17</ele>
        <time>2022-04-25T08:19:45Z</time>
      </trkpt>
      <trkpt lat="41.88625" lon="8.80913">
        <ele>24.65</ele>
        <time>2022-04-25T08:20:04Z</time>
      </trkpt>
      <trkpt lat="41.8862" lon="8.80915">
        <ele>26.57</ele>
        <time>2022-04-25T08:20:10Z</time>
      </trkpt>
      <trkpt lat="41.88609" lon="8.80919">
        <ele>28.98</ele>
        <time>2022-04-25T08:20:21Z</time>
      </trkpt>
      <trkpt lat="41.88608" lon="8.8092">
        <ele>28.98</ele>
        <time>2022-04-25T08:20:22Z</time>
      </trkpt>
      <trkpt lat="41.886" lon="8.80922">
        <ele>29.94</ele>
        <time>2022-04-25T08:20:30Z</time>
      </trkpt>
      <trkpt lat="41.88593" lon="8.80923">
        <ele>30.42</ele>
        <time>2022-04-25T08:20:37Z</time>
      </trkpt>
      <trkpt lat="41.8857" lon="8.80932">
        <ele>32.82</ele>
        <time>2022-04-25T08:20:54Z</time>
      </trkpt>
      <trkpt lat="41.88561" lon="8.80941">
        <ele>32.34</ele>
        <time>2022-04-25T08:21:03Z</time>
      </trkpt>
      <trkpt lat="41.88553" lon="8.80966">
        <ele>32.34</ele>
        <time>2022-04-25T08:21:20Z</time>
      </trkpt>
      <trkpt lat="41.88556" lon="8.8098">
        <ele>33.78</ele>
        <time>2022-04-25T08:21:30Z</time>
      </trkpt>
      <trkpt lat="41.8856" lon="8.80992">
        <ele>34.26</ele>
        <time>2022-04-25T08:21:38Z</time>
      </trkpt>
      <trkpt lat="41.88565" lon="8.81011">
        <ele>34.74</ele>
        <time>2022-04-25T08:21:52Z</time>
      </trkpt>
      <trkpt lat="41.8857" lon="8.81031">
        <ele>36.67</ele>
        <time>2022-04-25T08:22:09Z</time>
      </trkpt>
      <trkpt lat="41.88568" lon="8.81055">
        <ele>37.63</ele>
        <time>2022-04-25T08:22:24Z</time>
      </trkpt>
      <trkpt lat="41.88567" lon="8.81059">
        <ele>37.63</ele>
        <time>2022-04-25T08:22:27Z</time>
      </trkpt>
      <trkpt lat="41.88559" lon="8.81082">
        <ele>38.11</ele>
        <time>2022-04-25T08:22:42Z</time>
      </trkpt>
      <trkpt lat="41.88547" lon="8.811">
        <ele>38.11</ele>
        <time>2022-04-25T08:22:57Z</time>
      </trkpt>
      <trkpt lat="41.88537" lon="8.81115">
        <ele>39.55</ele>
        <time>2022-04-25T08:23:12Z</time>
      </trkpt>
      <trkpt lat="41.88536" lon="8.81118">
        <ele>39.55</ele>
        <time>2022-04-25T08:23:15Z</time>
      </trkpt>
      <trkpt lat="41.88532" lon="8.81134">
        <ele>38.59</ele>
        <time>2022-04-25T08:23:24Z</time>
      </trkpt>
      <trkpt lat="41.88527" lon="8.8116">
        <ele>39.55</ele>
        <time>2022-04-25T08:23:42Z</time>
      </trkpt>
      <trkpt lat="41.88523" lon="8.81188">
        <ele>40.51</ele>
        <time>2022-04-25T08:24:00Z</time>
      </trkpt>
      <trkpt lat="41.8852" lon="8.81215">
        <ele>41.47</ele>
        <time>2022-04-25T08:24:16Z</time>
      </trkpt>
      <trkpt lat="41.88518" lon="8.8124">
        <ele>41.95</ele>
        <time>2022-04-25T08:24:32Z</time>
      </trkpt>
      <trkpt lat="41.88513" lon="8.81263">
        <ele>43.4</ele>
        <time>2022-04-25T08:24:48Z</time>
      </trkpt>
      <trkpt lat="41.88506" lon="8.81286">
        <ele>43.88</ele>
        <time>2022-04-25T08:25:05Z</time>
      </trkpt>
      <trkpt lat="41.885" lon="8.81301">
        <ele>45.32</ele>
        <time>2022-04-25T08:25:21Z</time>
      </trkpt>
      <trkpt lat="41.88498" lon="8.81307">
        <ele>45.32</ele>
        <time>2022-04-25T08:25:26Z</time>
      </trkpt>
      <trkpt lat="41.88492" lon="8.81329">
        <ele>45.8</ele>
        <time>2022-04-25T08:25:40Z</time>
      </trkpt>
      <trkpt lat="41.88486" lon="8.81352">
        <ele>46.28</ele>
        <time>2022-04-25T08:25:56Z</time>
      </trkpt>
      <trkpt lat="41.88481" lon="8.81378">
        <ele>47.72</ele>
        <time>2022-04-25T08:26:13Z</time>
      </trkpt>
      <trkpt lat="41.88476" lon="8.81403">
        <ele>48.68</ele>
        <time>2022-04-25T08:26:30Z</time>
      </trkpt>
      <trkpt lat="41.88476" lon="8.8141">
        <ele>48.68</ele>
        <time>2022-04-25T08:26:36Z</time>
      </trkpt>
      <trkpt lat="41.88476" lon="8.81415">
        <ele>48.68</ele>
        <time>2022-04-25T08:26:39Z</time>
      </trkpt>
      <trkpt lat="41.88472" lon="8.81443">
        <ele>49.65</ele>
        <time>2022-04-25T08:26:56Z</time>
      </trkpt>
      <trkpt lat="41.88467" lon="8.8147">
        <ele>50.13</ele>
        <time>2022-04-25T08:27:14Z</time>
      </trkpt>
      <trkpt lat="41.88466" lon="8.81485">
        <ele>50.13</ele>
        <time>2022-04-25T08:27:24Z</time>
      </trkpt>
      <trkpt lat="41.88465" lon="8.81503">
        <ele>49.16</ele>
        <time>2022-04-25T08:27:37Z</time>
      </trkpt>
      <trkpt lat="41.88466" lon="8.81513">
        <ele>49.65</ele>
        <time>2022-04-25T08:27:43Z</time>
      </trkpt>
      <trkpt lat="41.88466" lon="8.81514">
        <ele>49.65</ele>
        <time>2022-04-25T08:27:44Z</time>
      </trkpt>
      <trkpt lat="41.88466" lon="8.81516">
        <ele>50.13</ele>
        <time>2022-04-25T08:27:45Z</time>
      </trkpt>
      <trkpt lat="41.88466" lon="8.81518">
        <ele>50.13</ele>
        <time>2022-04-25T08:27:46Z</time>
      </trkpt>
      <trkpt lat="41.88466" lon="8.81519">
        <ele>50.13</ele>
        <time>2022-04-25T08:27:47Z</time>
      </trkpt>
      <trkpt lat="41.88466" lon="8.81521">
        <ele>49.65</ele>
        <time>2022-04-25T08:27:48Z</time>
      </trkpt>
      <trkpt lat="41.88467" lon="8.81522">
        <ele>49.65</ele>
        <time>2022-04-25T08:27:49Z</time>
      </trkpt>
      <trkpt lat="41.88467" lon="8.81524">
        <ele>50.61</ele>
        <time>2022-04-25T08:27:50Z</time>
      </trkpt>
      <trkpt lat="41.88472" lon="8.81542">
        <ele>50.61</ele>
        <time>2022-04-25T08:28:02Z</time>
      </trkpt>
      <trkpt lat="41.88474" lon="8.81561">
        <ele>51.09</ele>
        <time>2022-04-25T08:28:16Z</time>
      </trkpt>
      <trkpt lat="41.88481" lon="8.81583">
        <ele>53.01</ele>
        <time>2022-04-25T08:28:31Z</time>
      </trkpt>
      <trkpt lat="41.88489" lon="8.81603">
        <ele>53.97</ele>
        <time>2022-04-25T08:28:47Z</time>
      </trkpt>
      <trkpt lat="41.88501" lon="8.81623">
        <ele>54.93</ele>
        <time>2022-04-25T08:29:03Z</time>
      </trkpt>
      <trkpt lat="41.88508" lon="8.81633">
        <ele>54.93</ele>
        <time>2022-04-25T08:29:12Z</time>
      </trkpt>
      <trkpt lat="41.88511" lon="8.81634">
        <ele>54.93</ele>
        <time>2022-04-25T08:29:25Z</time>
      </trkpt>
      <trkpt lat="41.88513" lon="8.81637">
        <ele>54.93</ele>
        <time>2022-04-25T08:29:34Z</time>
      </trkpt>
      <trkpt lat="41.88517" lon="8.81633">
        <ele>55.41</ele>
        <time>2022-04-25T08:29:45Z</time>
      </trkpt>
      <trkpt lat="41.88515" lon="8.81629">
        <ele>54.93</ele>
        <time>2022-04-25T08:30:02Z</time>
      </trkpt>
      <trkpt lat="41.88515" lon="8.81633">
        <ele>54.93</ele>
        <time>2022-04-25T08:30:10Z</time>
      </trkpt>
      <trkpt lat="41.88516" lon="8.81647">
        <ele>55.41</ele>
        <time>2022-04-25T08:30:20Z</time>
      </trkpt>
      <trkpt lat="41.88517" lon="8.8164">
        <ele>54.45</ele>
        <time>2022-04-25T08:30:28Z</time>
      </trkpt>
      <trkpt lat="41.88517" lon="8.81631">
        <ele>54.93</ele>
        <time>2022-04-25T08:30:43Z</time>
      </trkpt>
      <trkpt lat="41.88518" lon="8.81634">
        <ele>55.41</ele>
        <time>2022-04-25T08:30:54Z</time>
      </trkpt>
      <trkpt lat="41.88518" lon="8.81657">
        <ele>57.82</ele>
        <time>2022-04-25T08:31:09Z</time>
      </trkpt>
      <trkpt lat="41.88516" lon="8.81673">
        <ele>56.86</ele>
        <time>2022-04-25T08:31:22Z</time>
      </trkpt>
      <trkpt lat="41.88516" lon="8.81674">
        <ele>56.86</ele>
        <time>2022-04-25T08:31:23Z</time>
      </trkpt>
      <trkpt lat="41.88515" lon="8.81694">
        <ele>59.74</ele>
        <time>2022-04-25T08:31:37Z</time>
      </trkpt>
      <trkpt lat="41.88511" lon="8.81712">
        <ele>61.18</ele>
        <time>2022-04-25T08:31:51Z</time>
      </trkpt>
      <trkpt lat="41.88505" lon="8.81728">
        <ele>62.62</ele>
        <time>2022-04-25T08:32:04Z</time>
      </trkpt>
      <trkpt lat="41.88504" lon="8.8173">
        <ele>62.62</ele>
        <time>2022-04-25T08:32:05Z</time>
      </trkpt>
      <trkpt lat="41.88496" lon="8.81749">
        <ele>64.07</ele>
        <time>2022-04-25T08:32:20Z</time>
      </trkpt>
      <trkpt lat="41.88485" lon="8.81774">
        <ele>65.99</ele>
        <time>2022-04-25T08:32:39Z</time>
      </trkpt>
      <trkpt lat="41.88484" lon="8.81776">
        <ele>65.51</ele>
        <time>2022-04-25T08:32:41Z</time>
      </trkpt>
      <trkpt lat="41.88483" lon="8.81778">
        <ele>65.99</ele>
        <time>2022-04-25T08:32:42Z</time>
      </trkpt>
      <trkpt lat="41.88483" lon="8.81779">
        <ele>66.47</ele>
        <time>2022-04-25T08:32:43Z</time>
      </trkpt>
      <trkpt lat="41.88482" lon="8.81781">
        <ele>65.99</ele>
        <time>2022-04-25T08:32:44Z</time>
      </trkpt>
      <trkpt lat="41.88482" lon="8.81782">
        <ele>66.47</ele>
        <time>2022-04-25T08:32:45Z</time>
      </trkpt>
      <trkpt lat="41.88474" lon="8.81802">
        <ele>68.39</ele>
        <time>2022-04-25T08:33:00Z</time>
      </trkpt>
      <trkpt lat="41.88468" lon="8.81818">
        <ele>69.83</ele>
        <time>2022-04-25T08:33:13Z</time>
      </trkpt>
      <trkpt lat="41.88458" lon="8.81834">
        <ele>72.24</ele>
        <time>2022-04-25T08:33:28Z</time>
      </trkpt>
      <trkpt lat="41.88446" lon="8.81843">
        <ele>73.2</ele>
        <time>2022-04-25T08:33:44Z</time>
      </trkpt>
      <trkpt lat="41.88432" lon="8.8185">
        <ele>74.64</ele>
        <time>2022-04-25T08:33:59Z</time>
      </trkpt>
      <trkpt lat="41.88426" lon="8.81854">
        <ele>75.6</ele>
        <time>2022-04-25T08:34:06Z</time>
      </trkpt>
      <trkpt lat="41.88425" lon="8.81855">
        <ele>75.6</ele>
        <time>2022-04-25T08:34:07Z</time>
      </trkpt>
      <trkpt lat="41.88415" lon="8.81864">
        <ele>77.52</ele>
        <time>2022-04-25T08:34:19Z</time>
      </trkpt>
      <trkpt lat="41.88412" lon="8.81868">
        <ele>77.52</ele>
        <time>2022-04-25T08:34:23Z</time>
      </trkpt>
      <trkpt lat="41.88411" lon="8.81871">
        <ele>78.48</ele>
        <time>2022-04-25T08:34:26Z</time>
      </trkpt>
      <trkpt lat="41.8841" lon="8.81872">
        <ele>78</ele>
        <time>2022-04-25T08:34:27Z</time>
      </trkpt>
      <trkpt lat="41.88401" lon="8.81886">
        <ele>79.93</ele>
        <time>2022-04-25T08:34:41Z</time>
      </trkpt>
      <trkpt lat="41.88396" lon="8.81906">
        <ele>81.37</ele>
        <time>2022-04-25T08:34:56Z</time>
      </trkpt>
      <trkpt lat="41.88392" lon="8.81924">
        <ele>83.77</ele>
        <time>2022-04-25T08:35:09Z</time>
      </trkpt>
      <trkpt lat="41.88391" lon="8.81943">
        <ele>84.73</ele>
        <time>2022-04-25T08:35:23Z</time>
      </trkpt>
      <trkpt lat="41.88391" lon="8.81944">
        <ele>84.73</ele>
        <time>2022-04-25T08:35:24Z</time>
      </trkpt>
      <trkpt lat="41.88391" lon="8.8195">
        <ele>84.73</ele>
        <time>2022-04-25T08:35:29Z</time>
      </trkpt>
      <trkpt lat="41.88391" lon="8.81966">
        <ele>86.66</ele>
        <time>2022-04-25T08:35:43Z</time>
      </trkpt>
      <trkpt lat="41.88394" lon="8.81979">
        <ele>88.58</ele>
        <time>2022-04-25T08:35:55Z</time>
      </trkpt>
      <trkpt lat="41.88392" lon="8.81995">
        <ele>89.06</ele>
        <time>2022-04-25T08:36:09Z</time>
      </trkpt>
      <trkpt lat="41.88391" lon="8.81997">
        <ele>89.06</ele>
        <time>2022-04-25T08:36:11Z</time>
      </trkpt>
      <trkpt lat="41.8839" lon="8.82">
        <ele>89.54</ele>
        <time>2022-04-25T08:36:13Z</time>
      </trkpt>
      <trkpt lat="41.8839" lon="8.82003">
        <ele>89.06</ele>
        <time>2022-04-25T08:36:15Z</time>
      </trkpt>
      <trkpt lat="41.88387" lon="8.82019">
        <ele>91.46</ele>
        <time>2022-04-25T08:36:28Z</time>
      </trkpt>
      <trkpt lat="41.88379" lon="8.82035">
        <ele>92.9</ele>
        <time>2022-04-25T08:36:42Z</time>
      </trkpt>
      <trkpt lat="41.88371" lon="8.82052">
        <ele>92.9</ele>
        <time>2022-04-25T08:36:56Z</time>
      </trkpt>
      <trkpt lat="41.88366" lon="8.8206">
        <ele>94.35</ele>
        <time>2022-04-25T08:37:04Z</time>
      </trkpt>
      <trkpt lat="41.88366" lon="8.82062">
        <ele>94.35</ele>
        <time>2022-04-25T08:37:05Z</time>
      </trkpt>
      <trkpt lat="41.88361" lon="8.82078">
        <ele>95.79</ele>
        <time>2022-04-25T08:37:19Z</time>
      </trkpt>
      <trkpt lat="41.88354" lon="8.82095">
        <ele>97.23</ele>
        <time>2022-04-25T08:37:33Z</time>
      </trkpt>
      <trkpt lat="41.88348" lon="8.82107">
        <ele>98.19</ele>
        <time>2022-04-25T08:37:44Z</time>
      </trkpt>
      <trkpt lat="41.88339" lon="8.82127">
        <ele>98.67</ele>
        <time>2022-04-25T08:37:58Z</time>
      </trkpt>
      <trkpt lat="41.88329" lon="8.82146">
        <ele>99.15</ele>
        <time>2022-04-25T08:38:13Z</time>
      </trkpt>
      <trkpt lat="41.88321" lon="8.82167">
        <ele>98.67</ele>
        <time>2022-04-25T08:38:29Z</time>
      </trkpt>
      <trkpt lat="41.88314" lon="8.82188">
        <ele>98.67</ele>
        <time>2022-04-25T08:38:43Z</time>
      </trkpt>
      <trkpt lat="41.8831" lon="8.82197">
        <ele>98.67</ele>
        <time>2022-04-25T08:38:51Z</time>
      </trkpt>
      <trkpt lat="41.88305" lon="8.82223">
        <ele>97.71</ele>
        <time>2022-04-25T08:39:09Z</time>
      </trkpt>
      <trkpt lat="41.88305" lon="8.82227">
        <ele>97.71</ele>
        <time>2022-04-25T08:39:11Z</time>
      </trkpt>
      <trkpt lat="41.88304" lon="8.82251">
        <ele>97.23</ele>
        <time>2022-04-25T08:39:27Z</time>
      </trkpt>
      <trkpt lat="41.88305" lon="8.82277">
        <ele>96.27</ele>
        <time>2022-04-25T08:39:44Z</time>
      </trkpt>
      <trkpt lat="41.88306" lon="8.82285">
        <ele>96.75</ele>
        <time>2022-04-25T08:39:49Z</time>
      </trkpt>
      <trkpt lat="41.88307" lon="8.82297">
        <ele>96.27</ele>
        <time>2022-04-25T08:39:56Z</time>
      </trkpt>
      <trkpt lat="41.88307" lon="8.82299">
        <ele>95.79</ele>
        <time>2022-04-25T08:39:57Z</time>
      </trkpt>
      <trkpt lat="41.8831" lon="8.82318">
        <ele>95.79</ele>
        <time>2022-04-25T08:40:09Z</time>
      </trkpt>
      <trkpt lat="41.88314" lon="8.82342">
        <ele>96.27</ele>
        <time>2022-04-25T08:40:26Z</time>
      </trkpt>
      <trkpt lat="41.88319" lon="8.82362">
        <ele>96.27</ele>
        <time>2022-04-25T08:40:40Z</time>
      </trkpt>
      <trkpt lat="41.8832" lon="8.82372">
        <ele>97.23</ele>
        <time>2022-04-25T08:40:48Z</time>
      </trkpt>
      <trkpt lat="41.88321" lon="8.82398">
        <ele>97.71</ele>
        <time>2022-04-25T08:41:05Z</time>
      </trkpt>
      <trkpt lat="41.88325" lon="8.82404">
        <ele>98.67</ele>
        <time>2022-04-25T08:41:18Z</time>
      </trkpt>
      <trkpt lat="41.8833" lon="8.82412">
        <ele>100.11</ele>
        <time>2022-04-25T08:41:28Z</time>
      </trkpt>
      <trkpt lat="41.88336" lon="8.82425">
        <ele>102.52</ele>
        <time>2022-04-25T08:41:43Z</time>
      </trkpt>
      <trkpt lat="41.88342" lon="8.82441">
        <ele>104.92</ele>
        <time>2022-04-25T08:42:00Z</time>
      </trkpt>
      <trkpt lat="41.88337" lon="8.82454">
        <ele>108.29</ele>
        <time>2022-04-25T08:42:14Z</time>
      </trkpt>
      <trkpt lat="41.88337" lon="8.82466">
        <ele>111.17</ele>
        <time>2022-04-25T08:42:28Z</time>
      </trkpt>
      <trkpt lat="41.88341" lon="8.82476">
        <ele>114.05</ele>
        <time>2022-04-25T08:42:45Z</time>
      </trkpt>
      <trkpt lat="41.88343" lon="8.82483">
        <ele>116.94</ele>
        <time>2022-04-25T08:42:56Z</time>
      </trkpt>
      <trkpt lat="41.88345" lon="8.82498">
        <ele>119.34</ele>
        <time>2022-04-25T08:43:15Z</time>
      </trkpt>
      <trkpt lat="41.88345" lon="8.82499">
        <ele>119.34</ele>
        <time>2022-04-25T08:43:16Z</time>
      </trkpt>
      <trkpt lat="41.88346" lon="8.82499">
        <ele>120.78</ele>
        <time>2022-04-25T08:43:22Z</time>
      </trkpt>
      <trkpt lat="41.88345" lon="8.8249">
        <ele>118.86</ele>
        <time>2022-04-25T08:43:37Z</time>
      </trkpt>
      <trkpt lat="41.88346" lon="8.82488">
        <ele>118.86</ele>
        <time>2022-04-25T08:44:02Z</time>
      </trkpt>
      <trkpt lat="41.88351" lon="8.82509">
        <ele>120.78</ele>
        <time>2022-04-25T08:44:20Z</time>
      </trkpt>
      <trkpt lat="41.88359" lon="8.82524">
        <ele>122.71</ele>
        <time>2022-04-25T08:44:37Z</time>
      </trkpt>
      <trkpt lat="41.88367" lon="8.82542">
        <ele>124.63</ele>
        <time>2022-04-25T08:44:54Z</time>
      </trkpt>
      <trkpt lat="41.8837" lon="8.82558">
        <ele>125.11</ele>
        <time>2022-04-25T08:45:11Z</time>
      </trkpt>
      <trkpt lat="41.88375" lon="8.82573">
        <ele>127.03</ele>
        <time>2022-04-25T08:45:35Z</time>
      </trkpt>
      <trkpt lat="41.88384" lon="8.82589">
        <ele>128.95</ele>
        <time>2022-04-25T08:45:51Z</time>
      </trkpt>
      <trkpt lat="41.88392" lon="8.82606">
        <ele>132.32</ele>
        <time>2022-04-25T08:46:09Z</time>
      </trkpt>
      <trkpt lat="41.88388" lon="8.82621">
        <ele>130.88</ele>
        <time>2022-04-25T08:46:26Z</time>
      </trkpt>
      <trkpt lat="41.88388" lon="8.82624">
        <ele>129.92</ele>
        <time>2022-04-25T08:46:30Z</time>
      </trkpt>
      <trkpt lat="41.88389" lon="8.82636">
        <ele>128.95</ele>
        <time>2022-04-25T08:46:44Z</time>
      </trkpt>
      <trkpt lat="41.88388" lon="8.82638">
        <ele>128.95</ele>
        <time>2022-04-25T08:47:05Z</time>
      </trkpt>
      <trkpt lat="41.88386" lon="8.82649">
        <ele>127.99</ele>
        <time>2022-04-25T08:47:22Z</time>
      </trkpt>
      <trkpt lat="41.88385" lon="8.82651">
        <ele>128.95</ele>
        <time>2022-04-25T08:47:24Z</time>
      </trkpt>
      <trkpt lat="41.88384" lon="8.82653">
        <ele>128.47</ele>
        <time>2022-04-25T08:47:25Z</time>
      </trkpt>
      <trkpt lat="41.88381" lon="8.82675">
        <ele>127.03</ele>
        <time>2022-04-25T08:47:41Z</time>
      </trkpt>
      <trkpt lat="41.88382" lon="8.82704">
        <ele>123.67</ele>
        <time>2022-04-25T08:47:58Z</time>
      </trkpt>
      <trkpt lat="41.88391" lon="8.82721">
        <ele>122.22</ele>
        <time>2022-04-25T08:48:15Z</time>
      </trkpt>
      <trkpt lat="41.88401" lon="8.82703">
        <ele>123.67</ele>
        <time>2022-04-25T08:48:33Z</time>
      </trkpt>
      <trkpt lat="41.88415" lon="8.82689">
        <ele>125.11</ele>
        <time>2022-04-25T08:48:49Z</time>
      </trkpt>
      <trkpt lat="41.88434" lon="8.82684">
        <ele>127.03</ele>
        <time>2022-04-25T08:49:07Z</time>
      </trkpt>
      <trkpt lat="41.8845" lon="8.82687">
        <ele>127.99</ele>
        <time>2022-04-25T08:49:22Z</time>
      </trkpt>
      <trkpt lat="41.88462" lon="8.82701">
        <ele>128.95</ele>
        <time>2022-04-25T08:49:41Z</time>
      </trkpt>
      <trkpt lat="41.88467" lon="8.82699">
        <ele>128.47</ele>
        <time>2022-04-25T08:50:16Z</time>
      </trkpt>
      <trkpt lat="41.88481" lon="8.82707">
        <ele>130.4</ele>
        <time>2022-04-25T08:50:38Z</time>
      </trkpt>
      <trkpt lat="41.88496" lon="8.82721">
        <ele>131.36</ele>
        <time>2022-04-25T08:50:57Z</time>
      </trkpt>
      <trkpt lat="41.88504" lon="8.8274">
        <ele>133.76</ele>
        <time>2022-04-25T08:51:18Z</time>
      </trkpt>
      <trkpt lat="41.88514" lon="8.82759">
        <ele>136.16</ele>
        <time>2022-04-25T08:51:39Z</time>
      </trkpt>
      <trkpt lat="41.88528" lon="8.82767">
        <ele>138.57</ele>
        <time>2022-04-25T08:51:58Z</time>
      </trkpt>
      <trkpt lat="41.88538" lon="8.82776">
        <ele>140.97</ele>
        <time>2022-04-25T08:52:16Z</time>
      </trkpt>
      <trkpt lat="41.88558" lon="8.82785">
        <ele>142.41</ele>
        <time>2022-04-25T08:52:34Z</time>
      </trkpt>
      <trkpt lat="41.88569" lon="8.828">
        <ele>143.85</ele>
        <time>2022-04-25T08:52:50Z</time>
      </trkpt>
      <trkpt lat="41.88582" lon="8.82816">
        <ele>146.26</ele>
        <time>2022-04-25T08:53:09Z</time>
      </trkpt>
      <trkpt lat="41.8859" lon="8.82834">
        <ele>149.14</ele>
        <time>2022-04-25T08:53:28Z</time>
      </trkpt>
      <trkpt lat="41.88593" lon="8.82856">
        <ele>152.03</ele>
        <time>2022-04-25T08:53:46Z</time>
      </trkpt>
      <trkpt lat="41.88598" lon="8.82872">
        <ele>155.39</ele>
        <time>2022-04-25T08:54:04Z</time>
      </trkpt>
      <trkpt lat="41.88605" lon="8.82889">
        <ele>158.75</ele>
        <time>2022-04-25T08:54:23Z</time>
      </trkpt>
      <trkpt lat="41.88611" lon="8.82905">
        <ele>162.12</ele>
        <time>2022-04-25T08:54:43Z</time>
      </trkpt>
      <trkpt lat="41.88619" lon="8.82922">
        <ele>165</ele>
        <time>2022-04-25T08:55:02Z</time>
      </trkpt>
      <trkpt lat="41.88634" lon="8.82936">
        <ele>165.96</ele>
        <time>2022-04-25T08:55:22Z</time>
      </trkpt>
      <trkpt lat="41.88655" lon="8.82948">
        <ele>166.93</ele>
        <time>2022-04-25T08:55:42Z</time>
      </trkpt>
      <trkpt lat="41.8867" lon="8.82956">
        <ele>168.85</ele>
        <time>2022-04-25T08:55:59Z</time>
      </trkpt>
      <trkpt lat="41.88688" lon="8.82961">
        <ele>169.33</ele>
        <time>2022-04-25T08:56:15Z</time>
      </trkpt>
      <trkpt lat="41.88708" lon="8.82965">
        <ele>170.77</ele>
        <time>2022-04-25T08:56:35Z</time>
      </trkpt>
      <trkpt lat="41.88722" lon="8.82966">
        <ele>168.37</ele>
        <time>2022-04-25T08:56:53Z</time>
      </trkpt>
      <trkpt lat="41.88727" lon="8.82962">
        <ele>167.41</ele>
        <time>2022-04-25T08:56:59Z</time>
      </trkpt>
      <trkpt lat="41.88738" lon="8.82961">
        <ele>165.96</ele>
        <time>2022-04-25T08:57:13Z</time>
      </trkpt>
      <trkpt lat="41.88749" lon="8.82975">
        <ele>168.37</ele>
        <time>2022-04-25T08:57:30Z</time>
      </trkpt>
      <trkpt lat="41.88737" lon="8.82975">
        <ele>170.77</ele>
        <time>2022-04-25T08:57:48Z</time>
      </trkpt>
      <trkpt lat="41.88733" lon="8.8299">
        <ele>173.66</ele>
        <time>2022-04-25T08:58:07Z</time>
      </trkpt>
      <trkpt lat="41.88728" lon="8.83004">
        <ele>177.02</ele>
        <time>2022-04-25T08:58:23Z</time>
      </trkpt>
      <trkpt lat="41.88724" lon="8.83019">
        <ele>180.38</ele>
        <time>2022-04-25T08:58:44Z</time>
      </trkpt>
      <trkpt lat="41.8873" lon="8.8304">
        <ele>181.83</ele>
        <time>2022-04-25T08:59:03Z</time>
      </trkpt>
      <trkpt lat="41.88727" lon="8.83058">
        <ele>184.71</ele>
        <time>2022-04-25T08:59:24Z</time>
      </trkpt>
      <trkpt lat="41.88725" lon="8.83061">
        <ele>186.63</ele>
        <time>2022-04-25T08:59:29Z</time>
      </trkpt>
      <trkpt lat="41.8873" lon="8.8308">
        <ele>184.71</ele>
        <time>2022-04-25T08:59:46Z</time>
      </trkpt>
      <trkpt lat="41.88752" lon="8.83095">
        <ele>183.75</ele>
        <time>2022-04-25T09:00:07Z</time>
      </trkpt>
      <trkpt lat="41.88768" lon="8.83111">
        <ele>184.71</ele>
        <time>2022-04-25T09:00:26Z</time>
      </trkpt>
      <trkpt lat="41.88755" lon="8.83133">
        <ele>188.08</ele>
        <time>2022-04-25T09:00:48Z</time>
      </trkpt>
      <trkpt lat="41.88747" lon="8.83157">
        <ele>190.48</ele>
        <time>2022-04-25T09:01:09Z</time>
      </trkpt>
      <trkpt lat="41.88736" lon="8.83171">
        <ele>192.88</ele>
        <time>2022-04-25T09:01:27Z</time>
      </trkpt>
      <trkpt lat="41.8873" lon="8.83187">
        <ele>195.77</ele>
        <time>2022-04-25T09:01:45Z</time>
      </trkpt>
      <trkpt lat="41.88725" lon="8.83195">
        <ele>199.61</ele>
        <time>2022-04-25T09:02:03Z</time>
      </trkpt>
      <trkpt lat="41.88724" lon="8.83193">
        <ele>196.25</ele>
        <time>2022-04-25T09:02:17Z</time>
      </trkpt>
      <trkpt lat="41.88726" lon="8.83192">
        <ele>197.69</ele>
        <time>2022-04-25T09:02:47Z</time>
      </trkpt>
      <trkpt lat="41.88725" lon="8.83193">
        <ele>196.25</ele>
        <time>2022-04-25T09:02:52Z</time>
      </trkpt>
      <trkpt lat="41.88725" lon="8.83193">
        <ele>199.13</ele>
        <time>2022-04-25T09:02:55Z</time>
      </trkpt>
      <trkpt lat="41.88725" lon="8.83193">
        <ele>196.25</ele>
        <time>2022-04-25T09:02:56Z</time>
      </trkpt>
      <trkpt lat="41.88727" lon="8.83192">
        <ele>197.21</ele>
        <time>2022-04-25T09:03:29Z</time>
      </trkpt>
      <trkpt lat="41.8873" lon="8.83189">
        <ele>197.21</ele>
        <time>2022-04-25T09:04:05Z</time>
      </trkpt>
      <trkpt lat="41.88716" lon="8.83203">
        <ele>199.13</ele>
        <time>2022-04-25T09:04:22Z</time>
      </trkpt>
      <trkpt lat="41.88712" lon="8.83217">
        <ele>201.53</ele>
        <time>2022-04-25T09:04:38Z</time>
      </trkpt>
      <trkpt lat="41.88708" lon="8.83232">
        <ele>204.42</ele>
        <time>2022-04-25T09:04:55Z</time>
      </trkpt>
      <trkpt lat="41.88698" lon="8.83246">
        <ele>207.3</ele>
        <time>2022-04-25T09:05:14Z</time>
      </trkpt>
      <trkpt lat="41.88697" lon="8.83258">
        <ele>210.19</ele>
        <time>2022-04-25T09:05:30Z</time>
      </trkpt>
      <trkpt lat="41.88696" lon="8.8327">
        <ele>213.07</ele>
        <time>2022-04-25T09:05:47Z</time>
      </trkpt>
      <trkpt lat="41.88689" lon="8.8328">
        <ele>215.95</ele>
        <time>2022-04-25T09:06:03Z</time>
      </trkpt>
      <trkpt lat="41.8869" lon="8.83296">
        <ele>218.36</ele>
        <time>2022-04-25T09:06:20Z</time>
      </trkpt>
      <trkpt lat="41.88695" lon="8.8331">
        <ele>219.8</ele>
        <time>2022-04-25T09:06:36Z</time>
      </trkpt>
      <trkpt lat="41.88694" lon="8.83313">
        <ele>223.16</ele>
        <time>2022-04-25T09:06:45Z</time>
      </trkpt>
      <trkpt lat="41.88695" lon="8.83313">
        <ele>221.72</ele>
        <time>2022-04-25T09:06:46Z</time>
      </trkpt>
      <trkpt lat="41.88696" lon="8.83313">
        <ele>220.28</ele>
        <time>2022-04-25T09:06:48Z</time>
      </trkpt>
      <trkpt lat="41.88696" lon="8.83318">
        <ele>221.24</ele>
        <time>2022-04-25T09:07:10Z</time>
      </trkpt>
      <trkpt lat="41.88691" lon="8.83335">
        <ele>223.16</ele>
        <time>2022-04-25T09:07:24Z</time>
      </trkpt>
      <trkpt lat="41.88683" lon="8.83351">
        <ele>225.09</ele>
        <time>2022-04-25T09:07:39Z</time>
      </trkpt>
      <trkpt lat="41.8868" lon="8.83364">
        <ele>226.05</ele>
        <time>2022-04-25T09:07:56Z</time>
      </trkpt>
      <trkpt lat="41.88682" lon="8.83387">
        <ele>227.97</ele>
        <time>2022-04-25T09:08:16Z</time>
      </trkpt>
      <trkpt lat="41.88686" lon="8.83408">
        <ele>228.93</ele>
        <time>2022-04-25T09:08:31Z</time>
      </trkpt>
      <trkpt lat="41.88691" lon="8.83419">
        <ele>228.93</ele>
        <time>2022-04-25T09:08:41Z</time>
      </trkpt>
      <trkpt lat="41.88693" lon="8.83426">
        <ele>229.41</ele>
        <time>2022-04-25T09:08:46Z</time>
      </trkpt>
      <trkpt lat="41.88695" lon="8.83428">
        <ele>229.89</ele>
        <time>2022-04-25T09:08:48Z</time>
      </trkpt>
      <trkpt lat="41.88699" lon="8.83434">
        <ele>230.37</ele>
        <time>2022-04-25T09:08:55Z</time>
      </trkpt>
      <trkpt lat="41.88707" lon="8.83446">
        <ele>231.33</ele>
        <time>2022-04-25T09:09:09Z</time>
      </trkpt>
      <trkpt lat="41.8871" lon="8.83453">
        <ele>232.3</ele>
        <time>2022-04-25T09:09:22Z</time>
      </trkpt>
      <trkpt lat="41.88718" lon="8.83469">
        <ele>232.3</ele>
        <time>2022-04-25T09:09:38Z</time>
      </trkpt>
      <trkpt lat="41.88723" lon="8.83491">
        <ele>231.81</ele>
        <time>2022-04-25T09:09:55Z</time>
      </trkpt>
      <trkpt lat="41.88733" lon="8.83505">
        <ele>234.7</ele>
        <time>2022-04-25T09:10:11Z</time>
      </trkpt>
      <trkpt lat="41.88737" lon="8.83512">
        <ele>235.18</ele>
        <time>2022-04-25T09:10:30Z</time>
      </trkpt>
      <trkpt lat="41.88746" lon="8.83525">
        <ele>236.14</ele>
        <time>2022-04-25T09:10:45Z</time>
      </trkpt>
      <trkpt lat="41.88752" lon="8.83538">
        <ele>238.06</ele>
        <time>2022-04-25T09:11:00Z</time>
      </trkpt>
      <trkpt lat="41.88751" lon="8.83541">
        <ele>237.58</ele>
        <time>2022-04-25T09:11:28Z</time>
      </trkpt>
      <trkpt lat="41.88751" lon="8.83544">
        <ele>238.06</ele>
        <time>2022-04-25T09:11:44Z</time>
      </trkpt>
      <trkpt lat="41.88752" lon="8.83542">
        <ele>238.54</ele>
        <time>2022-04-25T09:12:03Z</time>
      </trkpt>
      <trkpt lat="41.88752" lon="8.83543">
        <ele>238.06</ele>
        <time>2022-04-25T09:12:18Z</time>
      </trkpt>
      <trkpt lat="41.88753" lon="8.83552">
        <ele>238.06</ele>
        <time>2022-04-25T09:12:32Z</time>
      </trkpt>
      <trkpt lat="41.88761" lon="8.83564">
        <ele>239.51</ele>
        <time>2022-04-25T09:12:44Z</time>
      </trkpt>
      <trkpt lat="41.88768" lon="8.83582">
        <ele>240.47</ele>
        <time>2022-04-25T09:13:03Z</time>
      </trkpt>
      <trkpt lat="41.8877" lon="8.83604">
        <ele>241.91</ele>
        <time>2022-04-25T09:13:19Z</time>
      </trkpt>
      <trkpt lat="41.88767" lon="8.83614">
        <ele>243.35</ele>
        <time>2022-04-25T09:13:31Z</time>
      </trkpt>
      <trkpt lat="41.88767" lon="8.83616">
        <ele>243.83</ele>
        <time>2022-04-25T09:13:48Z</time>
      </trkpt>
      <trkpt lat="41.88772" lon="8.83619">
        <ele>243.35</ele>
        <time>2022-04-25T09:13:59Z</time>
      </trkpt>
      <trkpt lat="41.8878" lon="8.83626">
        <ele>244.31</ele>
        <time>2022-04-25T09:14:11Z</time>
      </trkpt>
      <trkpt lat="41.88789" lon="8.83628">
        <ele>243.83</ele>
        <time>2022-04-25T09:14:22Z</time>
      </trkpt>
      <trkpt lat="41.88807" lon="8.83636">
        <ele>240.47</ele>
        <time>2022-04-25T09:14:38Z</time>
      </trkpt>
      <trkpt lat="41.88809" lon="8.83656">
        <ele>241.91</ele>
        <time>2022-04-25T09:14:53Z</time>
      </trkpt>
      <trkpt lat="41.88805" lon="8.83672">
        <ele>243.83</ele>
        <time>2022-04-25T09:15:10Z</time>
      </trkpt>
      <trkpt lat="41.88801" lon="8.83682">
        <ele>246.23</ele>
        <time>2022-04-25T09:15:22Z</time>
      </trkpt>
      <trkpt lat="41.888" lon="8.83699">
        <ele>249.12</ele>
        <time>2022-04-25T09:15:39Z</time>
      </trkpt>
      <trkpt lat="41.888" lon="8.83717">
        <ele>251.04</ele>
        <time>2022-04-25T09:15:54Z</time>
      </trkpt>
      <trkpt lat="41.888" lon="8.83733">
        <ele>252.96</ele>
        <time>2022-04-25T09:16:07Z</time>
      </trkpt>
      <trkpt lat="41.88799" lon="8.83751">
        <ele>254.89</ele>
        <time>2022-04-25T09:16:21Z</time>
      </trkpt>
      <trkpt lat="41.88798" lon="8.83764">
        <ele>256.33</ele>
        <time>2022-04-25T09:16:34Z</time>
      </trkpt>
      <trkpt lat="41.88795" lon="8.83775">
        <ele>258.25</ele>
        <time>2022-04-25T09:16:46Z</time>
      </trkpt>
      <trkpt lat="41.88787" lon="8.83788">
        <ele>260.17</ele>
        <time>2022-04-25T09:17:00Z</time>
      </trkpt>
      <trkpt lat="41.88781" lon="8.83804">
        <ele>262.58</ele>
        <time>2022-04-25T09:17:16Z</time>
      </trkpt>
      <trkpt lat="41.88775" lon="8.83818">
        <ele>264.98</ele>
        <time>2022-04-25T09:17:33Z</time>
      </trkpt>
      <trkpt lat="41.88772" lon="8.83829">
        <ele>267.38</ele>
        <time>2022-04-25T09:17:46Z</time>
      </trkpt>
      <trkpt lat="41.88771" lon="8.83833">
        <ele>268.35</ele>
        <time>2022-04-25T09:17:52Z</time>
      </trkpt>
      <trkpt lat="41.88764" lon="8.8384">
        <ele>271.23</ele>
        <time>2022-04-25T09:18:05Z</time>
      </trkpt>
      <trkpt lat="41.88749" lon="8.83836">
        <ele>273.15</ele>
        <time>2022-04-25T09:18:24Z</time>
      </trkpt>
      <trkpt lat="41.88735" lon="8.83837">
        <ele>274.11</ele>
        <time>2022-04-25T09:18:39Z</time>
      </trkpt>
      <trkpt lat="41.88732" lon="8.83843">
        <ele>276.52</ele>
        <time>2022-04-25T09:18:52Z</time>
      </trkpt>
      <trkpt lat="41.88726" lon="8.83851">
        <ele>277.96</ele>
        <time>2022-04-25T09:19:03Z</time>
      </trkpt>
      <trkpt lat="41.8871" lon="8.83855">
        <ele>280.36</ele>
        <time>2022-04-25T09:19:21Z</time>
      </trkpt>
      <trkpt lat="41.88695" lon="8.83863">
        <ele>281.32</ele>
        <time>2022-04-25T09:19:37Z</time>
      </trkpt>
      <trkpt lat="41.88682" lon="8.83869">
        <ele>281.8</ele>
        <time>2022-04-25T09:19:52Z</time>
      </trkpt>
      <trkpt lat="41.88673" lon="8.83875">
        <ele>281.8</ele>
        <time>2022-04-25T09:20:00Z</time>
      </trkpt>
      <trkpt lat="41.88658" lon="8.83889">
        <ele>284.21</ele>
        <time>2022-04-25T09:20:20Z</time>
      </trkpt>
      <trkpt lat="41.88645" lon="8.839">
        <ele>286.13</ele>
        <time>2022-04-25T09:20:38Z</time>
      </trkpt>
      <trkpt lat="41.88636" lon="8.83908">
        <ele>288.53</ele>
        <time>2022-04-25T09:20:56Z</time>
      </trkpt>
      <trkpt lat="41.88627" lon="8.83916">
        <ele>291.42</ele>
        <time>2022-04-25T09:21:15Z</time>
      </trkpt>
      <trkpt lat="41.88614" lon="8.83928">
        <ele>293.34</ele>
        <time>2022-04-25T09:21:36Z</time>
      </trkpt>
      <trkpt lat="41.886" lon="8.83939">
        <ele>296.22</ele>
        <time>2022-04-25T09:21:56Z</time>
      </trkpt>
      <trkpt lat="41.88587" lon="8.83947">
        <ele>297.67</ele>
        <time>2022-04-25T09:22:14Z</time>
      </trkpt>
      <trkpt lat="41.88572" lon="8.83954">
        <ele>300.55</ele>
        <time>2022-04-25T09:22:35Z</time>
      </trkpt>
      <trkpt lat="41.88559" lon="8.83962">
        <ele>302.95</ele>
        <time>2022-04-25T09:22:56Z</time>
      </trkpt>
      <trkpt lat="41.88543" lon="8.83976">
        <ele>305.84</ele>
        <time>2022-04-25T09:23:20Z</time>
      </trkpt>
      <trkpt lat="41.88547" lon="8.83986">
        <ele>309.2</ele>
        <time>2022-04-25T09:23:40Z</time>
      </trkpt>
      <trkpt lat="41.88559" lon="8.83989">
        <ele>312.09</ele>
        <time>2022-04-25T09:24:00Z</time>
      </trkpt>
      <trkpt lat="41.88555" lon="8.84">
        <ele>315.45</ele>
        <time>2022-04-25T09:24:20Z</time>
      </trkpt>
      <trkpt lat="41.88544" lon="8.84013">
        <ele>318.33</ele>
        <time>2022-04-25T09:24:39Z</time>
      </trkpt>
      <trkpt lat="41.88535" lon="8.84018">
        <ele>318.81</ele>
        <time>2022-04-25T09:25:03Z</time>
      </trkpt>
      <trkpt lat="41.88532" lon="8.84023">
        <ele>320.74</ele>
        <time>2022-04-25T09:25:29Z</time>
      </trkpt>
      <trkpt lat="41.88527" lon="8.84038">
        <ele>322.66</ele>
        <time>2022-04-25T09:25:51Z</time>
      </trkpt>
      <trkpt lat="41.88517" lon="8.84056">
        <ele>325.06</ele>
        <time>2022-04-25T09:26:11Z</time>
      </trkpt>
      <trkpt lat="41.88509" lon="8.8408">
        <ele>326.99</ele>
        <time>2022-04-25T09:26:31Z</time>
      </trkpt>
      <trkpt lat="41.88503" lon="8.84082">
        <ele>326.99</ele>
        <time>2022-04-25T09:26:54Z</time>
      </trkpt>
      <trkpt lat="41.88504" lon="8.84084">
        <ele>326.99</ele>
        <time>2022-04-25T09:27:29Z</time>
      </trkpt>
      <trkpt lat="41.88494" lon="8.84096">
        <ele>327.47</ele>
        <time>2022-04-25T09:27:53Z</time>
      </trkpt>
      <trkpt lat="41.88477" lon="8.84102">
        <ele>329.39</ele>
        <time>2022-04-25T09:28:14Z</time>
      </trkpt>
      <trkpt lat="41.88473" lon="8.84124">
        <ele>331.31</ele>
        <time>2022-04-25T09:28:36Z</time>
      </trkpt>
      <trkpt lat="41.88464" lon="8.84142">
        <ele>333.71</ele>
        <time>2022-04-25T09:28:56Z</time>
      </trkpt>
      <trkpt lat="41.88453" lon="8.84161">
        <ele>336.12</ele>
        <time>2022-04-25T09:29:18Z</time>
      </trkpt>
      <trkpt lat="41.88452" lon="8.84163">
        <ele>336.12</ele>
        <time>2022-04-25T09:29:39Z</time>
      </trkpt>
      <trkpt lat="41.8845" lon="8.84165">
        <ele>336.12</ele>
        <time>2022-04-25T09:30:02Z</time>
      </trkpt>
      <trkpt lat="41.88449" lon="8.84183">
        <ele>337.56</ele>
        <time>2022-04-25T09:30:16Z</time>
      </trkpt>
      <trkpt lat="41.88447" lon="8.8419">
        <ele>338.52</ele>
        <time>2022-04-25T09:30:31Z</time>
      </trkpt>
      <trkpt lat="41.88455" lon="8.84193">
        <ele>337.56</ele>
        <time>2022-04-25T09:30:50Z</time>
      </trkpt>
      <trkpt lat="41.88461" lon="8.84204">
        <ele>337.08</ele>
        <time>2022-04-25T09:31:12Z</time>
      </trkpt>
      <trkpt lat="41.88465" lon="8.84211">
        <ele>337.56</ele>
        <time>2022-04-25T09:31:18Z</time>
      </trkpt>
      <trkpt lat="41.88469" lon="8.84233">
        <ele>334.68</ele>
        <time>2022-04-25T09:31:34Z</time>
      </trkpt>
      <trkpt lat="41.88471" lon="8.84236">
        <ele>334.2</ele>
        <time>2022-04-25T09:31:37Z</time>
      </trkpt>
      <trkpt lat="41.88475" lon="8.84245">
        <ele>333.23</ele>
        <time>2022-04-25T09:31:42Z</time>
      </trkpt>
      <trkpt lat="41.88482" lon="8.8426">
        <ele>332.27</ele>
        <time>2022-04-25T09:31:56Z</time>
      </trkpt>
      <trkpt lat="41.88487" lon="8.84276">
        <ele>332.75</ele>
        <time>2022-04-25T09:32:14Z</time>
      </trkpt>
      <trkpt lat="41.8849" lon="8.84287">
        <ele>332.27</ele>
        <time>2022-04-25T09:32:29Z</time>
      </trkpt>
      <trkpt lat="41.8849" lon="8.84299">
        <ele>332.27</ele>
        <time>2022-04-25T09:32:45Z</time>
      </trkpt>
      <trkpt lat="41.88487" lon="8.84314">
        <ele>332.27</ele>
        <time>2022-04-25T09:33:08Z</time>
      </trkpt>
      <trkpt lat="41.88475" lon="8.84327">
        <ele>332.27</ele>
        <time>2022-04-25T09:33:23Z</time>
      </trkpt>
      <trkpt lat="41.88462" lon="8.84339">
        <ele>335.16</ele>
        <time>2022-04-25T09:33:40Z</time>
      </trkpt>
      <trkpt lat="41.88449" lon="8.84346">
        <ele>336.6</ele>
        <time>2022-04-25T09:33:57Z</time>
      </trkpt>
      <trkpt lat="41.88437" lon="8.84338">
        <ele>336.12</ele>
        <time>2022-04-25T09:34:13Z</time>
      </trkpt>
      <trkpt lat="41.88433" lon="8.84334">
        <ele>336.12</ele>
        <time>2022-04-25T09:34:28Z</time>
      </trkpt>
      <trkpt lat="41.88427" lon="8.84337">
        <ele>335.64</ele>
        <time>2022-04-25T09:34:58Z</time>
      </trkpt>
      <trkpt lat="41.88433" lon="8.84338">
        <ele>335.64</ele>
        <time>2022-04-25T09:35:25Z</time>
      </trkpt>
      <trkpt lat="41.88427" lon="8.84331">
        <ele>336.12</ele>
        <time>2022-04-25T09:35:32Z</time>
      </trkpt>
      <trkpt lat="41.88422" lon="8.84329">
        <ele>336.6</ele>
        <time>2022-04-25T09:35:48Z</time>
      </trkpt>
      <trkpt lat="41.88419" lon="8.84328">
        <ele>336.12</ele>
        <time>2022-04-25T09:36:02Z</time>
      </trkpt>
      <trkpt lat="41.88413" lon="8.84328">
        <ele>337.08</ele>
        <time>2022-04-25T09:36:23Z</time>
      </trkpt>
      <trkpt lat="41.88402" lon="8.84327">
        <ele>338.04</ele>
        <time>2022-04-25T09:36:39Z</time>
      </trkpt>
      <trkpt lat="41.88393" lon="8.84324">
        <ele>338.04</ele>
        <time>2022-04-25T09:36:54Z</time>
      </trkpt>
      <trkpt lat="41.88378" lon="8.84326">
        <ele>341.41</ele>
        <time>2022-04-25T09:37:11Z</time>
      </trkpt>
      <trkpt lat="41.88366" lon="8.84332">
        <ele>343.81</ele>
        <time>2022-04-25T09:37:28Z</time>
      </trkpt>
      <trkpt lat="41.88359" lon="8.84339">
        <ele>345.25</ele>
        <time>2022-04-25T09:37:42Z</time>
      </trkpt>
      <trkpt lat="41.88345" lon="8.84346">
        <ele>347.65</ele>
        <time>2022-04-25T09:38:01Z</time>
      </trkpt>
      <trkpt lat="41.88338" lon="8.84346">
        <ele>346.69</ele>
        <time>2022-04-25T09:38:15Z</time>
      </trkpt>
      <trkpt lat="41.88331" lon="8.84347">
        <ele>346.21</ele>
        <time>2022-04-25T09:38:27Z</time>
      </trkpt>
      <trkpt lat="41.8832" lon="8.84341">
        <ele>345.25</ele>
        <time>2022-04-25T09:38:42Z</time>
      </trkpt>
      <trkpt lat="41.88305" lon="8.84337">
        <ele>346.21</ele>
        <time>2022-04-25T09:38:58Z</time>
      </trkpt>
      <trkpt lat="41.88302" lon="8.84338">
        <ele>347.17</ele>
        <time>2022-04-25T09:39:09Z</time>
      </trkpt>
      <trkpt lat="41.88298" lon="8.84339">
        <ele>347.17</ele>
        <time>2022-04-25T09:39:15Z</time>
      </trkpt>
      <trkpt lat="41.88294" lon="8.84338">
        <ele>346.69</ele>
        <time>2022-04-25T09:39:27Z</time>
      </trkpt>
      <trkpt lat="41.88286" lon="8.84338">
        <ele>345.25</ele>
        <time>2022-04-25T09:39:45Z</time>
      </trkpt>
      <trkpt lat="41.8827" lon="8.84329">
        <ele>344.77</ele>
        <time>2022-04-25T09:40:02Z</time>
      </trkpt>
      <trkpt lat="41.88256" lon="8.84322">
        <ele>344.77</ele>
        <time>2022-04-25T09:40:16Z</time>
      </trkpt>
      <trkpt lat="41.88242" lon="8.84308">
        <ele>344.29</ele>
        <time>2022-04-25T09:40:32Z</time>
      </trkpt>
      <trkpt lat="41.88228" lon="8.84303">
        <ele>345.25</ele>
        <time>2022-04-25T09:40:46Z</time>
      </trkpt>
      <trkpt lat="41.88212" lon="8.843">
        <ele>346.69</ele>
        <time>2022-04-25T09:41:03Z</time>
      </trkpt>
      <trkpt lat="41.88211" lon="8.84298">
        <ele>347.17</ele>
        <time>2022-04-25T09:41:11Z</time>
      </trkpt>
      <trkpt lat="41.88204" lon="8.8428">
        <ele>345.25</ele>
        <time>2022-04-25T09:41:26Z</time>
      </trkpt>
      <trkpt lat="41.88199" lon="8.84268">
        <ele>343.81</ele>
        <time>2022-04-25T09:41:37Z</time>
      </trkpt>
      <trkpt lat="41.88196" lon="8.84263">
        <ele>345.25</ele>
        <time>2022-04-25T09:41:42Z</time>
      </trkpt>
      <trkpt lat="41.88186" lon="8.8425">
        <ele>346.69</ele>
        <time>2022-04-25T09:41:56Z</time>
      </trkpt>
      <trkpt lat="41.88178" lon="8.84243">
        <ele>344.77</ele>
        <time>2022-04-25T09:42:08Z</time>
      </trkpt>
      <trkpt lat="41.88174" lon="8.84239">
        <ele>344.29</ele>
        <time>2022-04-25T09:42:22Z</time>
      </trkpt>
      <trkpt lat="41.88172" lon="8.84237">
        <ele>343.33</ele>
        <time>2022-04-25T09:42:49Z</time>
      </trkpt>
      <trkpt lat="41.88153" lon="8.84234">
        <ele>340.44</ele>
        <time>2022-04-25T09:43:05Z</time>
      </trkpt>
      <trkpt lat="41.88146" lon="8.84231">
        <ele>339.96</ele>
        <time>2022-04-25T09:43:17Z</time>
      </trkpt>
      <trkpt lat="41.88127" lon="8.84221">
        <ele>337.08</ele>
        <time>2022-04-25T09:43:34Z</time>
      </trkpt>
      <trkpt lat="41.88115" lon="8.8421">
        <ele>337.08</ele>
        <time>2022-04-25T09:43:53Z</time>
      </trkpt>
      <trkpt lat="41.88112" lon="8.84207">
        <ele>338.04</ele>
        <time>2022-04-25T09:43:59Z</time>
      </trkpt>
      <trkpt lat="41.88102" lon="8.84199">
        <ele>340.92</ele>
        <time>2022-04-25T09:44:14Z</time>
      </trkpt>
      <trkpt lat="41.88097" lon="8.84188">
        <ele>344.29</ele>
        <time>2022-04-25T09:44:30Z</time>
      </trkpt>
      <trkpt lat="41.88092" lon="8.84178">
        <ele>345.73</ele>
        <time>2022-04-25T09:44:46Z</time>
      </trkpt>
      <trkpt lat="41.88085" lon="8.8417">
        <ele>349.1</ele>
        <time>2022-04-25T09:45:00Z</time>
      </trkpt>
      <trkpt lat="41.88079" lon="8.84164">
        <ele>350.54</ele>
        <time>2022-04-25T09:45:16Z</time>
      </trkpt>
      <trkpt lat="41.88075" lon="8.84167">
        <ele>351.98</ele>
        <time>2022-04-25T09:45:30Z</time>
      </trkpt>
      <trkpt lat="41.88074" lon="8.84163">
        <ele>352.46</ele>
        <time>2022-04-25T09:45:44Z</time>
      </trkpt>
      <trkpt lat="41.88074" lon="8.84162">
        <ele>352.46</ele>
        <time>2022-04-25T09:46:14Z</time>
      </trkpt>
      <trkpt lat="41.88074" lon="8.84164">
        <ele>352.94</ele>
        <time>2022-04-25T09:46:41Z</time>
      </trkpt>
      <trkpt lat="41.88071" lon="8.84162">
        <ele>352.46</ele>
        <time>2022-04-25T09:46:54Z</time>
      </trkpt>
      <trkpt lat="41.88069" lon="8.84163">
        <ele>354.38</ele>
        <time>2022-04-25T09:47:04Z</time>
      </trkpt>
      <trkpt lat="41.88068" lon="8.84163">
        <ele>353.9</ele>
        <time>2022-04-25T09:47:21Z</time>
      </trkpt>
      <trkpt lat="41.88067" lon="8.84162">
        <ele>354.38</ele>
        <time>2022-04-25T09:47:32Z</time>
      </trkpt>
      <trkpt lat="41.88066" lon="8.84161">
        <ele>354.38</ele>
        <time>2022-04-25T09:47:46Z</time>
      </trkpt>
      <trkpt lat="41.88062" lon="8.84162">
        <ele>354.38</ele>
        <time>2022-04-25T09:48:03Z</time>
      </trkpt>
      <trkpt lat="41.88053" lon="8.84166">
        <ele>357.27</ele>
        <time>2022-04-25T09:48:17Z</time>
      </trkpt>
      <trkpt lat="41.88048" lon="8.84171">
        <ele>357.27</ele>
        <time>2022-04-25T09:48:34Z</time>
      </trkpt>
      <trkpt lat="41.88048" lon="8.84179">
        <ele>357.27</ele>
        <time>2022-04-25T09:48:52Z</time>
      </trkpt>
      <trkpt lat="41.88043" lon="8.84187">
        <ele>357.27</ele>
        <time>2022-04-25T09:49:07Z</time>
      </trkpt>
      <trkpt lat="41.88041" lon="8.84196">
        <ele>359.67</ele>
        <time>2022-04-25T09:49:23Z</time>
      </trkpt>
      <trkpt lat="41.88041" lon="8.84196">
        <ele>359.67</ele>
        <time>2022-04-25T09:49:28Z</time>
      </trkpt>
      <trkpt lat="41.88042" lon="8.84197">
        <ele>360.15</ele>
        <time>2022-04-25T09:49:41Z</time>
      </trkpt>
      <trkpt lat="41.88038" lon="8.84202">
        <ele>360.63</ele>
        <time>2022-04-25T09:49:58Z</time>
      </trkpt>
      <trkpt lat="41.88031" lon="8.84215">
        <ele>363.04</ele>
        <time>2022-04-25T09:50:12Z</time>
      </trkpt>
      <trkpt lat="41.88025" lon="8.84222">
        <ele>364</ele>
        <time>2022-04-25T09:50:31Z</time>
      </trkpt>
      <trkpt lat="41.88024" lon="8.84222">
        <ele>364</ele>
        <time>2022-04-25T09:50:32Z</time>
      </trkpt>
      <trkpt lat="41.88021" lon="8.84224">
        <ele>363.52</ele>
        <time>2022-04-25T09:50:34Z</time>
      </trkpt>
      <trkpt lat="41.88004" lon="8.84251">
        <ele>364</ele>
        <time>2022-04-25T09:50:55Z</time>
      </trkpt>
      <trkpt lat="41.87993" lon="8.84269">
        <ele>364.48</ele>
        <time>2022-04-25T09:51:14Z</time>
      </trkpt>
      <trkpt lat="41.8798" lon="8.84297">
        <ele>364.48</ele>
        <time>2022-04-25T09:51:34Z</time>
      </trkpt>
      <trkpt lat="41.87971" lon="8.84318">
        <ele>364.96</ele>
        <time>2022-04-25T09:51:52Z</time>
      </trkpt>
      <trkpt lat="41.87966" lon="8.84332">
        <ele>365.44</ele>
        <time>2022-04-25T09:52:08Z</time>
      </trkpt>
      <trkpt lat="41.87965" lon="8.84335">
        <ele>365.92</ele>
        <time>2022-04-25T09:52:10Z</time>
      </trkpt>
      <trkpt lat="41.87956" lon="8.84349">
        <ele>365.44</ele>
        <time>2022-04-25T09:52:22Z</time>
      </trkpt>
      <trkpt lat="41.87941" lon="8.84348">
        <ele>363.52</ele>
        <time>2022-04-25T09:52:42Z</time>
      </trkpt>
      <trkpt lat="41.87941" lon="8.84345">
        <ele>364</ele>
        <time>2022-04-25T09:53:05Z</time>
      </trkpt>
      <trkpt lat="41.8793" lon="8.84344">
        <ele>362.07</ele>
        <time>2022-04-25T09:53:22Z</time>
      </trkpt>
      <trkpt lat="41.87926" lon="8.84346">
        <ele>362.07</ele>
        <time>2022-04-25T09:53:36Z</time>
      </trkpt>
      <trkpt lat="41.87928" lon="8.84345">
        <ele>363.04</ele>
        <time>2022-04-25T09:54:05Z</time>
      </trkpt>
      <trkpt lat="41.87921" lon="8.84342">
        <ele>361.59</ele>
        <time>2022-04-25T09:54:31Z</time>
      </trkpt>
      <trkpt lat="41.87904" lon="8.84335">
        <ele>358.71</ele>
        <time>2022-04-25T09:54:49Z</time>
      </trkpt>
      <trkpt lat="41.87885" lon="8.84333">
        <ele>355.83</ele>
        <time>2022-04-25T09:55:05Z</time>
      </trkpt>
      <trkpt lat="41.8788" lon="8.84335">
        <ele>354.38</ele>
        <time>2022-04-25T09:55:10Z</time>
      </trkpt>
      <trkpt lat="41.87864" lon="8.84353">
        <ele>351.02</ele>
        <time>2022-04-25T09:55:27Z</time>
      </trkpt>
      <trkpt lat="41.87863" lon="8.84352">
        <ele>350.54</ele>
        <time>2022-04-25T09:55:43Z</time>
      </trkpt>
      <trkpt lat="41.87861" lon="8.84352">
        <ele>351.02</ele>
        <time>2022-04-25T09:55:50Z</time>
      </trkpt>
      <trkpt lat="41.87849" lon="8.84361">
        <ele>346.69</ele>
        <time>2022-04-25T09:56:01Z</time>
      </trkpt>
      <trkpt lat="41.8784" lon="8.84368">
        <ele>344.29</ele>
        <time>2022-04-25T09:56:10Z</time>
      </trkpt>
      <trkpt lat="41.87825" lon="8.8436">
        <ele>344.77</ele>
        <time>2022-04-25T09:56:27Z</time>
      </trkpt>
      <trkpt lat="41.87809" lon="8.84346">
        <ele>343.33</ele>
        <time>2022-04-25T09:56:44Z</time>
      </trkpt>
      <trkpt lat="41.87788" lon="8.84337">
        <ele>346.69</ele>
        <time>2022-04-25T09:57:05Z</time>
      </trkpt>
      <trkpt lat="41.87774" lon="8.84339">
        <ele>349.58</ele>
        <time>2022-04-25T09:57:24Z</time>
      </trkpt>
      <trkpt lat="41.87762" lon="8.84351">
        <ele>349.1</ele>
        <time>2022-04-25T09:57:38Z</time>
      </trkpt>
      <trkpt lat="41.87754" lon="8.84364">
        <ele>346.21</ele>
        <time>2022-04-25T09:57:50Z</time>
      </trkpt>
      <trkpt lat="41.87753" lon="8.84368">
        <ele>346.21</ele>
        <time>2022-04-25T09:57:52Z</time>
      </trkpt>
      <trkpt lat="41.87751" lon="8.84371">
        <ele>345.25</ele>
        <time>2022-04-25T09:57:54Z</time>
      </trkpt>
      <trkpt lat="41.87744" lon="8.84376">
        <ele>344.29</ele>
        <time>2022-04-25T09:57:59Z</time>
      </trkpt>
      <trkpt lat="41.87737" lon="8.84381">
        <ele>341.89</ele>
        <time>2022-04-25T09:58:05Z</time>
      </trkpt>
      <trkpt lat="41.87715" lon="8.84393">
        <ele>340.44</ele>
        <time>2022-04-25T09:58:26Z</time>
      </trkpt>
      <trkpt lat="41.87699" lon="8.84415">
        <ele>342.85</ele>
        <time>2022-04-25T09:58:45Z</time>
      </trkpt>
      <trkpt lat="41.87692" lon="8.84428">
        <ele>345.73</ele>
        <time>2022-04-25T09:59:03Z</time>
      </trkpt>
      <trkpt lat="41.87675" lon="8.84437">
        <ele>345.25</ele>
        <time>2022-04-25T09:59:22Z</time>
      </trkpt>
      <trkpt lat="41.87657" lon="8.84428">
        <ele>341.89</ele>
        <time>2022-04-25T09:59:39Z</time>
      </trkpt>
      <trkpt lat="41.87641" lon="8.84413">
        <ele>341.41</ele>
        <time>2022-04-25T09:59:56Z</time>
      </trkpt>
      <trkpt lat="41.87628" lon="8.84404">
        <ele>338.04</ele>
        <time>2022-04-25T10:00:09Z</time>
      </trkpt>
      <trkpt lat="41.87616" lon="8.84401">
        <ele>334.68</ele>
        <time>2022-04-25T10:00:20Z</time>
      </trkpt>
      <trkpt lat="41.87613" lon="8.84401">
        <ele>333.71</ele>
        <time>2022-04-25T10:00:22Z</time>
      </trkpt>
      <trkpt lat="41.87593" lon="8.84401">
        <ele>333.71</ele>
        <time>2022-04-25T10:00:40Z</time>
      </trkpt>
      <trkpt lat="41.87578" lon="8.84395">
        <ele>333.71</ele>
        <time>2022-04-25T10:01:00Z</time>
      </trkpt>
      <trkpt lat="41.87573" lon="8.84386">
        <ele>332.27</ele>
        <time>2022-04-25T10:01:29Z</time>
      </trkpt>
      <trkpt lat="41.87572" lon="8.84386">
        <ele>331.79</ele>
        <time>2022-04-25T10:01:31Z</time>
      </trkpt>
      <trkpt lat="41.87549" lon="8.84385">
        <ele>329.39</ele>
        <time>2022-04-25T10:01:51Z</time>
      </trkpt>
      <trkpt lat="41.87527" lon="8.84374">
        <ele>327.95</ele>
        <time>2022-04-25T10:02:12Z</time>
      </trkpt>
      <trkpt lat="41.87511" lon="8.84371">
        <ele>326.99</ele>
        <time>2022-04-25T10:02:28Z</time>
      </trkpt>
      <trkpt lat="41.8749" lon="8.84367">
        <ele>325.54</ele>
        <time>2022-04-25T10:02:46Z</time>
      </trkpt>
      <trkpt lat="41.87472" lon="8.84374">
        <ele>325.54</ele>
        <time>2022-04-25T10:03:05Z</time>
      </trkpt>
      <trkpt lat="41.87456" lon="8.8437">
        <ele>323.14</ele>
        <time>2022-04-25T10:03:26Z</time>
      </trkpt>
      <trkpt lat="41.87443" lon="8.84363">
        <ele>323.62</ele>
        <time>2022-04-25T10:03:42Z</time>
      </trkpt>
      <trkpt lat="41.8742" lon="8.84345">
        <ele>326.02</ele>
        <time>2022-04-25T10:04:06Z</time>
      </trkpt>
      <trkpt lat="41.87409" lon="8.84354">
        <ele>328.91</ele>
        <time>2022-04-25T10:04:27Z</time>
      </trkpt>
      <trkpt lat="41.87401" lon="8.84368">
        <ele>331.79</ele>
        <time>2022-04-25T10:04:46Z</time>
      </trkpt>
      <trkpt lat="41.87391" lon="8.8437">
        <ele>335.16</ele>
        <time>2022-04-25T10:05:02Z</time>
      </trkpt>
      <trkpt lat="41.87382" lon="8.84366">
        <ele>338.52</ele>
        <time>2022-04-25T10:05:21Z</time>
      </trkpt>
      <trkpt lat="41.87377" lon="8.84371">
        <ele>338.04</ele>
        <time>2022-04-25T10:05:40Z</time>
      </trkpt>
      <trkpt lat="41.87379" lon="8.84365">
        <ele>338.04</ele>
        <time>2022-04-25T10:06:00Z</time>
      </trkpt>
      <trkpt lat="41.87377" lon="8.84364">
        <ele>338.04</ele>
        <time>2022-04-25T10:06:31Z</time>
      </trkpt>
      <trkpt lat="41.87376" lon="8.84376">
        <ele>337.56</ele>
        <time>2022-04-25T10:06:56Z</time>
      </trkpt>
      <trkpt lat="41.87359" lon="8.84396">
        <ele>336.6</ele>
        <time>2022-04-25T10:07:15Z</time>
      </trkpt>
      <trkpt lat="41.87351" lon="8.84427">
        <ele>335.64</ele>
        <time>2022-04-25T10:07:34Z</time>
      </trkpt>
      <trkpt lat="41.87349" lon="8.84434">
        <ele>335.16</ele>
        <time>2022-04-25T10:07:56Z</time>
      </trkpt>
      <trkpt lat="41.87345" lon="8.84432">
        <ele>335.16</ele>
        <time>2022-04-25T10:08:23Z</time>
      </trkpt>
      <trkpt lat="41.87346" lon="8.84434">
        <ele>335.16</ele>
        <time>2022-04-25T10:08:44Z</time>
      </trkpt>
      <trkpt lat="41.87347" lon="8.84452">
        <ele>334.68</ele>
        <time>2022-04-25T10:09:05Z</time>
      </trkpt>
      <trkpt lat="41.8735" lon="8.84468">
        <ele>334.68</ele>
        <time>2022-04-25T10:09:16Z</time>
      </trkpt>
      <trkpt lat="41.87349" lon="8.84475">
        <ele>334.2</ele>
        <time>2022-04-25T10:09:21Z</time>
      </trkpt>
      <trkpt lat="41.87338" lon="8.84489">
        <ele>333.23</ele>
        <time>2022-04-25T10:09:32Z</time>
      </trkpt>
      <trkpt lat="41.8732" lon="8.84502">
        <ele>332.75</ele>
        <time>2022-04-25T10:09:51Z</time>
      </trkpt>
      <trkpt lat="41.8732" lon="8.84503">
        <ele>330.35</ele>
        <time>2022-04-25T10:09:53Z</time>
      </trkpt>
      <trkpt lat="41.87316" lon="8.84508">
        <ele>330.83</ele>
        <time>2022-04-25T10:10:16Z</time>
      </trkpt>
      <trkpt lat="41.87311" lon="8.84509">
        <ele>330.83</ele>
        <time>2022-04-25T10:10:33Z</time>
      </trkpt>
      <trkpt lat="41.87315" lon="8.84522">
        <ele>330.83</ele>
        <time>2022-04-25T10:10:46Z</time>
      </trkpt>
      <trkpt lat="41.87322" lon="8.84543">
        <ele>329.39</ele>
        <time>2022-04-25T10:11:01Z</time>
      </trkpt>
      <trkpt lat="41.87317" lon="8.84571">
        <ele>328.91</ele>
        <time>2022-04-25T10:11:21Z</time>
      </trkpt>
      <trkpt lat="41.87316" lon="8.84574">
        <ele>328.91</ele>
        <time>2022-04-25T10:11:23Z</time>
      </trkpt>
      <trkpt lat="41.8731" lon="8.84586">
        <ele>327.47</ele>
        <time>2022-04-25T10:11:36Z</time>
      </trkpt>
      <trkpt lat="41.87312" lon="8.84597">
        <ele>326.5</ele>
        <time>2022-04-25T10:11:46Z</time>
      </trkpt>
      <trkpt lat="41.87308" lon="8.84602">
        <ele>326.5</ele>
        <time>2022-04-25T10:12:00Z</time>
      </trkpt>
      <trkpt lat="41.87308" lon="8.846">
        <ele>326.99</ele>
        <time>2022-04-25T10:12:18Z</time>
      </trkpt>
      <trkpt lat="41.8731" lon="8.84599">
        <ele>326.5</ele>
        <time>2022-04-25T10:12:46Z</time>
      </trkpt>
      <trkpt lat="41.87311" lon="8.846">
        <ele>326.5</ele>
        <time>2022-04-25T10:12:49Z</time>
      </trkpt>
      <trkpt lat="41.87313" lon="8.84603">
        <ele>328.91</ele>
        <time>2022-04-25T10:12:51Z</time>
      </trkpt>
      <trkpt lat="41.87314" lon="8.84609">
        <ele>326.02</ele>
        <time>2022-04-25T10:12:54Z</time>
      </trkpt>
      <trkpt lat="41.87315" lon="8.84613">
        <ele>325.06</ele>
        <time>2022-04-25T10:12:57Z</time>
      </trkpt>
      <trkpt lat="41.87315" lon="8.84622">
        <ele>324.58</ele>
        <time>2022-04-25T10:13:05Z</time>
      </trkpt>
      <trkpt lat="41.87319" lon="8.84647">
        <ele>324.58</ele>
        <time>2022-04-25T10:13:17Z</time>
      </trkpt>
      <trkpt lat="41.87327" lon="8.84671">
        <ele>326.02</ele>
        <time>2022-04-25T10:13:33Z</time>
      </trkpt>
      <trkpt lat="41.8733" lon="8.84689">
        <ele>326.99</ele>
        <time>2022-04-25T10:13:47Z</time>
      </trkpt>
      <trkpt lat="41.87336" lon="8.84714">
        <ele>328.43</ele>
        <time>2022-04-25T10:14:03Z</time>
      </trkpt>
      <trkpt lat="41.87336" lon="8.84716">
        <ele>328.43</ele>
        <time>2022-04-25T10:14:04Z</time>
      </trkpt>
      <trkpt lat="41.87339" lon="8.84744">
        <ele>329.39</ele>
        <time>2022-04-25T10:14:22Z</time>
      </trkpt>
      <trkpt lat="41.87341" lon="8.84751">
        <ele>329.87</ele>
        <time>2022-04-25T10:14:27Z</time>
      </trkpt>
      <trkpt lat="41.8735" lon="8.84778">
        <ele>331.31</ele>
        <time>2022-04-25T10:14:45Z</time>
      </trkpt>
      <trkpt lat="41.87359" lon="8.84806">
        <ele>332.27</ele>
        <time>2022-04-25T10:15:04Z</time>
      </trkpt>
      <trkpt lat="41.87359" lon="8.84809">
        <ele>332.75</ele>
        <time>2022-04-25T10:15:06Z</time>
      </trkpt>
      <trkpt lat="41.87365" lon="8.84825">
        <ele>335.64</ele>
        <time>2022-04-25T10:15:17Z</time>
      </trkpt>
      <trkpt lat="41.87365" lon="8.84827">
        <ele>331.79</ele>
        <time>2022-04-25T10:15:18Z</time>
      </trkpt>
      <trkpt lat="41.87366" lon="8.84828">
        <ele>334.68</ele>
        <time>2022-04-25T10:15:19Z</time>
      </trkpt>
      <trkpt lat="41.87367" lon="8.84841">
        <ele>334.68</ele>
        <time>2022-04-25T10:15:29Z</time>
      </trkpt>
      <trkpt lat="41.87369" lon="8.84848">
        <ele>333.71</ele>
        <time>2022-04-25T10:15:34Z</time>
      </trkpt>
      <trkpt lat="41.87372" lon="8.84867">
        <ele>332.75</ele>
        <time>2022-04-25T10:15:46Z</time>
      </trkpt>
      <trkpt lat="41.87373" lon="8.84871">
        <ele>335.16</ele>
        <time>2022-04-25T10:15:49Z</time>
      </trkpt>
      <trkpt lat="41.87373" lon="8.84898">
        <ele>336.6</ele>
        <time>2022-04-25T10:16:07Z</time>
      </trkpt>
      <trkpt lat="41.87377" lon="8.84922">
        <ele>337.56</ele>
        <time>2022-04-25T10:16:22Z</time>
      </trkpt>
      <trkpt lat="41.8738" lon="8.84939">
        <ele>338.52</ele>
        <time>2022-04-25T10:16:35Z</time>
      </trkpt>
      <trkpt lat="41.87379" lon="8.8496">
        <ele>339</ele>
        <time>2022-04-25T10:16:51Z</time>
      </trkpt>
      <trkpt lat="41.87379" lon="8.84974">
        <ele>339.96</ele>
        <time>2022-04-25T10:17:01Z</time>
      </trkpt>
      <trkpt lat="41.87376" lon="8.84989">
        <ele>339.96</ele>
        <time>2022-04-25T10:17:10Z</time>
      </trkpt>
      <trkpt lat="41.87371" lon="8.85017">
        <ele>340.44</ele>
        <time>2022-04-25T10:17:29Z</time>
      </trkpt>
      <trkpt lat="41.8735" lon="8.85034">
        <ele>342.85</ele>
        <time>2022-04-25T10:17:49Z</time>
      </trkpt>
      <trkpt lat="41.8733" lon="8.85041">
        <ele>343.81</ele>
        <time>2022-04-25T10:18:07Z</time>
      </trkpt>
      <trkpt lat="41.8731" lon="8.8505">
        <ele>345.25</ele>
        <time>2022-04-25T10:18:27Z</time>
      </trkpt>
      <trkpt lat="41.87294" lon="8.85068">
        <ele>347.17</ele>
        <time>2022-04-25T10:18:44Z</time>
      </trkpt>
      <trkpt lat="41.87276" lon="8.85079">
        <ele>347.17</ele>
        <time>2022-04-25T10:19:01Z</time>
      </trkpt>
      <trkpt lat="41.87262" lon="8.85091">
        <ele>347.65</ele>
        <time>2022-04-25T10:19:14Z</time>
      </trkpt>
      <trkpt lat="41.87253" lon="8.85108">
        <ele>349.1</ele>
        <time>2022-04-25T10:19:28Z</time>
      </trkpt>
      <trkpt lat="41.87245" lon="8.85128">
        <ele>349.58</ele>
        <time>2022-04-25T10:19:41Z</time>
      </trkpt>
      <trkpt lat="41.8724" lon="8.8515">
        <ele>351.02</ele>
        <time>2022-04-25T10:19:56Z</time>
      </trkpt>
      <trkpt lat="41.87231" lon="8.85168">
        <ele>353.42</ele>
        <time>2022-04-25T10:20:10Z</time>
      </trkpt>
      <trkpt lat="41.87217" lon="8.85177">
        <ele>352.94</ele>
        <time>2022-04-25T10:20:24Z</time>
      </trkpt>
      <trkpt lat="41.87213" lon="8.85176">
        <ele>353.9</ele>
        <time>2022-04-25T10:20:27Z</time>
      </trkpt>
      <trkpt lat="41.87203" lon="8.8518">
        <ele>353.9</ele>
        <time>2022-04-25T10:20:37Z</time>
      </trkpt>
      <trkpt lat="41.87192" lon="8.85185">
        <ele>354.86</ele>
        <time>2022-04-25T10:20:51Z</time>
      </trkpt>
      <trkpt lat="41.87191" lon="8.85187">
        <ele>354.86</ele>
        <time>2022-04-25T10:20:52Z</time>
      </trkpt>
      <trkpt lat="41.8718" lon="8.85203">
        <ele>356.31</ele>
        <time>2022-04-25T10:21:05Z</time>
      </trkpt>
      <trkpt lat="41.87169" lon="8.85222">
        <ele>356.79</ele>
        <time>2022-04-25T10:21:19Z</time>
      </trkpt>
      <trkpt lat="41.87156" lon="8.85228">
        <ele>357.75</ele>
        <time>2022-04-25T10:21:27Z</time>
      </trkpt>
      <trkpt lat="41.8714" lon="8.85233">
        <ele>358.71</ele>
        <time>2022-04-25T10:21:41Z</time>
      </trkpt>
      <trkpt lat="41.87121" lon="8.8523">
        <ele>359.67</ele>
        <time>2022-04-25T10:21:59Z</time>
      </trkpt>
      <trkpt lat="41.87106" lon="8.85233">
        <ele>360.63</ele>
        <time>2022-04-25T10:22:15Z</time>
      </trkpt>
      <trkpt lat="41.87092" lon="8.85249">
        <ele>361.59</ele>
        <time>2022-04-25T10:22:33Z</time>
      </trkpt>
      <trkpt lat="41.87083" lon="8.85264">
        <ele>362.55</ele>
        <time>2022-04-25T10:22:48Z</time>
      </trkpt>
      <trkpt lat="41.87068" lon="8.85276">
        <ele>364</ele>
        <time>2022-04-25T10:23:03Z</time>
      </trkpt>
      <trkpt lat="41.87046" lon="8.85278">
        <ele>364.96</ele>
        <time>2022-04-25T10:23:23Z</time>
      </trkpt>
      <trkpt lat="41.87042" lon="8.85276">
        <ele>364.96</ele>
        <time>2022-04-25T10:23:38Z</time>
      </trkpt>
      <trkpt lat="41.87034" lon="8.85272">
        <ele>364.96</ele>
        <time>2022-04-25T10:23:47Z</time>
      </trkpt>
      <trkpt lat="41.87028" lon="8.85273">
        <ele>365.44</ele>
        <time>2022-04-25T10:23:52Z</time>
      </trkpt>
      <trkpt lat="41.87013" lon="8.85273">
        <ele>366.4</ele>
        <time>2022-04-25T10:24:06Z</time>
      </trkpt>
      <trkpt lat="41.8701" lon="8.85273">
        <ele>366.4</ele>
        <time>2022-04-25T10:24:08Z</time>
      </trkpt>
      <trkpt lat="41.87009" lon="8.85274">
        <ele>366.88</ele>
        <time>2022-04-25T10:24:09Z</time>
      </trkpt>
      <trkpt lat="41.86996" lon="8.85287">
        <ele>367.84</ele>
        <time>2022-04-25T10:24:25Z</time>
      </trkpt>
      <trkpt lat="41.86984" lon="8.85303">
        <ele>371.69</ele>
        <time>2022-04-25T10:24:40Z</time>
      </trkpt>
      <trkpt lat="41.86979" lon="8.85308">
        <ele>368.8</ele>
        <time>2022-04-25T10:24:44Z</time>
      </trkpt>
      <trkpt lat="41.86971" lon="8.85324">
        <ele>369.76</ele>
        <time>2022-04-25T10:24:56Z</time>
      </trkpt>
      <trkpt lat="41.86962" lon="8.85332">
        <ele>370.24</ele>
        <time>2022-04-25T10:25:04Z</time>
      </trkpt>
      <trkpt lat="41.86961" lon="8.85333">
        <ele>369.76</ele>
        <time>2022-04-25T10:25:05Z</time>
      </trkpt>
      <trkpt lat="41.86948" lon="8.85349">
        <ele>370.73</ele>
        <time>2022-04-25T10:25:20Z</time>
      </trkpt>
      <trkpt lat="41.86939" lon="8.85361">
        <ele>371.21</ele>
        <time>2022-04-25T10:25:29Z</time>
      </trkpt>
      <trkpt lat="41.86934" lon="8.85389">
        <ele>372.17</ele>
        <time>2022-04-25T10:25:47Z</time>
      </trkpt>
      <trkpt lat="41.86934" lon="8.85393">
        <ele>372.65</ele>
        <time>2022-04-25T10:25:50Z</time>
      </trkpt>
      <trkpt lat="41.86943" lon="8.85408">
        <ele>373.61</ele>
        <time>2022-04-25T10:26:02Z</time>
      </trkpt>
      <trkpt lat="41.86948" lon="8.85433">
        <ele>374.57</ele>
        <time>2022-04-25T10:26:18Z</time>
      </trkpt>
      <trkpt lat="41.86951" lon="8.85457">
        <ele>376.01</ele>
        <time>2022-04-25T10:26:35Z</time>
      </trkpt>
      <trkpt lat="41.86951" lon="8.85459">
        <ele>376.01</ele>
        <time>2022-04-25T10:26:36Z</time>
      </trkpt>
      <trkpt lat="41.86951" lon="8.8547">
        <ele>376.01</ele>
        <time>2022-04-25T10:26:44Z</time>
      </trkpt>
      <trkpt lat="41.8695" lon="8.85492">
        <ele>377.94</ele>
        <time>2022-04-25T10:26:59Z</time>
      </trkpt>
      <trkpt lat="41.86941" lon="8.85518">
        <ele>378.9</ele>
        <time>2022-04-25T10:27:16Z</time>
      </trkpt>
      <trkpt lat="41.86938" lon="8.85521">
        <ele>379.38</ele>
        <time>2022-04-25T10:27:18Z</time>
      </trkpt>
      <trkpt lat="41.86924" lon="8.8553">
        <ele>379.86</ele>
        <time>2022-04-25T10:27:33Z</time>
      </trkpt>
      <trkpt lat="41.86912" lon="8.85521">
        <ele>380.82</ele>
        <time>2022-04-25T10:27:46Z</time>
      </trkpt>
      <trkpt lat="41.86904" lon="8.8551">
        <ele>382.26</ele>
        <time>2022-04-25T10:27:56Z</time>
      </trkpt>
      <trkpt lat="41.86902" lon="8.85509">
        <ele>382.74</ele>
        <time>2022-04-25T10:27:57Z</time>
      </trkpt>
      <trkpt lat="41.86893" lon="8.85501">
        <ele>382.74</ele>
        <time>2022-04-25T10:28:08Z</time>
      </trkpt>
      <trkpt lat="41.86887" lon="8.85492">
        <ele>383.7</ele>
        <time>2022-04-25T10:28:21Z</time>
      </trkpt>
      <trkpt lat="41.86875" lon="8.85478">
        <ele>384.18</ele>
        <time>2022-04-25T10:28:34Z</time>
      </trkpt>
      <trkpt lat="41.86874" lon="8.85478">
        <ele>383.7</ele>
        <time>2022-04-25T10:28:35Z</time>
      </trkpt>
      <trkpt lat="41.86872" lon="8.85477">
        <ele>383.7</ele>
        <time>2022-04-25T10:28:36Z</time>
      </trkpt>
      <trkpt lat="41.86866" lon="8.85473">
        <ele>384.66</ele>
        <time>2022-04-25T10:28:41Z</time>
      </trkpt>
      <trkpt lat="41.86837" lon="8.85467">
        <ele>386.59</ele>
        <time>2022-04-25T10:29:00Z</time>
      </trkpt>
      <trkpt lat="41.86818" lon="8.8547">
        <ele>387.55</ele>
        <time>2022-04-25T10:29:19Z</time>
      </trkpt>
      <trkpt lat="41.868" lon="8.85485">
        <ele>388.51</ele>
        <time>2022-04-25T10:29:38Z</time>
      </trkpt>
      <trkpt lat="41.86794" lon="8.85506">
        <ele>390.43</ele>
        <time>2022-04-25T10:29:56Z</time>
      </trkpt>
      <trkpt lat="41.86788" lon="8.8552">
        <ele>390.43</ele>
        <time>2022-04-25T10:30:05Z</time>
      </trkpt>
      <trkpt lat="41.86783" lon="8.85544">
        <ele>391.39</ele>
        <time>2022-04-25T10:30:21Z</time>
      </trkpt>
      <trkpt lat="41.86784" lon="8.85567">
        <ele>394.76</ele>
        <time>2022-04-25T10:30:34Z</time>
      </trkpt>
      <trkpt lat="41.86784" lon="8.85568">
        <ele>392.84</ele>
        <time>2022-04-25T10:30:35Z</time>
      </trkpt>
      <trkpt lat="41.86784" lon="8.85576">
        <ele>393.32</ele>
        <time>2022-04-25T10:30:40Z</time>
      </trkpt>
      <trkpt lat="41.86785" lon="8.85594">
        <ele>393.8</ele>
        <time>2022-04-25T10:30:52Z</time>
      </trkpt>
      <trkpt lat="41.86787" lon="8.85616">
        <ele>395.24</ele>
        <time>2022-04-25T10:31:07Z</time>
      </trkpt>
      <trkpt lat="41.86785" lon="8.85643">
        <ele>396.2</ele>
        <time>2022-04-25T10:31:24Z</time>
      </trkpt>
      <trkpt lat="41.86788" lon="8.85662">
        <ele>396.68</ele>
        <time>2022-04-25T10:31:35Z</time>
      </trkpt>
      <trkpt lat="41.86789" lon="8.85664">
        <ele>396.68</ele>
        <time>2022-04-25T10:31:37Z</time>
      </trkpt>
      <trkpt lat="41.86789" lon="8.85665">
        <ele>396.68</ele>
        <time>2022-04-25T10:31:38Z</time>
      </trkpt>
      <trkpt lat="41.8679" lon="8.85667">
        <ele>397.16</ele>
        <time>2022-04-25T10:31:39Z</time>
      </trkpt>
      <trkpt lat="41.86788" lon="8.8568">
        <ele>397.64</ele>
        <time>2022-04-25T10:31:49Z</time>
      </trkpt>
      <trkpt lat="41.86787" lon="8.85685">
        <ele>398.12</ele>
        <time>2022-04-25T10:31:53Z</time>
      </trkpt>
      <trkpt lat="41.86787" lon="8.85687">
        <ele>397.64</ele>
        <time>2022-04-25T10:31:54Z</time>
      </trkpt>
      <trkpt lat="41.86786" lon="8.85689">
        <ele>398.12</ele>
        <time>2022-04-25T10:31:55Z</time>
      </trkpt>
      <trkpt lat="41.86779" lon="8.85708">
        <ele>399.08</ele>
        <time>2022-04-25T10:32:08Z</time>
      </trkpt>
      <trkpt lat="41.86779" lon="8.8571">
        <ele>399.08</ele>
        <time>2022-04-25T10:32:09Z</time>
      </trkpt>
      <trkpt lat="41.86778" lon="8.85711">
        <ele>399.08</ele>
        <time>2022-04-25T10:32:10Z</time>
      </trkpt>
      <trkpt lat="41.86777" lon="8.85713">
        <ele>399.57</ele>
        <time>2022-04-25T10:32:11Z</time>
      </trkpt>
      <trkpt lat="41.86768" lon="8.85734">
        <ele>400.53</ele>
        <time>2022-04-25T10:32:27Z</time>
      </trkpt>
      <trkpt lat="41.86764" lon="8.85751">
        <ele>401.49</ele>
        <time>2022-04-25T10:32:40Z</time>
      </trkpt>
      <trkpt lat="41.86763" lon="8.85768">
        <ele>401.97</ele>
        <time>2022-04-25T10:32:51Z</time>
      </trkpt>
      <trkpt lat="41.86758" lon="8.85784">
        <ele>401.97</ele>
        <time>2022-04-25T10:33:02Z</time>
      </trkpt>
      <trkpt lat="41.86758" lon="8.85786">
        <ele>402.45</ele>
        <time>2022-04-25T10:33:03Z</time>
      </trkpt>
      <trkpt lat="41.86761" lon="8.85805">
        <ele>403.41</ele>
        <time>2022-04-25T10:33:15Z</time>
      </trkpt>
      <trkpt lat="41.86761" lon="8.85807">
        <ele>403.41</ele>
        <time>2022-04-25T10:33:16Z</time>
      </trkpt>
      <trkpt lat="41.86764" lon="8.85836">
        <ele>404.85</ele>
        <time>2022-04-25T10:33:34Z</time>
      </trkpt>
      <trkpt lat="41.86763" lon="8.8584">
        <ele>405.33</ele>
        <time>2022-04-25T10:33:37Z</time>
      </trkpt>
      <trkpt lat="41.86756" lon="8.85852">
        <ele>405.81</ele>
        <time>2022-04-25T10:33:47Z</time>
      </trkpt>
      <trkpt lat="41.86755" lon="8.85852">
        <ele>405.81</ele>
        <time>2022-04-25T10:33:48Z</time>
      </trkpt>
      <trkpt lat="41.86739" lon="8.8586">
        <ele>407.26</ele>
        <time>2022-04-25T10:34:04Z</time>
      </trkpt>
      <trkpt lat="41.8672" lon="8.85859">
        <ele>408.22</ele>
        <time>2022-04-25T10:34:21Z</time>
      </trkpt>
      <trkpt lat="41.86699" lon="8.85859">
        <ele>410.14</ele>
        <time>2022-04-25T10:34:40Z</time>
      </trkpt>
      <trkpt lat="41.86681" lon="8.8586">
        <ele>411.1</ele>
        <time>2022-04-25T10:34:56Z</time>
      </trkpt>
      <trkpt lat="41.86657" lon="8.85865">
        <ele>412.06</ele>
        <time>2022-04-25T10:35:15Z</time>
      </trkpt>
      <trkpt lat="41.86638" lon="8.85866">
        <ele>413.5</ele>
        <time>2022-04-25T10:35:33Z</time>
      </trkpt>
      <trkpt lat="41.86615" lon="8.85869">
        <ele>414.47</ele>
        <time>2022-04-25T10:35:53Z</time>
      </trkpt>
      <trkpt lat="41.86596" lon="8.85868">
        <ele>415.43</ele>
        <time>2022-04-25T10:36:10Z</time>
      </trkpt>
      <trkpt lat="41.86574" lon="8.85866">
        <ele>416.39</ele>
        <time>2022-04-25T10:36:30Z</time>
      </trkpt>
      <trkpt lat="41.86553" lon="8.85867">
        <ele>417.83</ele>
        <time>2022-04-25T10:36:51Z</time>
      </trkpt>
      <trkpt lat="41.86541" lon="8.85873">
        <ele>418.31</ele>
        <time>2022-04-25T10:37:00Z</time>
      </trkpt>
      <trkpt lat="41.86527" lon="8.85889">
        <ele>420.23</ele>
        <time>2022-04-25T10:37:18Z</time>
      </trkpt>
      <trkpt lat="41.86519" lon="8.85899">
        <ele>420.71</ele>
        <time>2022-04-25T10:37:26Z</time>
      </trkpt>
      <trkpt lat="41.86506" lon="8.85914">
        <ele>421.19</ele>
        <time>2022-04-25T10:37:40Z</time>
      </trkpt>
      <trkpt lat="41.86485" lon="8.85925">
        <ele>422.16</ele>
        <time>2022-04-25T10:37:57Z</time>
      </trkpt>
      <trkpt lat="41.86464" lon="8.85925">
        <ele>423.6</ele>
        <time>2022-04-25T10:38:16Z</time>
      </trkpt>
      <trkpt lat="41.86441" lon="8.85926">
        <ele>425.04</ele>
        <time>2022-04-25T10:38:35Z</time>
      </trkpt>
      <trkpt lat="41.86421" lon="8.8593">
        <ele>426.48</ele>
        <time>2022-04-25T10:38:53Z</time>
      </trkpt>
      <trkpt lat="41.86401" lon="8.85933">
        <ele>427.44</ele>
        <time>2022-04-25T10:39:11Z</time>
      </trkpt>
      <trkpt lat="41.86395" lon="8.85932">
        <ele>426.96</ele>
        <time>2022-04-25T10:39:17Z</time>
      </trkpt>
      <trkpt lat="41.86376" lon="8.85931">
        <ele>428.4</ele>
        <time>2022-04-25T10:39:33Z</time>
      </trkpt>
      <trkpt lat="41.86353" lon="8.85929">
        <ele>429.37</ele>
        <time>2022-04-25T10:39:52Z</time>
      </trkpt>
      <trkpt lat="41.86335" lon="8.8592">
        <ele>431.29</ele>
        <time>2022-04-25T10:40:09Z</time>
      </trkpt>
      <trkpt lat="41.86315" lon="8.8591">
        <ele>432.25</ele>
        <time>2022-04-25T10:40:28Z</time>
      </trkpt>
      <trkpt lat="41.86297" lon="8.85896">
        <ele>433.69</ele>
        <time>2022-04-25T10:40:49Z</time>
      </trkpt>
      <trkpt lat="41.86275" lon="8.85886">
        <ele>434.65</ele>
        <time>2022-04-25T10:41:08Z</time>
      </trkpt>
      <trkpt lat="41.86254" lon="8.85892">
        <ele>436.1</ele>
        <time>2022-04-25T10:41:27Z</time>
      </trkpt>
      <trkpt lat="41.86231" lon="8.85893">
        <ele>437.54</ele>
        <time>2022-04-25T10:41:47Z</time>
      </trkpt>
      <trkpt lat="41.86214" lon="8.85892">
        <ele>438.5</ele>
        <time>2022-04-25T10:42:03Z</time>
      </trkpt>
      <trkpt lat="41.86193" lon="8.85887">
        <ele>440.42</ele>
        <time>2022-04-25T10:42:21Z</time>
      </trkpt>
      <trkpt lat="41.86169" lon="8.85886">
        <ele>441.86</ele>
        <time>2022-04-25T10:42:41Z</time>
      </trkpt>
      <trkpt lat="41.86146" lon="8.85885">
        <ele>442.34</ele>
        <time>2022-04-25T10:43:00Z</time>
      </trkpt>
      <trkpt lat="41.86123" lon="8.85885">
        <ele>443.79</ele>
        <time>2022-04-25T10:43:19Z</time>
      </trkpt>
      <trkpt lat="41.86104" lon="8.85883">
        <ele>444.75</ele>
        <time>2022-04-25T10:43:37Z</time>
      </trkpt>
      <trkpt lat="41.86086" lon="8.85881">
        <ele>445.23</ele>
        <time>2022-04-25T10:43:52Z</time>
      </trkpt>
      <trkpt lat="41.86061" lon="8.859">
        <ele>446.67</ele>
        <time>2022-04-25T10:44:12Z</time>
      </trkpt>
      <trkpt lat="41.86054" lon="8.85927">
        <ele>448.11</ele>
        <time>2022-04-25T10:44:29Z</time>
      </trkpt>
      <trkpt lat="41.86058" lon="8.85959">
        <ele>449.55</ele>
        <time>2022-04-25T10:44:49Z</time>
      </trkpt>
      <trkpt lat="41.86059" lon="8.85968">
        <ele>450.03</ele>
        <time>2022-04-25T10:44:55Z</time>
      </trkpt>
      <trkpt lat="41.86058" lon="8.85969">
        <ele>450.03</ele>
        <time>2022-04-25T10:44:56Z</time>
      </trkpt>
      <trkpt lat="41.86058" lon="8.85971">
        <ele>450.03</ele>
        <time>2022-04-25T10:44:57Z</time>
      </trkpt>
      <trkpt lat="41.86057" lon="8.85975">
        <ele>451</ele>
        <time>2022-04-25T10:45:00Z</time>
      </trkpt>
      <trkpt lat="41.86057" lon="8.85976">
        <ele>451</ele>
        <time>2022-04-25T10:45:01Z</time>
      </trkpt>
      <trkpt lat="41.86045" lon="8.85991">
        <ele>451.48</ele>
        <time>2022-04-25T10:45:14Z</time>
      </trkpt>
      <trkpt lat="41.86033" lon="8.86001">
        <ele>452.92</ele>
        <time>2022-04-25T10:45:27Z</time>
      </trkpt>
      <trkpt lat="41.86018" lon="8.86002">
        <ele>452.92</ele>
        <time>2022-04-25T10:45:40Z</time>
      </trkpt>
      <trkpt lat="41.86002" lon="8.86">
        <ele>453.88</ele>
        <time>2022-04-25T10:45:53Z</time>
      </trkpt>
      <trkpt lat="41.85997" lon="8.86">
        <ele>454.84</ele>
        <time>2022-04-25T10:45:57Z</time>
      </trkpt>
      <trkpt lat="41.85975" lon="8.86001">
        <ele>455.32</ele>
        <time>2022-04-25T10:46:16Z</time>
      </trkpt>
      <trkpt lat="41.85953" lon="8.85998">
        <ele>456.76</ele>
        <time>2022-04-25T10:46:35Z</time>
      </trkpt>
      <trkpt lat="41.85947" lon="8.85998">
        <ele>456.76</ele>
        <time>2022-04-25T10:46:40Z</time>
      </trkpt>
      <trkpt lat="41.85946" lon="8.85998">
        <ele>456.76</ele>
        <time>2022-04-25T10:46:41Z</time>
      </trkpt>
      <trkpt lat="41.85925" lon="8.85994">
        <ele>458.21</ele>
        <time>2022-04-25T10:46:59Z</time>
      </trkpt>
      <trkpt lat="41.85913" lon="8.85991">
        <ele>459.17</ele>
        <time>2022-04-25T10:47:14Z</time>
      </trkpt>
      <trkpt lat="41.85906" lon="8.8599">
        <ele>459.65</ele>
        <time>2022-04-25T10:47:21Z</time>
      </trkpt>
      <trkpt lat="41.85902" lon="8.8599">
        <ele>459.17</ele>
        <time>2022-04-25T10:47:24Z</time>
      </trkpt>
      <trkpt lat="41.85889" lon="8.85986">
        <ele>460.13</ele>
        <time>2022-04-25T10:47:35Z</time>
      </trkpt>
      <trkpt lat="41.85873" lon="8.85983">
        <ele>461.09</ele>
        <time>2022-04-25T10:47:47Z</time>
      </trkpt>
      <trkpt lat="41.85867" lon="8.85983">
        <ele>461.09</ele>
        <time>2022-04-25T10:47:54Z</time>
      </trkpt>
      <trkpt lat="41.85856" lon="8.8598">
        <ele>462.53</ele>
        <time>2022-04-25T10:48:08Z</time>
      </trkpt>
      <trkpt lat="41.8585" lon="8.85984">
        <ele>463.97</ele>
        <time>2022-04-25T10:48:17Z</time>
      </trkpt>
      <trkpt lat="41.85848" lon="8.85994">
        <ele>466.38</ele>
        <time>2022-04-25T10:48:28Z</time>
      </trkpt>
      <trkpt lat="41.85846" lon="8.85999">
        <ele>466.86</ele>
        <time>2022-04-25T10:48:35Z</time>
      </trkpt>
      <trkpt lat="41.85844" lon="8.86012">
        <ele>468.78</ele>
        <time>2022-04-25T10:48:45Z</time>
      </trkpt>
      <trkpt lat="41.85851" lon="8.8603">
        <ele>471.66</ele>
        <time>2022-04-25T10:49:00Z</time>
      </trkpt>
      <trkpt lat="41.85856" lon="8.86039">
        <ele>473.11</ele>
        <time>2022-04-25T10:49:11Z</time>
      </trkpt>
      <trkpt lat="41.8585" lon="8.86046">
        <ele>475.03</ele>
        <time>2022-04-25T10:49:27Z</time>
      </trkpt>
      <trkpt lat="41.85846" lon="8.86057">
        <ele>475.03</ele>
        <time>2022-04-25T10:49:43Z</time>
      </trkpt>
      <trkpt lat="41.85846" lon="8.86063">
        <ele>476.47</ele>
        <time>2022-04-25T10:49:50Z</time>
      </trkpt>
      <trkpt lat="41.85843" lon="8.86074">
        <ele>479.35</ele>
        <time>2022-04-25T10:50:07Z</time>
      </trkpt>
      <trkpt lat="41.85843" lon="8.86088">
        <ele>482.24</ele>
        <time>2022-04-25T10:50:24Z</time>
      </trkpt>
      <trkpt lat="41.85845" lon="8.86102">
        <ele>485.6</ele>
        <time>2022-04-25T10:50:43Z</time>
      </trkpt>
      <trkpt lat="41.85847" lon="8.86119">
        <ele>487.53</ele>
        <time>2022-04-25T10:51:01Z</time>
      </trkpt>
      <trkpt lat="41.85845" lon="8.86135">
        <ele>490.89</ele>
        <time>2022-04-25T10:51:20Z</time>
      </trkpt>
      <trkpt lat="41.8584" lon="8.86147">
        <ele>493.77</ele>
        <time>2022-04-25T10:51:38Z</time>
      </trkpt>
      <trkpt lat="41.85838" lon="8.86152">
        <ele>495.7</ele>
        <time>2022-04-25T10:51:54Z</time>
      </trkpt>
      <trkpt lat="41.85843" lon="8.86156">
        <ele>497.14</ele>
        <time>2022-04-25T10:52:22Z</time>
      </trkpt>
      <trkpt lat="41.85845" lon="8.86164">
        <ele>500.02</ele>
        <time>2022-04-25T10:52:39Z</time>
      </trkpt>
      <trkpt lat="41.85847" lon="8.86174">
        <ele>503.39</ele>
        <time>2022-04-25T10:52:57Z</time>
      </trkpt>
      <trkpt lat="41.85844" lon="8.86183">
        <ele>506.27</ele>
        <time>2022-04-25T10:53:14Z</time>
      </trkpt>
      <trkpt lat="41.85842" lon="8.86193">
        <ele>509.16</ele>
        <time>2022-04-25T10:53:31Z</time>
      </trkpt>
      <trkpt lat="41.85845" lon="8.86197">
        <ele>511.08</ele>
        <time>2022-04-25T10:53:46Z</time>
      </trkpt>
      <trkpt lat="41.85843" lon="8.86194">
        <ele>511.08</ele>
        <time>2022-04-25T10:54:04Z</time>
      </trkpt>
      <trkpt lat="41.85846" lon="8.86193">
        <ele>510.6</ele>
        <time>2022-04-25T10:54:20Z</time>
      </trkpt>
      <trkpt lat="41.85842" lon="8.86192">
        <ele>510.6</ele>
        <time>2022-04-25T10:54:36Z</time>
      </trkpt>
      <trkpt lat="41.85844" lon="8.86193">
        <ele>511.08</ele>
        <time>2022-04-25T10:54:52Z</time>
      </trkpt>
      <trkpt lat="41.85845" lon="8.86195">
        <ele>511.08</ele>
        <time>2022-04-25T10:55:13Z</time>
      </trkpt>
      <trkpt lat="41.85845" lon="8.86194">
        <ele>509.64</ele>
        <time>2022-04-25T10:55:24Z</time>
      </trkpt>
      <trkpt lat="41.85845" lon="8.86193">
        <ele>510.6</ele>
        <time>2022-04-25T10:55:25Z</time>
      </trkpt>
      <trkpt lat="41.85843" lon="8.86195">
        <ele>513.96</ele>
        <time>2022-04-25T10:55:57Z</time>
      </trkpt>
      <trkpt lat="41.85844" lon="8.862">
        <ele>513</ele>
        <time>2022-04-25T10:55:58Z</time>
      </trkpt>
      <trkpt lat="41.85842" lon="8.86204">
        <ele>514.92</ele>
        <time>2022-04-25T10:56:25Z</time>
      </trkpt>
      <trkpt lat="41.85837" lon="8.86217">
        <ele>518.29</ele>
        <time>2022-04-25T10:56:44Z</time>
      </trkpt>
      <trkpt lat="41.85835" lon="8.86228">
        <ele>521.65</ele>
        <time>2022-04-25T10:56:59Z</time>
      </trkpt>
      <trkpt lat="41.8583" lon="8.8624">
        <ele>524.54</ele>
        <time>2022-04-25T10:57:14Z</time>
      </trkpt>
      <trkpt lat="41.85827" lon="8.86249">
        <ele>527.42</ele>
        <time>2022-04-25T10:57:30Z</time>
      </trkpt>
      <trkpt lat="41.85826" lon="8.86256">
        <ele>531.27</ele>
        <time>2022-04-25T10:57:48Z</time>
      </trkpt>
      <trkpt lat="41.85824" lon="8.86263">
        <ele>533.67</ele>
        <time>2022-04-25T10:58:07Z</time>
      </trkpt>
      <trkpt lat="41.85821" lon="8.86272">
        <ele>536.55</ele>
        <time>2022-04-25T10:58:22Z</time>
      </trkpt>
      <trkpt lat="41.85815" lon="8.86281">
        <ele>539.44</ele>
        <time>2022-04-25T10:58:37Z</time>
      </trkpt>
      <trkpt lat="41.8581" lon="8.86293">
        <ele>542.32</ele>
        <time>2022-04-25T10:58:53Z</time>
      </trkpt>
      <trkpt lat="41.85802" lon="8.86307">
        <ele>544.24</ele>
        <time>2022-04-25T10:59:09Z</time>
      </trkpt>
      <trkpt lat="41.85799" lon="8.86313">
        <ele>544.24</ele>
        <time>2022-04-25T10:59:25Z</time>
      </trkpt>
      <trkpt lat="41.85797" lon="8.86321">
        <ele>543.28</ele>
        <time>2022-04-25T10:59:42Z</time>
      </trkpt>
      <trkpt lat="41.85791" lon="8.86328">
        <ele>543.28</ele>
        <time>2022-04-25T11:00:00Z</time>
      </trkpt>
      <trkpt lat="41.85791" lon="8.8633">
        <ele>542.8</ele>
        <time>2022-04-25T11:00:14Z</time>
      </trkpt>
      <trkpt lat="41.85791" lon="8.86328">
        <ele>542.8</ele>
        <time>2022-04-25T11:00:40Z</time>
      </trkpt>
      <trkpt lat="41.8579" lon="8.8633">
        <ele>542.8</ele>
        <time>2022-04-25T11:01:16Z</time>
      </trkpt>
      <trkpt lat="41.8579" lon="8.86332">
        <ele>541.84</ele>
        <time>2022-04-25T11:01:27Z</time>
      </trkpt>
      <trkpt lat="41.8579" lon="8.86331">
        <ele>542.32</ele>
        <time>2022-04-25T11:01:28Z</time>
      </trkpt>
      <trkpt lat="41.85789" lon="8.86332">
        <ele>540.4</ele>
        <time>2022-04-25T11:47:05Z</time>
      </trkpt>
      <trkpt lat="41.85787" lon="8.86331">
        <ele>539.92</ele>
        <time>2022-04-25T11:47:06Z</time>
      </trkpt>
      <trkpt lat="41.85785" lon="8.86332">
        <ele>538.96</ele>
        <time>2022-04-25T11:47:20Z</time>
      </trkpt>
      <trkpt lat="41.85779" lon="8.86338">
        <ele>539.44</ele>
        <time>2022-04-25T11:47:34Z</time>
      </trkpt>
      <trkpt lat="41.8577" lon="8.8635">
        <ele>540.4</ele>
        <time>2022-04-25T11:47:48Z</time>
      </trkpt>
      <trkpt lat="41.85763" lon="8.86364">
        <ele>540.4</ele>
        <time>2022-04-25T11:48:01Z</time>
      </trkpt>
      <trkpt lat="41.85761" lon="8.86374">
        <ele>541.36</ele>
        <time>2022-04-25T11:48:12Z</time>
      </trkpt>
      <trkpt lat="41.85756" lon="8.86388">
        <ele>543.28</ele>
        <time>2022-04-25T11:48:27Z</time>
      </trkpt>
      <trkpt lat="41.8575" lon="8.86397">
        <ele>544.24</ele>
        <time>2022-04-25T11:48:41Z</time>
      </trkpt>
      <trkpt lat="41.85748" lon="8.86412">
        <ele>545.69</ele>
        <time>2022-04-25T11:48:56Z</time>
      </trkpt>
      <trkpt lat="41.85738" lon="8.86424">
        <ele>547.13</ele>
        <time>2022-04-25T11:49:11Z</time>
      </trkpt>
      <trkpt lat="41.85728" lon="8.86425">
        <ele>549.53</ele>
        <time>2022-04-25T11:49:26Z</time>
      </trkpt>
      <trkpt lat="41.85718" lon="8.86426">
        <ele>550.97</ele>
        <time>2022-04-25T11:49:41Z</time>
      </trkpt>
      <trkpt lat="41.85712" lon="8.86431">
        <ele>553.38</ele>
        <time>2022-04-25T11:49:54Z</time>
      </trkpt>
      <trkpt lat="41.85702" lon="8.86434">
        <ele>556.26</ele>
        <time>2022-04-25T11:50:11Z</time>
      </trkpt>
      <trkpt lat="41.85694" lon="8.86443">
        <ele>559.62</ele>
        <time>2022-04-25T11:50:32Z</time>
      </trkpt>
      <trkpt lat="41.8569" lon="8.8645">
        <ele>562.99</ele>
        <time>2022-04-25T11:50:48Z</time>
      </trkpt>
      <trkpt lat="41.85681" lon="8.86458">
        <ele>565.87</ele>
        <time>2022-04-25T11:51:07Z</time>
      </trkpt>
      <trkpt lat="41.85675" lon="8.86465">
        <ele>569.24</ele>
        <time>2022-04-25T11:51:26Z</time>
      </trkpt>
      <trkpt lat="41.85668" lon="8.86465">
        <ele>569.24</ele>
        <time>2022-04-25T11:51:46Z</time>
      </trkpt>
      <trkpt lat="41.85664" lon="8.86472">
        <ele>571.16</ele>
        <time>2022-04-25T11:52:09Z</time>
      </trkpt>
      <trkpt lat="41.85654" lon="8.86482">
        <ele>574.53</ele>
        <time>2022-04-25T11:52:29Z</time>
      </trkpt>
      <trkpt lat="41.85647" lon="8.86492">
        <ele>577.89</ele>
        <time>2022-04-25T11:52:47Z</time>
      </trkpt>
      <trkpt lat="41.85638" lon="8.86499">
        <ele>580.29</ele>
        <time>2022-04-25T11:53:06Z</time>
      </trkpt>
      <trkpt lat="41.85638" lon="8.86508">
        <ele>583.18</ele>
        <time>2022-04-25T11:53:22Z</time>
      </trkpt>
      <trkpt lat="41.85635" lon="8.86527">
        <ele>584.62</ele>
        <time>2022-04-25T11:53:44Z</time>
      </trkpt>
      <trkpt lat="41.8563" lon="8.86531">
        <ele>587.02</ele>
        <time>2022-04-25T11:54:02Z</time>
      </trkpt>
      <trkpt lat="41.85623" lon="8.86535">
        <ele>589.91</ele>
        <time>2022-04-25T11:54:17Z</time>
      </trkpt>
      <trkpt lat="41.85611" lon="8.86538">
        <ele>592.31</ele>
        <time>2022-04-25T11:54:37Z</time>
      </trkpt>
      <trkpt lat="41.85601" lon="8.86542">
        <ele>592.79</ele>
        <time>2022-04-25T11:54:55Z</time>
      </trkpt>
      <trkpt lat="41.85592" lon="8.86554">
        <ele>593.75</ele>
        <time>2022-04-25T11:55:11Z</time>
      </trkpt>
      <trkpt lat="41.85582" lon="8.86571">
        <ele>594.71</ele>
        <time>2022-04-25T11:55:30Z</time>
      </trkpt>
      <trkpt lat="41.85572" lon="8.86586">
        <ele>597.6</ele>
        <time>2022-04-25T11:55:51Z</time>
      </trkpt>
      <trkpt lat="41.85563" lon="8.86596">
        <ele>600</ele>
        <time>2022-04-25T11:56:11Z</time>
      </trkpt>
      <trkpt lat="41.85558" lon="8.86607">
        <ele>602.88</ele>
        <time>2022-04-25T11:56:29Z</time>
      </trkpt>
      <trkpt lat="41.85552" lon="8.86621">
        <ele>605.29</ele>
        <time>2022-04-25T11:56:49Z</time>
      </trkpt>
      <trkpt lat="41.85549" lon="8.86634">
        <ele>608.17</ele>
        <time>2022-04-25T11:57:06Z</time>
      </trkpt>
      <trkpt lat="41.85543" lon="8.86648">
        <ele>609.61</ele>
        <time>2022-04-25T11:57:23Z</time>
      </trkpt>
      <trkpt lat="41.85532" lon="8.86665">
        <ele>608.65</ele>
        <time>2022-04-25T11:57:40Z</time>
      </trkpt>
      <trkpt lat="41.85527" lon="8.86683">
        <ele>605.29</ele>
        <time>2022-04-25T11:57:56Z</time>
      </trkpt>
      <trkpt lat="41.8552" lon="8.86695">
        <ele>602.88</ele>
        <time>2022-04-25T11:58:13Z</time>
      </trkpt>
      <trkpt lat="41.85513" lon="8.86712">
        <ele>600.48</ele>
        <time>2022-04-25T11:58:31Z</time>
      </trkpt>
      <trkpt lat="41.85506" lon="8.86739">
        <ele>600.96</ele>
        <time>2022-04-25T11:58:53Z</time>
      </trkpt>
      <trkpt lat="41.85503" lon="8.86759">
        <ele>603.36</ele>
        <time>2022-04-25T11:59:14Z</time>
      </trkpt>
      <trkpt lat="41.85501" lon="8.86775">
        <ele>605.77</ele>
        <time>2022-04-25T11:59:31Z</time>
      </trkpt>
      <trkpt lat="41.85496" lon="8.86794">
        <ele>608.17</ele>
        <time>2022-04-25T11:59:49Z</time>
      </trkpt>
      <trkpt lat="41.85493" lon="8.86807">
        <ele>610.09</ele>
        <time>2022-04-25T12:00:05Z</time>
      </trkpt>
      <trkpt lat="41.85486" lon="8.86818">
        <ele>611.54</ele>
        <time>2022-04-25T12:00:22Z</time>
      </trkpt>
      <trkpt lat="41.85487" lon="8.86829">
        <ele>614.42</ele>
        <time>2022-04-25T12:00:38Z</time>
      </trkpt>
      <trkpt lat="41.85489" lon="8.86841">
        <ele>616.82</ele>
        <time>2022-04-25T12:00:54Z</time>
      </trkpt>
      <trkpt lat="41.85489" lon="8.86851">
        <ele>620.19</ele>
        <time>2022-04-25T12:01:10Z</time>
      </trkpt>
      <trkpt lat="41.85487" lon="8.86864">
        <ele>623.07</ele>
        <time>2022-04-25T12:01:27Z</time>
      </trkpt>
      <trkpt lat="41.85489" lon="8.86874">
        <ele>624.99</ele>
        <time>2022-04-25T12:01:44Z</time>
      </trkpt>
      <trkpt lat="41.85484" lon="8.86886">
        <ele>627.4</ele>
        <time>2022-04-25T12:01:58Z</time>
      </trkpt>
      <trkpt lat="41.85486" lon="8.86897">
        <ele>629.8</ele>
        <time>2022-04-25T12:02:14Z</time>
      </trkpt>
      <trkpt lat="41.85488" lon="8.86902">
        <ele>631.72</ele>
        <time>2022-04-25T12:02:30Z</time>
      </trkpt>
      <trkpt lat="41.85488" lon="8.86909">
        <ele>633.65</ele>
        <time>2022-04-25T12:02:39Z</time>
      </trkpt>
      <trkpt lat="41.8549" lon="8.86922">
        <ele>636.53</ele>
        <time>2022-04-25T12:03:00Z</time>
      </trkpt>
      <trkpt lat="41.85489" lon="8.86935">
        <ele>638.93</ele>
        <time>2022-04-25T12:03:18Z</time>
      </trkpt>
      <trkpt lat="41.85486" lon="8.86951">
        <ele>641.82</ele>
        <time>2022-04-25T12:03:40Z</time>
      </trkpt>
      <trkpt lat="41.85489" lon="8.86967">
        <ele>644.7</ele>
        <time>2022-04-25T12:04:02Z</time>
      </trkpt>
      <trkpt lat="41.85491" lon="8.86984">
        <ele>646.62</ele>
        <time>2022-04-25T12:04:21Z</time>
      </trkpt>
      <trkpt lat="41.85492" lon="8.86999">
        <ele>648.07</ele>
        <time>2022-04-25T12:04:37Z</time>
      </trkpt>
      <trkpt lat="41.85489" lon="8.87018">
        <ele>649.99</ele>
        <time>2022-04-25T12:04:55Z</time>
      </trkpt>
      <trkpt lat="41.85487" lon="8.87032">
        <ele>652.39</ele>
        <time>2022-04-25T12:05:11Z</time>
      </trkpt>
      <trkpt lat="41.85484" lon="8.87046">
        <ele>653.83</ele>
        <time>2022-04-25T12:05:30Z</time>
      </trkpt>
      <trkpt lat="41.85479" lon="8.87059">
        <ele>657.2</ele>
        <time>2022-04-25T12:05:52Z</time>
      </trkpt>
      <trkpt lat="41.85477" lon="8.87068">
        <ele>659.6</ele>
        <time>2022-04-25T12:06:09Z</time>
      </trkpt>
      <trkpt lat="41.85475" lon="8.87072">
        <ele>660.56</ele>
        <time>2022-04-25T12:06:23Z</time>
      </trkpt>
      <trkpt lat="41.8547" lon="8.87076">
        <ele>661.52</ele>
        <time>2022-04-25T12:06:40Z</time>
      </trkpt>
      <trkpt lat="41.85466" lon="8.87088">
        <ele>663.93</ele>
        <time>2022-04-25T12:06:56Z</time>
      </trkpt>
      <trkpt lat="41.85458" lon="8.871">
        <ele>666.33</ele>
        <time>2022-04-25T12:07:15Z</time>
      </trkpt>
      <trkpt lat="41.85454" lon="8.87111">
        <ele>667.77</ele>
        <time>2022-04-25T12:07:32Z</time>
      </trkpt>
      <trkpt lat="41.85455" lon="8.87125">
        <ele>668.73</ele>
        <time>2022-04-25T12:07:50Z</time>
      </trkpt>
      <trkpt lat="41.8546" lon="8.87133">
        <ele>669.22</ele>
        <time>2022-04-25T12:08:14Z</time>
      </trkpt>
      <trkpt lat="41.8546" lon="8.87137">
        <ele>668.73</ele>
        <time>2022-04-25T12:08:41Z</time>
      </trkpt>
      <trkpt lat="41.85461" lon="8.87138">
        <ele>668.73</ele>
        <time>2022-04-25T12:09:08Z</time>
      </trkpt>
      <trkpt lat="41.85462" lon="8.87155">
        <ele>669.22</ele>
        <time>2022-04-25T12:09:31Z</time>
      </trkpt>
      <trkpt lat="41.85456" lon="8.87182">
        <ele>670.18</ele>
        <time>2022-04-25T12:09:50Z</time>
      </trkpt>
      <trkpt lat="41.85452" lon="8.87204">
        <ele>671.14</ele>
        <time>2022-04-25T12:10:08Z</time>
      </trkpt>
      <trkpt lat="41.8545" lon="8.87226">
        <ele>672.1</ele>
        <time>2022-04-25T12:10:26Z</time>
      </trkpt>
      <trkpt lat="41.85453" lon="8.87249">
        <ele>673.54</ele>
        <time>2022-04-25T12:10:46Z</time>
      </trkpt>
      <trkpt lat="41.85458" lon="8.87268">
        <ele>676.91</ele>
        <time>2022-04-25T12:11:04Z</time>
      </trkpt>
      <trkpt lat="41.85457" lon="8.87292">
        <ele>678.83</ele>
        <time>2022-04-25T12:11:24Z</time>
      </trkpt>
      <trkpt lat="41.85458" lon="8.87315">
        <ele>681.23</ele>
        <time>2022-04-25T12:11:47Z</time>
      </trkpt>
      <trkpt lat="41.85459" lon="8.87339">
        <ele>683.15</ele>
        <time>2022-04-25T12:12:07Z</time>
      </trkpt>
      <trkpt lat="41.8546" lon="8.87357">
        <ele>685.08</ele>
        <time>2022-04-25T12:12:24Z</time>
      </trkpt>
      <trkpt lat="41.85463" lon="8.8737">
        <ele>687.48</ele>
        <time>2022-04-25T12:12:46Z</time>
      </trkpt>
      <trkpt lat="41.85473" lon="8.87386">
        <ele>689.4</ele>
        <time>2022-04-25T12:13:05Z</time>
      </trkpt>
      <trkpt lat="41.85477" lon="8.87404">
        <ele>692.77</ele>
        <time>2022-04-25T12:13:25Z</time>
      </trkpt>
      <trkpt lat="41.85482" lon="8.87414">
        <ele>695.17</ele>
        <time>2022-04-25T12:13:41Z</time>
      </trkpt>
      <trkpt lat="41.85485" lon="8.87429">
        <ele>698.53</ele>
        <time>2022-04-25T12:14:00Z</time>
      </trkpt>
      <trkpt lat="41.85487" lon="8.87447">
        <ele>700.94</ele>
        <time>2022-04-25T12:14:20Z</time>
      </trkpt>
      <trkpt lat="41.85482" lon="8.87464">
        <ele>703.82</ele>
        <time>2022-04-25T12:14:41Z</time>
      </trkpt>
      <trkpt lat="41.85481" lon="8.87476">
        <ele>707.19</ele>
        <time>2022-04-25T12:14:58Z</time>
      </trkpt>
      <trkpt lat="41.85479" lon="8.87496">
        <ele>710.07</ele>
        <time>2022-04-25T12:15:20Z</time>
      </trkpt>
      <trkpt lat="41.85479" lon="8.87513">
        <ele>711.99</ele>
        <time>2022-04-25T12:15:40Z</time>
      </trkpt>
      <trkpt lat="41.85472" lon="8.87524">
        <ele>714.4</ele>
        <time>2022-04-25T12:15:58Z</time>
      </trkpt>
      <trkpt lat="41.85461" lon="8.87538">
        <ele>717.76</ele>
        <time>2022-04-25T12:16:19Z</time>
      </trkpt>
      <trkpt lat="41.8546" lon="8.87539">
        <ele>718.72</ele>
        <time>2022-04-25T12:16:25Z</time>
      </trkpt>
      <trkpt lat="41.8545" lon="8.87541">
        <ele>721.13</ele>
        <time>2022-04-25T12:16:44Z</time>
      </trkpt>
      <trkpt lat="41.85446" lon="8.87555">
        <ele>724.01</ele>
        <time>2022-04-25T12:17:05Z</time>
      </trkpt>
      <trkpt lat="41.8544" lon="8.87565">
        <ele>727.37</ele>
        <time>2022-04-25T12:17:23Z</time>
      </trkpt>
      <trkpt lat="41.85428" lon="8.87567">
        <ele>730.74</ele>
        <time>2022-04-25T12:17:42Z</time>
      </trkpt>
      <trkpt lat="41.85422" lon="8.87572">
        <ele>733.62</ele>
        <time>2022-04-25T12:18:01Z</time>
      </trkpt>
      <trkpt lat="41.85416" lon="8.87583">
        <ele>736.99</ele>
        <time>2022-04-25T12:18:20Z</time>
      </trkpt>
      <trkpt lat="41.85411" lon="8.87595">
        <ele>739.87</ele>
        <time>2022-04-25T12:18:39Z</time>
      </trkpt>
      <trkpt lat="41.85406" lon="8.87602">
        <ele>742.76</ele>
        <time>2022-04-25T12:18:55Z</time>
      </trkpt>
      <trkpt lat="41.85399" lon="8.87611">
        <ele>746.12</ele>
        <time>2022-04-25T12:19:16Z</time>
      </trkpt>
      <trkpt lat="41.85394" lon="8.8762">
        <ele>749.49</ele>
        <time>2022-04-25T12:19:36Z</time>
      </trkpt>
      <trkpt lat="41.85386" lon="8.87628">
        <ele>752.37</ele>
        <time>2022-04-25T12:19:56Z</time>
      </trkpt>
      <trkpt lat="41.85386" lon="8.87637">
        <ele>755.73</ele>
        <time>2022-04-25T12:20:16Z</time>
      </trkpt>
      <trkpt lat="41.85379" lon="8.87643">
        <ele>758.62</ele>
        <time>2022-04-25T12:20:30Z</time>
      </trkpt>
      <trkpt lat="41.8537" lon="8.87647">
        <ele>761.98</ele>
        <time>2022-04-25T12:20:47Z</time>
      </trkpt>
      <trkpt lat="41.85362" lon="8.8765">
        <ele>764.87</ele>
        <time>2022-04-25T12:21:04Z</time>
      </trkpt>
      <trkpt lat="41.85354" lon="8.8765">
        <ele>767.75</ele>
        <time>2022-04-25T12:21:25Z</time>
      </trkpt>
      <trkpt lat="41.85352" lon="8.87654">
        <ele>770.15</ele>
        <time>2022-04-25T12:21:43Z</time>
      </trkpt>
      <trkpt lat="41.85343" lon="8.87655">
        <ele>773.52</ele>
        <time>2022-04-25T12:22:01Z</time>
      </trkpt>
      <trkpt lat="41.85336" lon="8.87654">
        <ele>776.4</ele>
        <time>2022-04-25T12:22:16Z</time>
      </trkpt>
      <trkpt lat="41.85326" lon="8.87649">
        <ele>779.77</ele>
        <time>2022-04-25T12:22:33Z</time>
      </trkpt>
      <trkpt lat="41.85316" lon="8.87645">
        <ele>782.65</ele>
        <time>2022-04-25T12:22:52Z</time>
      </trkpt>
      <trkpt lat="41.85308" lon="8.87634">
        <ele>785.53</ele>
        <time>2022-04-25T12:23:12Z</time>
      </trkpt>
      <trkpt lat="41.85301" lon="8.87647">
        <ele>788.9</ele>
        <time>2022-04-25T12:23:33Z</time>
      </trkpt>
      <trkpt lat="41.85297" lon="8.87665">
        <ele>790.34</ele>
        <time>2022-04-25T12:23:52Z</time>
      </trkpt>
      <trkpt lat="41.85288" lon="8.87678">
        <ele>793.22</ele>
        <time>2022-04-25T12:24:10Z</time>
      </trkpt>
      <trkpt lat="41.85281" lon="8.87681">
        <ele>794.19</ele>
        <time>2022-04-25T12:24:28Z</time>
      </trkpt>
      <trkpt lat="41.85274" lon="8.87683">
        <ele>796.11</ele>
        <time>2022-04-25T12:24:47Z</time>
      </trkpt>
      <trkpt lat="41.85267" lon="8.87686">
        <ele>798.03</ele>
        <time>2022-04-25T12:25:06Z</time>
      </trkpt>
      <trkpt lat="41.85263" lon="8.87688">
        <ele>798.51</ele>
        <time>2022-04-25T12:25:27Z</time>
      </trkpt>
      <trkpt lat="41.8526" lon="8.87691">
        <ele>799.95</ele>
        <time>2022-04-25T12:25:42Z</time>
      </trkpt>
      <trkpt lat="41.85251" lon="8.87696">
        <ele>802.36</ele>
        <time>2022-04-25T12:26:02Z</time>
      </trkpt>
      <trkpt lat="41.85243" lon="8.87699">
        <ele>805.24</ele>
        <time>2022-04-25T12:26:20Z</time>
      </trkpt>
      <trkpt lat="41.85234" lon="8.87702">
        <ele>808.61</ele>
        <time>2022-04-25T12:26:41Z</time>
      </trkpt>
      <trkpt lat="41.85224" lon="8.87704">
        <ele>811.97</ele>
        <time>2022-04-25T12:27:00Z</time>
      </trkpt>
      <trkpt lat="41.85211" lon="8.87706">
        <ele>814.85</ele>
        <time>2022-04-25T12:27:23Z</time>
      </trkpt>
      <trkpt lat="41.85198" lon="8.87713">
        <ele>816.3</ele>
        <time>2022-04-25T12:27:44Z</time>
      </trkpt>
      <trkpt lat="41.85187" lon="8.87721">
        <ele>818.22</ele>
        <time>2022-04-25T12:27:58Z</time>
      </trkpt>
      <trkpt lat="41.85177" lon="8.87733">
        <ele>820.14</ele>
        <time>2022-04-25T12:28:19Z</time>
      </trkpt>
      <trkpt lat="41.85165" lon="8.87735">
        <ele>822.55</ele>
        <time>2022-04-25T12:28:43Z</time>
      </trkpt>
      <trkpt lat="41.85166" lon="8.87731">
        <ele>822.06</ele>
        <time>2022-04-25T12:29:03Z</time>
      </trkpt>
      <trkpt lat="41.85162" lon="8.87733">
        <ele>823.03</ele>
        <time>2022-04-25T12:29:33Z</time>
      </trkpt>
      <trkpt lat="41.85164" lon="8.87734">
        <ele>822.55</ele>
        <time>2022-04-25T12:30:02Z</time>
      </trkpt>
      <trkpt lat="41.85164" lon="8.87737">
        <ele>822.55</ele>
        <time>2022-04-25T12:30:44Z</time>
      </trkpt>
      <trkpt lat="41.85166" lon="8.87732">
        <ele>822.55</ele>
        <time>2022-04-25T12:31:11Z</time>
      </trkpt>
      <trkpt lat="41.85164" lon="8.87739">
        <ele>823.51</ele>
        <time>2022-04-25T12:31:36Z</time>
      </trkpt>
      <trkpt lat="41.85165" lon="8.87742">
        <ele>823.51</ele>
        <time>2022-04-25T12:31:58Z</time>
      </trkpt>
      <trkpt lat="41.85166" lon="8.87743">
        <ele>823.99</ele>
        <time>2022-04-25T12:32:31Z</time>
      </trkpt>
      <trkpt lat="41.85167" lon="8.87738">
        <ele>824.95</ele>
        <time>2022-04-25T12:32:55Z</time>
      </trkpt>
      <trkpt lat="41.85167" lon="8.87742">
        <ele>824.47</ele>
        <time>2022-04-25T12:33:27Z</time>
      </trkpt>
      <trkpt lat="41.85159" lon="8.87745">
        <ele>825.43</ele>
        <time>2022-04-25T12:33:43Z</time>
      </trkpt>
      <trkpt lat="41.85157" lon="8.87745">
        <ele>830.72</ele>
        <time>2022-04-25T12:33:47Z</time>
      </trkpt>
      <trkpt lat="41.85157" lon="8.87746">
        <ele>830.72</ele>
        <time>2022-04-25T12:33:48Z</time>
      </trkpt>
      <trkpt lat="41.85157" lon="8.87746">
        <ele>826.39</ele>
        <time>2022-04-25T12:33:49Z</time>
      </trkpt>
      <trkpt lat="41.85156" lon="8.87748">
        <ele>826.39</ele>
        <time>2022-04-25T12:33:50Z</time>
      </trkpt>
      <trkpt lat="41.85152" lon="8.87751">
        <ele>826.87</ele>
        <time>2022-04-25T12:33:58Z</time>
      </trkpt>
      <trkpt lat="41.85147" lon="8.87756">
        <ele>828.31</ele>
        <time>2022-04-25T12:34:10Z</time>
      </trkpt>
      <trkpt lat="41.85144" lon="8.87758">
        <ele>829.27</ele>
        <time>2022-04-25T12:34:14Z</time>
      </trkpt>
      <trkpt lat="41.8513" lon="8.87762">
        <ele>831.2</ele>
        <time>2022-04-25T12:34:32Z</time>
      </trkpt>
      <trkpt lat="41.85113" lon="8.87775">
        <ele>834.56</ele>
        <time>2022-04-25T12:34:52Z</time>
      </trkpt>
      <trkpt lat="41.85106" lon="8.87785">
        <ele>836.48</ele>
        <time>2022-04-25T12:35:07Z</time>
      </trkpt>
      <trkpt lat="41.85101" lon="8.87792">
        <ele>837.45</ele>
        <time>2022-04-25T12:35:20Z</time>
      </trkpt>
      <trkpt lat="41.85101" lon="8.87803">
        <ele>840.33</ele>
        <time>2022-04-25T12:35:33Z</time>
      </trkpt>
      <trkpt lat="41.85098" lon="8.87817">
        <ele>842.25</ele>
        <time>2022-04-25T12:35:47Z</time>
      </trkpt>
      <trkpt lat="41.85098" lon="8.87832">
        <ele>844.66</ele>
        <time>2022-04-25T12:36:06Z</time>
      </trkpt>
      <trkpt lat="41.85089" lon="8.8785">
        <ele>847.54</ele>
        <time>2022-04-25T12:36:24Z</time>
      </trkpt>
      <trkpt lat="41.85085" lon="8.87853">
        <ele>847.54</ele>
        <time>2022-04-25T12:36:29Z</time>
      </trkpt>
      <trkpt lat="41.85081" lon="8.87866">
        <ele>848.02</ele>
        <time>2022-04-25T12:36:44Z</time>
      </trkpt>
      <trkpt lat="41.85082" lon="8.87879">
        <ele>850.9</ele>
        <time>2022-04-25T12:37:00Z</time>
      </trkpt>
      <trkpt lat="41.85085" lon="8.87885">
        <ele>852.35</ele>
        <time>2022-04-25T12:37:11Z</time>
      </trkpt>
      <trkpt lat="41.8509" lon="8.87893">
        <ele>855.23</ele>
        <time>2022-04-25T12:37:24Z</time>
      </trkpt>
      <trkpt lat="41.85095" lon="8.87906">
        <ele>856.67</ele>
        <time>2022-04-25T12:37:41Z</time>
      </trkpt>
      <trkpt lat="41.85104" lon="8.87918">
        <ele>860.04</ele>
        <time>2022-04-25T12:37:56Z</time>
      </trkpt>
      <trkpt lat="41.85113" lon="8.87935">
        <ele>861.48</ele>
        <time>2022-04-25T12:38:16Z</time>
      </trkpt>
      <trkpt lat="41.8512" lon="8.87956">
        <ele>862.44</ele>
        <time>2022-04-25T12:38:35Z</time>
      </trkpt>
      <trkpt lat="41.8512" lon="8.87981">
        <ele>863.4</ele>
        <time>2022-04-25T12:38:55Z</time>
      </trkpt>
      <trkpt lat="41.85114" lon="8.88006">
        <ele>863.88</ele>
        <time>2022-04-25T12:39:18Z</time>
      </trkpt>
      <trkpt lat="41.851" lon="8.88032">
        <ele>863.88</ele>
        <time>2022-04-25T12:39:39Z</time>
      </trkpt>
      <trkpt lat="41.85083" lon="8.88052">
        <ele>864.36</ele>
        <time>2022-04-25T12:40:01Z</time>
      </trkpt>
      <trkpt lat="41.85071" lon="8.88075">
        <ele>864.84</ele>
        <time>2022-04-25T12:40:24Z</time>
      </trkpt>
      <trkpt lat="41.85057" lon="8.8809">
        <ele>867.25</ele>
        <time>2022-04-25T12:40:39Z</time>
      </trkpt>
      <trkpt lat="41.85047" lon="8.88109">
        <ele>868.21</ele>
        <time>2022-04-25T12:40:59Z</time>
      </trkpt>
      <trkpt lat="41.85039" lon="8.88136">
        <ele>870.13</ele>
        <time>2022-04-25T12:41:22Z</time>
      </trkpt>
      <trkpt lat="41.85035" lon="8.88149">
        <ele>872.53</ele>
        <time>2022-04-25T12:41:36Z</time>
      </trkpt>
      <trkpt lat="41.85038" lon="8.88152">
        <ele>873.98</ele>
        <time>2022-04-25T12:41:47Z</time>
      </trkpt>
      <trkpt lat="41.85038" lon="8.88155">
        <ele>874.94</ele>
        <time>2022-04-25T12:42:05Z</time>
      </trkpt>
      <trkpt lat="41.85038" lon="8.8816">
        <ele>875.9</ele>
        <time>2022-04-25T12:42:36Z</time>
      </trkpt>
      <trkpt lat="41.85039" lon="8.88166">
        <ele>878.3</ele>
        <time>2022-04-25T12:42:42Z</time>
      </trkpt>
      <trkpt lat="41.85037" lon="8.88167">
        <ele>878.78</ele>
        <time>2022-04-25T12:43:02Z</time>
      </trkpt>
      <trkpt lat="41.85038" lon="8.88163">
        <ele>876.38</ele>
        <time>2022-04-25T12:43:15Z</time>
      </trkpt>
      <trkpt lat="41.85038" lon="8.88159">
        <ele>875.9</ele>
        <time>2022-04-25T12:43:34Z</time>
      </trkpt>
      <trkpt lat="41.85038" lon="8.88159">
        <ele>876.38</ele>
        <time>2022-04-25T12:43:38Z</time>
      </trkpt>
      <trkpt lat="41.85044" lon="8.88175">
        <ele>887.4</ele>
        <time>2022-04-25T12:44:38Z</time>
      </trkpt>
      <trkpt lat="41.85044" lon="8.88183">
        <ele>888.5</ele>
        <time>2022-04-25T12:44:55Z</time>
      </trkpt>
      <trkpt lat="41.85046" lon="8.88199">
        <ele>891.4</ele>
      </trkpt>
      <trkpt lat="41.85046" lon="8.88213">
        <ele>893.9</ele>
      </trkpt>
      <trkpt lat="41.85047" lon="8.88222">
        <ele>895.7</ele>
      </trkpt>
      <trkpt lat="41.85043" lon="8.88238">
        <ele>897.2</ele>
      </trkpt>
      <trkpt lat="41.85042" lon="8.88252">
        <ele>899.4</ele>
      </trkpt>
      <trkpt lat="41.85049" lon="8.88265">
        <ele>903.7</ele>
      </trkpt>
      <trkpt lat="41.85053" lon="8.88279">
        <ele>907</ele>
      </trkpt>
      <trkpt lat="41.85057" lon="8.88291">
        <ele>910</ele>
      </trkpt>
      <trkpt lat="41.85063" lon="8.88308">
        <ele>914</ele>
      </trkpt>
      <trkpt lat="41.85068" lon="8.8832">
        <ele>917.1</ele>
      </trkpt>
      <trkpt lat="41.85073" lon="8.88333">
        <ele>920.2</ele>
      </trkpt>
      <trkpt lat="41.85075" lon="8.88344">
        <ele>921</ele>
      </trkpt>
      <trkpt lat="41.85082" lon="8.88357">
        <ele>923.5</ele>
      </trkpt>
      <trkpt lat="41.85086" lon="8.88371">
        <ele>923.6</ele>
      </trkpt>
      <trkpt lat="41.85097" lon="8.88384">
        <ele>925.4</ele>
      </trkpt>
      <trkpt lat="41.85107" lon="8.88392">
        <ele>927.1</ele>
      </trkpt>
      <trkpt lat="41.85118" lon="8.88405">
        <ele>928</ele>
      </trkpt>
      <trkpt lat="41.85127" lon="8.88414">
        <ele>928.9</ele>
      </trkpt>
      <trkpt lat="41.85133" lon="8.88423">
        <ele>929.8</ele>
      </trkpt>
      <trkpt lat="41.8514" lon="8.88433">
        <ele>930.7</ele>
      </trkpt>
      <trkpt lat="41.85148" lon="8.88443">
        <ele>932</ele>
      </trkpt>
      <trkpt lat="41.85154" lon="8.88454">
        <ele>933.1</ele>
      </trkpt>
      <trkpt lat="41.85163" lon="8.88476">
        <ele>933.9</ele>
      </trkpt>
      <trkpt lat="41.85164" lon="8.88495">
        <ele>934.2</ele>
      </trkpt>
      <trkpt lat="41.85159" lon="8.88518">
        <ele>934</ele>
      </trkpt>
      <trkpt lat="41.85151" lon="8.88533">
        <ele>932.5</ele>
      </trkpt>
      <trkpt lat="41.85144" lon="8.88549">
        <ele>930.9</ele>
      </trkpt>
      <trkpt lat="41.85136" lon="8.88564">
        <ele>929</ele>
      </trkpt>
      <trkpt lat="41.85127" lon="8.88578">
        <ele>927.4</ele>
      </trkpt>
      <trkpt lat="41.8512" lon="8.88592">
        <ele>924.8</ele>
      </trkpt>
      <trkpt lat="41.85114" lon="8.88621">
        <ele>921</ele>
      </trkpt>
      <trkpt lat="41.8511" lon="8.88642">
        <ele>920.7</ele>
      </trkpt>
      <trkpt lat="41.85106" lon="8.88661">
        <ele>919.5</ele>
      </trkpt>
      <trkpt lat="41.85098" lon="8.88679">
        <ele>918.3</ele>
      </trkpt>
      <trkpt lat="41.85091" lon="8.88687">
        <ele>917</ele>
      </trkpt>
      <trkpt lat="41.85082" lon="8.88697">
        <ele>914.9</ele>
      </trkpt>
      <trkpt lat="41.85071" lon="8.88707">
        <ele>911.7</ele>
      </trkpt>
      <trkpt lat="41.85061" lon="8.88719">
        <ele>909.7</ele>
      </trkpt>
      <trkpt lat="41.85052" lon="8.88737">
        <ele>909.5</ele>
      </trkpt>
      <trkpt lat="41.85046" lon="8.88751">
        <ele>910.1</ele>
      </trkpt>
      <trkpt lat="41.85039" lon="8.88764">
        <ele>910.7</ele>
      </trkpt>
      <trkpt lat="41.8503" lon="8.88775">
        <ele>909.4</ele>
      </trkpt>
      <trkpt lat="41.85023" lon="8.88782">
        <ele>907.9</ele>
      </trkpt>
      <trkpt lat="41.85014" lon="8.8879">
        <ele>905.7</ele>
      </trkpt>
      <trkpt lat="41.85004" lon="8.88806">
        <ele>904.6</ele>
      </trkpt>
      <trkpt lat="41.85" lon="8.88814">
        <ele>904.3</ele>
      </trkpt>
      <trkpt lat="41.84991" lon="8.8883">
        <ele>902.8</ele>
      </trkpt>
      <trkpt lat="41.8499" lon="8.88847">
        <ele>904.3</ele>
      </trkpt>
      <trkpt lat="41.84981" lon="8.88863">
        <ele>901.9</ele>
      </trkpt>
      <trkpt lat="41.84971" lon="8.88882">
        <ele>900.6</ele>
      </trkpt>
      <trkpt lat="41.84963" lon="8.88898">
        <ele>900.7</ele>
      </trkpt>
      <trkpt lat="41.84957" lon="8.88912">
        <ele>901.9</ele>
      </trkpt>
      <trkpt lat="41.84951" lon="8.88931">
        <ele>902.8</ele>
      </trkpt>
      <trkpt lat="41.84944" lon="8.88946">
        <ele>902</ele>
      </trkpt>
      <trkpt lat="41.84945" lon="8.88961">
        <ele>903.5</ele>
      </trkpt>
      <trkpt lat="41.84946" lon="8.88977">
        <ele>904.5</ele>
      </trkpt>
      <trkpt lat="41.84946" lon="8.88997">
        <ele>905.2</ele>
      </trkpt>
      <trkpt lat="41.84945" lon="8.89013">
        <ele>905.5</ele>
      </trkpt>
      <trkpt lat="41.84948" lon="8.89032">
        <ele>906.2</ele>
      </trkpt>
      <trkpt lat="41.84951" lon="8.89054">
        <ele>905.3</ele>
      </trkpt>
      <trkpt lat="41.84962" lon="8.89063">
        <ele>903.3</ele>
      </trkpt>
      <trkpt lat="41.84976" lon="8.89065">
        <ele>901.2</ele>
      </trkpt>
      <trkpt lat="41.84987" lon="8.89067">
        <ele>900.5</ele>
      </trkpt>
      <trkpt lat="41.84997" lon="8.89072">
        <ele>899</ele>
      </trkpt>
      <trkpt lat="41.85005" lon="8.89077">
        <ele>897.9</ele>
      </trkpt>
      <trkpt lat="41.85014" lon="8.89086">
        <ele>896.2</ele>
      </trkpt>
      <trkpt lat="41.85022" lon="8.89086">
        <ele>896.6</ele>
      </trkpt>
      <trkpt lat="41.85033" lon="8.8908">
        <ele>898.6</ele>
      </trkpt>
      <trkpt lat="41.85045" lon="8.89085">
        <ele>900.1</ele>
      </trkpt>
      <trkpt lat="41.85051" lon="8.89096">
        <ele>901.5</ele>
      </trkpt>
      <trkpt lat="41.85059" lon="8.89106">
        <ele>903.9</ele>
      </trkpt>
      <trkpt lat="41.85061" lon="8.89121">
        <ele>905.3</ele>
      </trkpt>
      <trkpt lat="41.85064" lon="8.89137">
        <ele>906.9</ele>
      </trkpt>
      <trkpt lat="41.85073" lon="8.89157">
        <ele>909.6</ele>
      </trkpt>
      <trkpt lat="41.85081" lon="8.89166">
        <ele>912.3</ele>
      </trkpt>
      <trkpt lat="41.85092" lon="8.89178">
        <ele>912.8</ele>
      </trkpt>
      <trkpt lat="41.85095" lon="8.8919">
        <ele>911.3</ele>
      </trkpt>
      <trkpt lat="41.85094" lon="8.89209">
        <ele>908</ele>
      </trkpt>
      <trkpt lat="41.85084" lon="8.89227">
        <ele>906</ele>
      </trkpt>
      <trkpt lat="41.85078" lon="8.89238">
        <ele>902.7</ele>
      </trkpt>
      <trkpt lat="41.85069" lon="8.89246">
        <ele>900</ele>
      </trkpt>
      <trkpt lat="41.8506" lon="8.89259">
        <ele>897.6</ele>
      </trkpt>
      <trkpt lat="41.85052" lon="8.89279">
        <ele>894.6</ele>
      </trkpt>
      <trkpt lat="41.8505" lon="8.89294">
        <ele>892</ele>
      </trkpt>
      <trkpt lat="41.85047" lon="8.89312">
        <ele>888.9</ele>
      </trkpt>
      <trkpt lat="41.8505" lon="8.8932">
        <ele>888</ele>
      </trkpt>
      <trkpt lat="41.85053" lon="8.89331">
        <ele>886.8</ele>
      </trkpt>
      <trkpt lat="41.85061" lon="8.89339">
        <ele>885.9</ele>
      </trkpt>
      <trkpt lat="41.8507" lon="8.89347">
        <ele>885</ele>
      </trkpt>
      <trkpt lat="41.8507" lon="8.89354">
        <ele>883.9</ele>
      </trkpt>
      <trkpt lat="41.85063" lon="8.89364">
        <ele>880.6</ele>
      </trkpt>
      <trkpt lat="41.85051" lon="8.89363">
        <ele>878</ele>
      </trkpt>
      <trkpt lat="41.85038" lon="8.89358">
        <ele>875.5</ele>
      </trkpt>
      <trkpt lat="41.8503" lon="8.8935">
        <ele>875.7</ele>
      </trkpt>
      <trkpt lat="41.85014" lon="8.8934">
        <ele>873.7</ele>
      </trkpt>
      <trkpt lat="41.85007" lon="8.89332">
        <ele>872.9</ele>
      </trkpt>
      <trkpt lat="41.84998" lon="8.89326">
        <ele>870.4</ele>
      </trkpt>
      <trkpt lat="41.84985" lon="8.89317">
        <ele>867.3</ele>
      </trkpt>
      <trkpt lat="41.84974" lon="8.89306">
        <ele>864.7</ele>
      </trkpt>
      <trkpt lat="41.84966" lon="8.89294">
        <ele>861.8</ele>
      </trkpt>
      <trkpt lat="41.84959" lon="8.89283">
        <ele>859.3</ele>
      </trkpt>
      <trkpt lat="41.84954" lon="8.89265">
        <ele>857.8</ele>
      </trkpt>
      <trkpt lat="41.84948" lon="8.89254">
        <ele>855.2</ele>
      </trkpt>
      <trkpt lat="41.84941" lon="8.89234">
        <ele>854.8</ele>
      </trkpt>
      <trkpt lat="41.84936" lon="8.89222">
        <ele>855.1</ele>
      </trkpt>
      <trkpt lat="41.84928" lon="8.89212">
        <ele>856.3</ele>
      </trkpt>
      <trkpt lat="41.84914" lon="8.89209">
        <ele>854.4</ele>
      </trkpt>
      <trkpt lat="41.84902" lon="8.89206">
        <ele>853.4</ele>
      </trkpt>
      <trkpt lat="41.84889" lon="8.89202">
        <ele>852.7</ele>
      </trkpt>
      <trkpt lat="41.84878" lon="8.89195">
        <ele>853.4</ele>
      </trkpt>
      <trkpt lat="41.84865" lon="8.89186">
        <ele>854.6</ele>
      </trkpt>
      <trkpt lat="41.84854" lon="8.89182">
        <ele>854.3</ele>
      </trkpt>
      <trkpt lat="41.84841" lon="8.89176">
        <ele>854.9</ele>
      </trkpt>
      <trkpt lat="41.84827" lon="8.89168">
        <ele>855.5</ele>
      </trkpt>
      <trkpt lat="41.84818" lon="8.89159">
        <ele>857.4</ele>
      </trkpt>
      <trkpt lat="41.84803" lon="8.89153">
        <ele>857</ele>
      </trkpt>
      <trkpt lat="41.84795" lon="8.89148">
        <ele>856</ele>
      </trkpt>
      <trkpt lat="41.84785" lon="8.89138">
        <ele>854.8</ele>
      </trkpt>
      <trkpt lat="41.84771" lon="8.89127">
        <ele>851.7</ele>
      </trkpt>
      <trkpt lat="41.84765" lon="8.8912">
        <ele>850.2</ele>
      </trkpt>
      <trkpt lat="41.84757" lon="8.89111">
        <ele>848</ele>
      </trkpt>
      <trkpt lat="41.8475" lon="8.89102">
        <ele>846.6</ele>
      </trkpt>
      <trkpt lat="41.84741" lon="8.89093">
        <ele>844.6</ele>
      </trkpt>
      <trkpt lat="41.84734" lon="8.89084">
        <ele>843.4</ele>
      </trkpt>
      <trkpt lat="41.84725" lon="8.89074">
        <ele>841</ele>
      </trkpt>
      <trkpt lat="41.84716" lon="8.89076">
        <ele>838.5</ele>
      </trkpt>
      <trkpt lat="41.84706" lon="8.89079">
        <ele>835.8</ele>
      </trkpt>
      <trkpt lat="41.847" lon="8.89089">
        <ele>833</ele>
      </trkpt>
      <trkpt lat="41.84699" lon="8.891">
        <ele>831.5</ele>
      </trkpt>
      <trkpt lat="41.84698" lon="8.89114">
        <ele>829.9</ele>
      </trkpt>
      <trkpt lat="41.84695" lon="8.89121">
        <ele>828.7</ele>
      </trkpt>
      <trkpt lat="41.84692" lon="8.89132">
        <ele>827.7</ele>
      </trkpt>
      <trkpt lat="41.84689" lon="8.89145">
        <ele>826.1</ele>
      </trkpt>
      <trkpt lat="41.8469" lon="8.89163">
        <ele>824.7</ele>
      </trkpt>
      <trkpt lat="41.84689" lon="8.89182">
        <ele>821.4</ele>
      </trkpt>
      <trkpt lat="41.84689" lon="8.89192">
        <ele>819.9</ele>
      </trkpt>
      <trkpt lat="41.84686" lon="8.89215">
        <ele>816.4</ele>
      </trkpt>
      <trkpt lat="41.84682" lon="8.89231">
        <ele>813.1</ele>
        <time>2022-04-25T13:15:51Z</time>
      </trkpt>
      <trkpt lat="41.84675" lon="8.89234">
        <ele>810.6</ele>
      </trkpt>
      <trkpt lat="41.84665" lon="8.89239">
        <ele>807.2</ele>
      </trkpt>
      <trkpt lat="41.84654" lon="8.8924">
        <ele>804.6</ele>
      </trkpt>
      <trkpt lat="41.84646" lon="8.89241">
        <ele>802.9</ele>
      </trkpt>
      <trkpt lat="41.84642" lon="8.89242">
        <ele>801.9</ele>
      </trkpt>
      <trkpt lat="41.84635" lon="8.89246">
        <ele>800.2</ele>
      </trkpt>
      <trkpt lat="41.84627" lon="8.89246">
        <ele>799.7</ele>
      </trkpt>
      <trkpt lat="41.84618" lon="8.89244">
        <ele>799.2</ele>
      </trkpt>
      <trkpt lat="41.84608" lon="8.89252">
        <ele>797.4</ele>
      </trkpt>
      <trkpt lat="41.84599" lon="8.89253">
        <ele>795.8</ele>
      </trkpt>
      <trkpt lat="41.84591" lon="8.89259">
        <ele>794.3</ele>
      </trkpt>
      <trkpt lat="41.84585" lon="8.89261">
        <ele>793.2</ele>
      </trkpt>
      <trkpt lat="41.84578" lon="8.89264">
        <ele>792.1</ele>
      </trkpt>
      <trkpt lat="41.8457" lon="8.89264">
        <ele>790.5</ele>
      </trkpt>
      <trkpt lat="41.84565" lon="8.89264">
        <ele>789.7</ele>
      </trkpt>
      <trkpt lat="41.84556" lon="8.89262">
        <ele>787.9</ele>
      </trkpt>
      <trkpt lat="41.84548" lon="8.89258">
        <ele>786.9</ele>
      </trkpt>
      <trkpt lat="41.84542" lon="8.89255">
        <ele>786</ele>
      </trkpt>
      <trkpt lat="41.84538" lon="8.89249">
        <ele>785.1</ele>
      </trkpt>
      <trkpt lat="41.84531" lon="8.89242">
        <ele>784.1</ele>
        <time>2022-04-25T13:16:30Z</time>
      </trkpt>
      <trkpt lat="41.84522" lon="8.8924">
        <ele>783.1</ele>
      </trkpt>
      <trkpt lat="41.84513" lon="8.89236">
        <ele>782.1</ele>
      </trkpt>
      <trkpt lat="41.84504" lon="8.8923">
        <ele>780.9</ele>
      </trkpt>
      <trkpt lat="41.84497" lon="8.89228">
        <ele>780.8</ele>
      </trkpt>
      <trkpt lat="41.8449" lon="8.89215">
        <ele>781.1</ele>
      </trkpt>
      <trkpt lat="41.84485" lon="8.89198">
        <ele>780.8</ele>
      </trkpt>
      <trkpt lat="41.84481" lon="8.89183">
        <ele>780</ele>
      </trkpt>
      <trkpt lat="41.84476" lon="8.89166">
        <ele>778.1</ele>
      </trkpt>
      <trkpt lat="41.84471" lon="8.89157">
        <ele>777.6</ele>
      </trkpt>
      <trkpt lat="41.84469" lon="8.89146">
        <ele>777</ele>
      </trkpt>
      <trkpt lat="41.84467" lon="8.89139">
        <ele>776.6</ele>
      </trkpt>
      <trkpt lat="41.84465" lon="8.89129">
        <ele>776.4</ele>
      </trkpt>
      <trkpt lat="41.84459" lon="8.89121">
        <ele>776.7</ele>
      </trkpt>
      <trkpt lat="41.84455" lon="8.89113">
        <ele>775.8</ele>
      </trkpt>
      <trkpt lat="41.84451" lon="8.89105">
        <ele>774.9</ele>
      </trkpt>
      <trkpt lat="41.84446" lon="8.89091">
        <ele>772.4</ele>
      </trkpt>
      <trkpt lat="41.84441" lon="8.8907">
        <ele>771.2</ele>
      </trkpt>
      <trkpt lat="41.84438" lon="8.89049">
        <ele>770.9</ele>
      </trkpt>
      <trkpt lat="41.84437" lon="8.89037">
        <ele>770.6</ele>
      </trkpt>
      <trkpt lat="41.84434" lon="8.89017">
        <ele>769.2</ele>
      </trkpt>
      <trkpt lat="41.8443" lon="8.89001">
        <ele>767.6</ele>
      </trkpt>
      <trkpt lat="41.84428" lon="8.88989">
        <ele>766.5</ele>
      </trkpt>
      <trkpt lat="41.84424" lon="8.88977">
        <ele>765.1</ele>
      </trkpt>
      <trkpt lat="41.84421" lon="8.8896">
        <ele>762.2</ele>
      </trkpt>
      <trkpt lat="41.84419" lon="8.88944">
        <ele>759.2</ele>
      </trkpt>
      <trkpt lat="41.84417" lon="8.88927">
        <ele>756.5</ele>
      </trkpt>
      <trkpt lat="41.84414" lon="8.88917">
        <ele>756.1</ele>
      </trkpt>
      <trkpt lat="41.84413" lon="8.88908">
        <ele>755.3</ele>
      </trkpt>
      <trkpt lat="41.84412" lon="8.88898">
        <ele>754.3</ele>
      </trkpt>
      <trkpt lat="41.84411" lon="8.88884">
        <ele>752.1</ele>
      </trkpt>
      <trkpt lat="41.84409" lon="8.88874">
        <ele>751</ele>
      </trkpt>
      <trkpt lat="41.84405" lon="8.88859">
        <ele>749.2</ele>
      </trkpt>
      <trkpt lat="41.84399" lon="8.88848">
        <ele>748.2</ele>
      </trkpt>
      <trkpt lat="41.84395" lon="8.88833">
        <ele>745.5</ele>
      </trkpt>
      <trkpt lat="41.8439" lon="8.88822">
        <ele>743.8</ele>
      </trkpt>
      <trkpt lat="41.84387" lon="8.88812">
        <ele>742.6</ele>
      </trkpt>
      <trkpt lat="41.84384" lon="8.88805">
        <ele>742</ele>
      </trkpt>
      <trkpt lat="41.84382" lon="8.88793">
        <ele>740.3</ele>
      </trkpt>
      <trkpt lat="41.84376" lon="8.88782">
        <ele>740.1</ele>
      </trkpt>
      <trkpt lat="41.84371" lon="8.88773">
        <ele>739.7</ele>
      </trkpt>
      <trkpt lat="41.84367" lon="8.8876">
        <ele>737.1</ele>
      </trkpt>
      <trkpt lat="41.84361" lon="8.88751">
        <ele>736.5</ele>
      </trkpt>
      <trkpt lat="41.84355" lon="8.88739">
        <ele>734.3</ele>
      </trkpt>
      <trkpt lat="41.84348" lon="8.88729">
        <ele>732.2</ele>
        <time>2022-04-25T13:20:49Z</time>
      </trkpt>
      <trkpt lat="41.84341" lon="8.88721">
        <ele>731</ele>
      </trkpt>
      <trkpt lat="41.84333" lon="8.88717">
        <ele>731.2</ele>
      </trkpt>
      <trkpt lat="41.84326" lon="8.88711">
        <ele>730.8</ele>
      </trkpt>
      <trkpt lat="41.84321" lon="8.88705">
        <ele>730.1</ele>
      </trkpt>
      <trkpt lat="41.84318" lon="8.88699">
        <ele>728.4</ele>
      </trkpt>
      <trkpt lat="41.84311" lon="8.88688">
        <ele>725.9</ele>
      </trkpt>
      <trkpt lat="41.84304" lon="8.8868">
        <ele>724.6</ele>
        <time>2022-04-25T13:21:52Z</time>
      </trkpt>
      <trkpt lat="41.84301" lon="8.8867">
        <ele>721.8</ele>
      </trkpt>
      <trkpt lat="41.84296" lon="8.88662">
        <ele>720.3</ele>
      </trkpt>
      <trkpt lat="41.8429" lon="8.88657">
        <ele>720.2</ele>
      </trkpt>
      <trkpt lat="41.84285" lon="8.88652">
        <ele>719.8</ele>
      </trkpt>
      <trkpt lat="41.84279" lon="8.88645">
        <ele>718.4</ele>
      </trkpt>
      <trkpt lat="41.84272" lon="8.88639">
        <ele>717.5</ele>
      </trkpt>
      <trkpt lat="41.84265" lon="8.88633">
        <ele>716.9</ele>
      </trkpt>
      <trkpt lat="41.8426" lon="8.88628">
        <ele>716.1</ele>
      </trkpt>
      <trkpt lat="41.84253" lon="8.88623">
        <ele>715.6</ele>
      </trkpt>
      <trkpt lat="41.84247" lon="8.88619">
        <ele>714.9</ele>
        <time>2022-04-25T13:25:30Z</time>
      </trkpt>
      <trkpt lat="41.84234" lon="8.88609">
        <ele>712.5</ele>
        <time>2022-04-25T13:25:41Z</time>
      </trkpt>
      <trkpt lat="41.84228" lon="8.88606">
        <ele>712.2</ele>
      </trkpt>
      <trkpt lat="41.84218" lon="8.88601">
        <ele>711.8</ele>
      </trkpt>
      <trkpt lat="41.8421" lon="8.88598">
        <ele>711.5</ele>
        <time>2022-04-25T13:25:49Z</time>
      </trkpt>
      <trkpt lat="41.84201" lon="8.88593">
        <ele>710.5</ele>
      </trkpt>
      <trkpt lat="41.84192" lon="8.88587">
        <ele>709</ele>
      </trkpt>
      <trkpt lat="41.84186" lon="8.88582">
        <ele>707.8</ele>
      </trkpt>
      <trkpt lat="41.84177" lon="8.88577">
        <ele>707.3</ele>
      </trkpt>
      <trkpt lat="41.84167" lon="8.88572">
        <ele>706.4</ele>
      </trkpt>
      <trkpt lat="41.84155" lon="8.88568">
        <ele>706.4</ele>
        <time>2022-04-25T13:26:19Z</time>
      </trkpt>
      <trkpt lat="41.84143" lon="8.88562">
        <ele>705.4</ele>
      </trkpt>
      <trkpt lat="41.84133" lon="8.88557">
        <ele>704.6</ele>
      </trkpt>
      <trkpt lat="41.84125" lon="8.88554">
        <ele>704.5</ele>
        <time>2022-04-25T13:26:39Z</time>
      </trkpt>
      <trkpt lat="41.84115" lon="8.88549">
        <ele>704.1</ele>
      </trkpt>
      <trkpt lat="41.84105" lon="8.88539">
        <ele>701.3</ele>
      </trkpt>
      <trkpt lat="41.841" lon="8.88531">
        <ele>699</ele>
      </trkpt>
      <trkpt lat="41.84092" lon="8.88525">
        <ele>697.8</ele>
        <time>2022-04-25T13:27:24Z</time>
      </trkpt>
      <trkpt lat="41.84084" lon="8.88519">
        <ele>696.9</ele>
      </trkpt>
      <trkpt lat="41.84077" lon="8.88515">
        <ele>696.5</ele>
      </trkpt>
      <trkpt lat="41.84072" lon="8.8851">
        <ele>695.4</ele>
        <time>2022-04-25T13:27:35Z</time>
      </trkpt>
      <trkpt lat="41.84065" lon="8.88503">
        <ele>694</ele>
      </trkpt>
      <trkpt lat="41.84058" lon="8.88496">
        <ele>692.3</ele>
      </trkpt>
      <trkpt lat="41.84053" lon="8.8849">
        <ele>691.7</ele>
      </trkpt>
      <trkpt lat="41.84049" lon="8.88487">
        <ele>691.6</ele>
      </trkpt>
      <trkpt lat="41.84045" lon="8.88481">
        <ele>690.7</ele>
      </trkpt>
      <trkpt lat="41.8404" lon="8.88474">
        <ele>689.7</ele>
      </trkpt>
      <trkpt lat="41.84035" lon="8.88468">
        <ele>688.9</ele>
        <time>2022-04-25T13:28:11Z</time>
      </trkpt>
      <trkpt lat="41.84031" lon="8.88465">
        <ele>688.7</ele>
      </trkpt>
      <trkpt lat="41.84027" lon="8.8846">
        <ele>688.3</ele>
      </trkpt>
      <trkpt lat="41.84022" lon="8.88454">
        <ele>688</ele>
        <time>2022-04-25T13:28:44Z</time>
      </trkpt>
      <trkpt lat="41.84017" lon="8.88451">
        <ele>688.3</ele>
      </trkpt>
      <trkpt lat="41.84013" lon="8.88448">
        <ele>688.5</ele>
      </trkpt>
      <trkpt lat="41.84006" lon="8.88439">
        <ele>687.3</ele>
      </trkpt>
      <trkpt lat="41.84001" lon="8.88433">
        <ele>686.5</ele>
        <time>2022-04-25T13:30:06Z</time>
      </trkpt>
      <trkpt lat="41.83995" lon="8.88418">
        <ele>683.6</ele>
      </trkpt>
      <trkpt lat="41.8399" lon="8.8841">
        <ele>683.1</ele>
      </trkpt>
      <trkpt lat="41.83986" lon="8.88402">
        <ele>682.4</ele>
      </trkpt>
      <trkpt lat="41.83983" lon="8.88393">
        <ele>681.2</ele>
        <time>2022-04-25T13:36:35Z</time>
      </trkpt>
      <trkpt lat="41.83979" lon="8.88386">
        <ele>680.3</ele>
      </trkpt>
      <trkpt lat="41.83976" lon="8.88378">
        <ele>678.7</ele>
      </trkpt>
      <trkpt lat="41.83973" lon="8.8837">
        <ele>677.1</ele>
      </trkpt>
      <trkpt lat="41.83968" lon="8.88363">
        <ele>676.2</ele>
      </trkpt>
      <trkpt lat="41.83965" lon="8.88357">
        <ele>675.1</ele>
      </trkpt>
      <trkpt lat="41.83961" lon="8.8835">
        <ele>674.9</ele>
      </trkpt>
      <trkpt lat="41.83957" lon="8.88344">
        <ele>674.6</ele>
      </trkpt>
      <trkpt lat="41.83955" lon="8.88337">
        <ele>673.5</ele>
      </trkpt>
      <trkpt lat="41.83952" lon="8.88326">
        <ele>671.2</ele>
      </trkpt>
      <trkpt lat="41.83949" lon="8.88317">
        <ele>669.1</ele>
        <time>2022-04-25T13:36:36Z</time>
      </trkpt>
      <trkpt lat="41.83945" lon="8.8831">
        <ele>668.2</ele>
      </trkpt>
      <trkpt lat="41.83942" lon="8.88301">
        <ele>665.9</ele>
      </trkpt>
      <trkpt lat="41.83937" lon="8.88293">
        <ele>664</ele>
      </trkpt>
      <trkpt lat="41.8393" lon="8.88283">
        <ele>662.3</ele>
      </trkpt>
      <trkpt lat="41.83922" lon="8.88277">
        <ele>662.1</ele>
        <time>2022-04-25T13:36:42Z</time>
      </trkpt>
      <trkpt lat="41.83918" lon="8.88268">
        <ele>660.4</ele>
      </trkpt>
      <trkpt lat="41.83913" lon="8.88259">
        <ele>658.7</ele>
      </trkpt>
      <trkpt lat="41.83907" lon="8.88251">
        <ele>656.8</ele>
      </trkpt>
      <trkpt lat="41.83903" lon="8.88241">
        <ele>655.1</ele>
      </trkpt>
      <trkpt lat="41.839" lon="8.88234">
        <ele>653.6</ele>
      </trkpt>
      <trkpt lat="41.83895" lon="8.88229">
        <ele>652.8</ele>
      </trkpt>
      <trkpt lat="41.83888" lon="8.88218">
        <ele>651.1</ele>
      </trkpt>
      <trkpt lat="41.8388" lon="8.8821">
        <ele>649.5</ele>
      </trkpt>
      <trkpt lat="41.83872" lon="8.88202">
        <ele>648.2</ele>
      </trkpt>
      <trkpt lat="41.83869" lon="8.88187">
        <ele>644.8</ele>
      </trkpt>
      <trkpt lat="41.83863" lon="8.88174">
        <ele>642.5</ele>
      </trkpt>
      <trkpt lat="41.83858" lon="8.88163">
        <ele>640.6</ele>
      </trkpt>
      <trkpt lat="41.83857" lon="8.88149">
        <ele>638.6</ele>
      </trkpt>
      <trkpt lat="41.83874" lon="8.88152">
        <ele>637.5</ele>
      </trkpt>
      <trkpt lat="41.83881" lon="8.88154">
        <ele>637</ele>
      </trkpt>
      <trkpt lat="41.83892" lon="8.88159">
        <ele>636.9</ele>
      </trkpt>
      <trkpt lat="41.839" lon="8.88162">
        <ele>636.2</ele>
      </trkpt>
      <trkpt lat="41.8391" lon="8.88167">
        <ele>636</ele>
      </trkpt>
      <trkpt lat="41.83916" lon="8.88172">
        <ele>636.4</ele>
      </trkpt>
      <trkpt lat="41.83924" lon="8.88173">
        <ele>634.6</ele>
      </trkpt>
      <trkpt lat="41.83931" lon="8.88181">
        <ele>634.7</ele>
      </trkpt>
      <trkpt lat="41.83941" lon="8.88195">
        <ele>635.9</ele>
      </trkpt>
      <trkpt lat="41.83949" lon="8.88205">
        <ele>635.3</ele>
      </trkpt>
      <trkpt lat="41.83953" lon="8.88214">
        <ele>635.2</ele>
      </trkpt>
      <trkpt lat="41.83959" lon="8.88222">
        <ele>634.8</ele>
      </trkpt>
      <trkpt lat="41.83965" lon="8.88228">
        <ele>634.7</ele>
      </trkpt>
      <trkpt lat="41.83974" lon="8.88235">
        <ele>634.1</ele>
      </trkpt>
      <trkpt lat="41.83985" lon="8.88241">
        <ele>634.3</ele>
      </trkpt>
      <trkpt lat="41.83997" lon="8.88245">
        <ele>636.53</ele>
        <time>2022-04-25T13:36:50Z</time>
      </trkpt>
      <trkpt lat="41.84001" lon="8.88246">
        <ele>633</ele>
        <time>2022-04-25T13:37:04Z</time>
      </trkpt>
      <trkpt lat="41.84006" lon="8.88247">
        <ele>634.2</ele>
      </trkpt>
      <trkpt lat="41.84012" lon="8.88239">
        <ele>636.53</ele>
        <time>2022-04-25T13:37:06Z</time>
      </trkpt>
      <trkpt lat="41.84007" lon="8.88216">
        <ele>636.53</ele>
        <time>2022-04-25T13:37:23Z</time>
      </trkpt>
      <trkpt lat="41.84" lon="8.88191">
        <ele>637.01</ele>
        <time>2022-04-25T13:37:38Z</time>
      </trkpt>
      <trkpt lat="41.83996" lon="8.8817">
        <ele>637.49</ele>
        <time>2022-04-25T13:37:52Z</time>
      </trkpt>
      <trkpt lat="41.83994" lon="8.88159">
        <ele>637.49</ele>
        <time>2022-04-25T13:38:02Z</time>
      </trkpt>
      <trkpt lat="41.83991" lon="8.88149">
        <ele>637.01</ele>
        <time>2022-04-25T13:38:08Z</time>
      </trkpt>
      <trkpt lat="41.83989" lon="8.88144">
        <ele>638.45</ele>
        <time>2022-04-25T13:38:10Z</time>
      </trkpt>
      <trkpt lat="41.83988" lon="8.88142">
        <ele>637.97</ele>
        <time>2022-04-25T13:38:11Z</time>
      </trkpt>
      <trkpt lat="41.83988" lon="8.8814">
        <ele>637.97</ele>
        <time>2022-04-25T13:38:12Z</time>
      </trkpt>
      <trkpt lat="41.83987" lon="8.88139">
        <ele>637.97</ele>
        <time>2022-04-25T13:38:13Z</time>
      </trkpt>
      <trkpt lat="41.83987" lon="8.88137">
        <ele>637.97</ele>
        <time>2022-04-25T13:38:14Z</time>
      </trkpt>
      <trkpt lat="41.83987" lon="8.88135">
        <ele>637.97</ele>
        <time>2022-04-25T13:38:15Z</time>
      </trkpt>
      <trkpt lat="41.83986" lon="8.88134">
        <ele>638.45</ele>
        <time>2022-04-25T13:38:16Z</time>
      </trkpt>
      <trkpt lat="41.83981" lon="8.8812">
        <ele>637.97</ele>
        <time>2022-04-25T13:38:26Z</time>
      </trkpt>
      <trkpt lat="41.83972" lon="8.88094">
        <ele>637.97</ele>
        <time>2022-04-25T13:38:41Z</time>
      </trkpt>
      <trkpt lat="41.83972" lon="8.88072">
        <ele>637.97</ele>
        <time>2022-04-25T13:38:53Z</time>
      </trkpt>
      <trkpt lat="41.83977" lon="8.88047">
        <ele>638.45</ele>
        <time>2022-04-25T13:39:07Z</time>
      </trkpt>
      <trkpt lat="41.83982" lon="8.88028">
        <ele>637.97</ele>
        <time>2022-04-25T13:39:20Z</time>
      </trkpt>
      <trkpt lat="41.83989" lon="8.88011">
        <ele>638.45</ele>
        <time>2022-04-25T13:39:31Z</time>
      </trkpt>
      <trkpt lat="41.83996" lon="8.87993">
        <ele>638.93</ele>
        <time>2022-04-25T13:39:42Z</time>
      </trkpt>
      <trkpt lat="41.83999" lon="8.8799">
        <ele>638.93</ele>
        <time>2022-04-25T13:39:46Z</time>
      </trkpt>
      <trkpt lat="41.84" lon="8.87984">
        <ele>638.93</ele>
        <time>2022-04-25T13:39:49Z</time>
      </trkpt>
      <trkpt lat="41.84" lon="8.87982">
        <ele>639.41</ele>
        <time>2022-04-25T13:39:50Z</time>
      </trkpt>
      <trkpt lat="41.84001" lon="8.8798">
        <ele>638.93</ele>
        <time>2022-04-25T13:39:51Z</time>
      </trkpt>
      <trkpt lat="41.84001" lon="8.87977">
        <ele>638.93</ele>
        <time>2022-04-25T13:39:52Z</time>
      </trkpt>
      <trkpt lat="41.84001" lon="8.87975">
        <ele>638.45</ele>
        <time>2022-04-25T13:39:53Z</time>
      </trkpt>
      <trkpt lat="41.84002" lon="8.87973">
        <ele>638.93</ele>
        <time>2022-04-25T13:39:54Z</time>
      </trkpt>
      <trkpt lat="41.84002" lon="8.87972">
        <ele>638.45</ele>
        <time>2022-04-25T13:39:55Z</time>
      </trkpt>
      <trkpt lat="41.84003" lon="8.8797">
        <ele>638.45</ele>
        <time>2022-04-25T13:39:56Z</time>
      </trkpt>
      <trkpt lat="41.84001" lon="8.8794">
        <ele>638.45</ele>
        <time>2022-04-25T13:40:13Z</time>
      </trkpt>
      <trkpt lat="41.84006" lon="8.87917">
        <ele>637.97</ele>
        <time>2022-04-25T13:40:26Z</time>
      </trkpt>
      <trkpt lat="41.84012" lon="8.87898">
        <ele>637.97</ele>
        <time>2022-04-25T13:40:39Z</time>
      </trkpt>
      <trkpt lat="41.84022" lon="8.87883">
        <ele>638.45</ele>
        <time>2022-04-25T13:40:52Z</time>
      </trkpt>
      <trkpt lat="41.84031" lon="8.87868">
        <ele>637.49</ele>
        <time>2022-04-25T13:41:04Z</time>
      </trkpt>
      <trkpt lat="41.84032" lon="8.87867">
        <ele>637.97</ele>
        <time>2022-04-25T13:41:05Z</time>
      </trkpt>
      <trkpt lat="41.84033" lon="8.87866">
        <ele>637.97</ele>
        <time>2022-04-25T13:41:06Z</time>
      </trkpt>
      <trkpt lat="41.84034" lon="8.87864">
        <ele>637.97</ele>
        <time>2022-04-25T13:41:07Z</time>
      </trkpt>
      <trkpt lat="41.84039" lon="8.8786">
        <ele>637.97</ele>
        <time>2022-04-25T13:41:12Z</time>
      </trkpt>
      <trkpt lat="41.8404" lon="8.87859">
        <ele>637.97</ele>
        <time>2022-04-25T13:41:13Z</time>
      </trkpt>
      <trkpt lat="41.84041" lon="8.87858">
        <ele>637.97</ele>
        <time>2022-04-25T13:41:14Z</time>
      </trkpt>
      <trkpt lat="41.84042" lon="8.87857">
        <ele>637.97</ele>
        <time>2022-04-25T13:41:15Z</time>
      </trkpt>
      <trkpt lat="41.84043" lon="8.87856">
        <ele>637.97</ele>
        <time>2022-04-25T13:41:16Z</time>
      </trkpt>
      <trkpt lat="41.84062" lon="8.87843">
        <ele>637.97</ele>
        <time>2022-04-25T13:41:34Z</time>
      </trkpt>
      <trkpt lat="41.84079" lon="8.87838">
        <ele>637.01</ele>
        <time>2022-04-25T13:41:48Z</time>
      </trkpt>
      <trkpt lat="41.84094" lon="8.8783">
        <ele>636.53</ele>
        <time>2022-04-25T13:42:02Z</time>
      </trkpt>
      <trkpt lat="41.84102" lon="8.87825">
        <ele>637.01</ele>
        <time>2022-04-25T13:42:12Z</time>
      </trkpt>
      <trkpt lat="41.84106" lon="8.87823">
        <ele>637.01</ele>
        <time>2022-04-25T13:42:24Z</time>
      </trkpt>
      <trkpt lat="41.84111" lon="8.87812">
        <ele>637.01</ele>
        <time>2022-04-25T13:42:39Z</time>
      </trkpt>
      <trkpt lat="41.84133" lon="8.87799">
        <ele>637.01</ele>
        <time>2022-04-25T13:43:00Z</time>
      </trkpt>
      <trkpt lat="41.84152" lon="8.87782">
        <ele>636.05</ele>
        <time>2022-04-25T13:43:19Z</time>
      </trkpt>
      <trkpt lat="41.84171" lon="8.87751">
        <ele>636.53</ele>
        <time>2022-04-25T13:43:42Z</time>
      </trkpt>
      <trkpt lat="41.84182" lon="8.87719">
        <ele>636.53</ele>
        <time>2022-04-25T13:44:02Z</time>
      </trkpt>
      <trkpt lat="41.84193" lon="8.877">
        <ele>635.57</ele>
        <time>2022-04-25T13:44:18Z</time>
      </trkpt>
      <trkpt lat="41.84211" lon="8.87689">
        <ele>635.09</ele>
        <time>2022-04-25T13:44:36Z</time>
      </trkpt>
      <trkpt lat="41.84233" lon="8.87665">
        <ele>634.13</ele>
        <time>2022-04-25T13:44:56Z</time>
      </trkpt>
      <trkpt lat="41.84234" lon="8.87664">
        <ele>633.65</ele>
        <time>2022-04-25T13:44:57Z</time>
      </trkpt>
      <trkpt lat="41.84241" lon="8.87651">
        <ele>633.17</ele>
        <time>2022-04-25T13:45:08Z</time>
      </trkpt>
      <trkpt lat="41.84229" lon="8.87634">
        <ele>633.65</ele>
        <time>2022-04-25T13:45:22Z</time>
      </trkpt>
      <trkpt lat="41.84217" lon="8.87634">
        <ele>633.65</ele>
        <time>2022-04-25T13:45:31Z</time>
      </trkpt>
      <trkpt lat="41.84196" lon="8.87634">
        <ele>634.13</ele>
        <time>2022-04-25T13:45:48Z</time>
      </trkpt>
      <trkpt lat="41.84182" lon="8.87626">
        <ele>635.09</ele>
        <time>2022-04-25T13:46:02Z</time>
      </trkpt>
      <trkpt lat="41.84174" lon="8.87606">
        <ele>635.57</ele>
        <time>2022-04-25T13:46:20Z</time>
      </trkpt>
      <trkpt lat="41.84164" lon="8.87573">
        <ele>636.05</ele>
        <time>2022-04-25T13:46:40Z</time>
      </trkpt>
      <trkpt lat="41.84162" lon="8.87557">
        <ele>636.53</ele>
        <time>2022-04-25T13:46:49Z</time>
      </trkpt>
      <trkpt lat="41.84177" lon="8.8753">
        <ele>635.57</ele>
        <time>2022-04-25T13:47:09Z</time>
      </trkpt>
      <trkpt lat="41.84195" lon="8.87517">
        <ele>633.17</ele>
        <time>2022-04-25T13:47:26Z</time>
      </trkpt>
      <trkpt lat="41.84196" lon="8.87516">
        <ele>637.49</ele>
        <time>2022-04-25T13:47:27Z</time>
      </trkpt>
      <trkpt lat="41.84209" lon="8.87505">
        <ele>635.09</ele>
        <time>2022-04-25T13:47:41Z</time>
      </trkpt>
      <trkpt lat="41.84214" lon="8.87502">
        <ele>634.61</ele>
        <time>2022-04-25T13:47:45Z</time>
      </trkpt>
      <trkpt lat="41.84215" lon="8.875">
        <ele>635.57</ele>
        <time>2022-04-25T13:47:46Z</time>
      </trkpt>
      <trkpt lat="41.84216" lon="8.87498">
        <ele>635.09</ele>
        <time>2022-04-25T13:47:47Z</time>
      </trkpt>
      <trkpt lat="41.84217" lon="8.87497">
        <ele>635.57</ele>
        <time>2022-04-25T13:47:48Z</time>
      </trkpt>
      <trkpt lat="41.84219" lon="8.87495">
        <ele>635.09</ele>
        <time>2022-04-25T13:47:49Z</time>
      </trkpt>
      <trkpt lat="41.84221" lon="8.87491">
        <ele>635.09</ele>
        <time>2022-04-25T13:47:52Z</time>
      </trkpt>
      <trkpt lat="41.8422" lon="8.87471">
        <ele>635.09</ele>
        <time>2022-04-25T13:48:04Z</time>
      </trkpt>
      <trkpt lat="41.84218" lon="8.87444">
        <ele>635.09</ele>
        <time>2022-04-25T13:48:20Z</time>
      </trkpt>
      <trkpt lat="41.84202" lon="8.87424">
        <ele>634.61</ele>
        <time>2022-04-25T13:48:36Z</time>
      </trkpt>
      <trkpt lat="41.842" lon="8.87398">
        <ele>634.61</ele>
        <time>2022-04-25T13:48:52Z</time>
      </trkpt>
      <trkpt lat="41.84206" lon="8.8737">
        <ele>635.09</ele>
        <time>2022-04-25T13:49:09Z</time>
      </trkpt>
      <trkpt lat="41.84211" lon="8.87344">
        <ele>635.09</ele>
        <time>2022-04-25T13:49:26Z</time>
      </trkpt>
      <trkpt lat="41.84208" lon="8.87322">
        <ele>634.61</ele>
        <time>2022-04-25T13:49:42Z</time>
      </trkpt>
      <trkpt lat="41.84206" lon="8.87321">
        <ele>634.13</ele>
        <time>2022-04-25T13:49:59Z</time>
      </trkpt>
      <trkpt lat="41.84201" lon="8.87312">
        <ele>634.61</ele>
        <time>2022-04-25T13:50:14Z</time>
      </trkpt>
      <trkpt lat="41.84199" lon="8.87287">
        <ele>635.57</ele>
        <time>2022-04-25T13:50:31Z</time>
      </trkpt>
      <trkpt lat="41.842" lon="8.87283">
        <ele>637.49</ele>
        <time>2022-04-25T13:50:33Z</time>
      </trkpt>
      <trkpt lat="41.84201" lon="8.87282">
        <ele>636.05</ele>
        <time>2022-04-25T13:50:34Z</time>
      </trkpt>
      <trkpt lat="41.84208" lon="8.87257">
        <ele>636.05</ele>
        <time>2022-04-25T13:50:51Z</time>
      </trkpt>
      <trkpt lat="41.84209" lon="8.87233">
        <ele>637.01</ele>
        <time>2022-04-25T13:51:08Z</time>
      </trkpt>
      <trkpt lat="41.84214" lon="8.8722">
        <ele>636.53</ele>
        <time>2022-04-25T13:51:21Z</time>
      </trkpt>
      <trkpt lat="41.84215" lon="8.87217">
        <ele>636.53</ele>
        <time>2022-04-25T13:51:23Z</time>
      </trkpt>
      <trkpt lat="41.84215" lon="8.87215">
        <ele>637.49</ele>
        <time>2022-04-25T13:51:24Z</time>
      </trkpt>
      <trkpt lat="41.84215" lon="8.87212">
        <ele>637.01</ele>
        <time>2022-04-25T13:51:25Z</time>
      </trkpt>
      <trkpt lat="41.84213" lon="8.87181">
        <ele>636.53</ele>
        <time>2022-04-25T13:51:43Z</time>
      </trkpt>
      <trkpt lat="41.84214" lon="8.87158">
        <ele>636.53</ele>
        <time>2022-04-25T13:51:58Z</time>
      </trkpt>
      <trkpt lat="41.84214" lon="8.87152">
        <ele>637.01</ele>
        <time>2022-04-25T13:52:03Z</time>
      </trkpt>
      <trkpt lat="41.84213" lon="8.87139">
        <ele>637.01</ele>
        <time>2022-04-25T13:52:13Z</time>
      </trkpt>
      <trkpt lat="41.84213" lon="8.87137">
        <ele>636.53</ele>
        <time>2022-04-25T13:52:14Z</time>
      </trkpt>
      <trkpt lat="41.84213" lon="8.87135">
        <ele>636.53</ele>
        <time>2022-04-25T13:52:15Z</time>
      </trkpt>
      <trkpt lat="41.84213" lon="8.87134">
        <ele>636.53</ele>
        <time>2022-04-25T13:52:16Z</time>
      </trkpt>
      <trkpt lat="41.84213" lon="8.87132">
        <ele>636.53</ele>
        <time>2022-04-25T13:52:17Z</time>
      </trkpt>
      <trkpt lat="41.84213" lon="8.87129">
        <ele>636.53</ele>
        <time>2022-04-25T13:52:18Z</time>
      </trkpt>
      <trkpt lat="41.84209" lon="8.87107">
        <ele>636.05</ele>
        <time>2022-04-25T13:52:32Z</time>
      </trkpt>
      <trkpt lat="41.84205" lon="8.87097">
        <ele>636.53</ele>
        <time>2022-04-25T13:52:44Z</time>
      </trkpt>
      <trkpt lat="41.84203" lon="8.87095">
        <ele>636.53</ele>
        <time>2022-04-25T13:52:46Z</time>
      </trkpt>
      <trkpt lat="41.84191" lon="8.87084">
        <ele>637.97</ele>
        <time>2022-04-25T13:53:03Z</time>
      </trkpt>
      <trkpt lat="41.84177" lon="8.87068">
        <ele>636.05</ele>
        <time>2022-04-25T13:53:19Z</time>
      </trkpt>
      <trkpt lat="41.84169" lon="8.87053">
        <ele>637.49</ele>
        <time>2022-04-25T13:53:32Z</time>
      </trkpt>
      <trkpt lat="41.84167" lon="8.8705">
        <ele>637.49</ele>
        <time>2022-04-25T13:53:35Z</time>
      </trkpt>
      <trkpt lat="41.84149" lon="8.87037">
        <ele>638.45</ele>
        <time>2022-04-25T13:53:50Z</time>
      </trkpt>
      <trkpt lat="41.84141" lon="8.87035">
        <ele>638.93</ele>
        <time>2022-04-25T13:53:58Z</time>
      </trkpt>
      <trkpt lat="41.84121" lon="8.87037">
        <ele>638.93</ele>
        <time>2022-04-25T13:54:14Z</time>
      </trkpt>
      <trkpt lat="41.84108" lon="8.87035">
        <ele>638.93</ele>
        <time>2022-04-25T13:54:28Z</time>
      </trkpt>
      <trkpt lat="41.84087" lon="8.87027">
        <ele>639.41</ele>
        <time>2022-04-25T13:54:45Z</time>
      </trkpt>
      <trkpt lat="41.84075" lon="8.87023">
        <ele>639.41</ele>
        <time>2022-04-25T13:54:55Z</time>
      </trkpt>
      <trkpt lat="41.84074" lon="8.87021">
        <ele>638.93</ele>
        <time>2022-04-25T13:54:56Z</time>
      </trkpt>
      <trkpt lat="41.84073" lon="8.8702">
        <ele>638.93</ele>
        <time>2022-04-25T13:54:57Z</time>
      </trkpt>
      <trkpt lat="41.84072" lon="8.87019">
        <ele>638.93</ele>
        <time>2022-04-25T13:54:58Z</time>
      </trkpt>
      <trkpt lat="41.84071" lon="8.87018">
        <ele>638.93</ele>
        <time>2022-04-25T13:54:59Z</time>
      </trkpt>
      <trkpt lat="41.8407" lon="8.87017">
        <ele>638.45</ele>
        <time>2022-04-25T13:55:00Z</time>
      </trkpt>
      <trkpt lat="41.84069" lon="8.87016">
        <ele>639.41</ele>
        <time>2022-04-25T13:55:01Z</time>
      </trkpt>
      <trkpt lat="41.84068" lon="8.87015">
        <ele>638.45</ele>
        <time>2022-04-25T13:55:02Z</time>
      </trkpt>
      <trkpt lat="41.84067" lon="8.87014">
        <ele>638.93</ele>
        <time>2022-04-25T13:55:03Z</time>
      </trkpt>
      <trkpt lat="41.84049" lon="8.87002">
        <ele>637.49</ele>
        <time>2022-04-25T13:55:19Z</time>
      </trkpt>
      <trkpt lat="41.84034" lon="8.86995">
        <ele>637.49</ele>
        <time>2022-04-25T13:55:32Z</time>
      </trkpt>
      <trkpt lat="41.84015" lon="8.86988">
        <ele>636.53</ele>
        <time>2022-04-25T13:55:48Z</time>
      </trkpt>
      <trkpt lat="41.83992" lon="8.86982">
        <ele>636.05</ele>
        <time>2022-04-25T13:56:07Z</time>
      </trkpt>
      <trkpt lat="41.83981" lon="8.86978">
        <ele>636.05</ele>
        <time>2022-04-25T13:56:22Z</time>
      </trkpt>
      <trkpt lat="41.8398" lon="8.86981">
        <ele>636.05</ele>
        <time>2022-04-25T13:56:42Z</time>
      </trkpt>
      <trkpt lat="41.83981" lon="8.86976">
        <ele>636.53</ele>
        <time>2022-04-25T13:57:08Z</time>
      </trkpt>
      <trkpt lat="41.83981" lon="8.86978">
        <ele>636.05</ele>
        <time>2022-04-25T13:57:31Z</time>
      </trkpt>
      <trkpt lat="41.83981" lon="8.86976">
        <ele>635.57</ele>
        <time>2022-04-25T13:57:52Z</time>
      </trkpt>
      <trkpt lat="41.83982" lon="8.86978">
        <ele>636.53</ele>
        <time>2022-04-25T13:58:17Z</time>
      </trkpt>
      <trkpt lat="41.83979" lon="8.86979">
        <ele>635.57</ele>
        <time>2022-04-25T13:58:36Z</time>
      </trkpt>
      <trkpt lat="41.83981" lon="8.86977">
        <ele>635.57</ele>
        <time>2022-04-25T13:58:48Z</time>
      </trkpt>
      <trkpt lat="41.8398" lon="8.86975">
        <ele>636.53</ele>
        <time>2022-04-25T13:59:09Z</time>
      </trkpt>
      <trkpt lat="41.83975" lon="8.86966">
        <ele>637.97</ele>
        <time>2022-04-25T13:59:22Z</time>
      </trkpt>
      <trkpt lat="41.8397" lon="8.86955">
        <ele>640.86</ele>
        <time>2022-04-25T13:59:36Z</time>
      </trkpt>
      <trkpt lat="41.83967" lon="8.86944">
        <ele>642.3</ele>
        <time>2022-04-25T13:59:49Z</time>
      </trkpt>
      <trkpt lat="41.83968" lon="8.8694">
        <ele>642.78</ele>
        <time>2022-04-25T13:59:53Z</time>
      </trkpt>
      <trkpt lat="41.83966" lon="8.86934">
        <ele>644.22</ele>
        <time>2022-04-25T14:00:04Z</time>
      </trkpt>
      <trkpt lat="41.83967" lon="8.86927">
        <ele>646.14</ele>
        <time>2022-04-25T14:00:15Z</time>
      </trkpt>
      <trkpt lat="41.83972" lon="8.86928">
        <ele>646.62</ele>
        <time>2022-04-25T14:00:24Z</time>
      </trkpt>
      <trkpt lat="41.83977" lon="8.86931">
        <ele>648.07</ele>
        <time>2022-04-25T14:00:35Z</time>
      </trkpt>
      <trkpt lat="41.83981" lon="8.86933">
        <ele>648.55</ele>
        <time>2022-04-25T14:00:42Z</time>
      </trkpt>
      <trkpt lat="41.83985" lon="8.86936">
        <ele>649.51</ele>
        <time>2022-04-25T14:00:49Z</time>
      </trkpt>
      <trkpt lat="41.83988" lon="8.86935">
        <ele>649.99</ele>
        <time>2022-04-25T14:00:53Z</time>
      </trkpt>
      <trkpt lat="41.83994" lon="8.86929">
        <ele>652.39</ele>
        <time>2022-04-25T14:01:03Z</time>
      </trkpt>
      <trkpt lat="41.8399" lon="8.86916">
        <ele>654.8</ele>
        <time>2022-04-25T14:01:18Z</time>
      </trkpt>
      <trkpt lat="41.83983" lon="8.86906">
        <ele>656.24</ele>
        <time>2022-04-25T14:01:31Z</time>
      </trkpt>
      <trkpt lat="41.83977" lon="8.86896">
        <ele>656.72</ele>
        <time>2022-04-25T14:01:43Z</time>
      </trkpt>
      <trkpt lat="41.83981" lon="8.86892">
        <ele>657.2</ele>
        <time>2022-04-25T14:02:04Z</time>
      </trkpt>
      <trkpt lat="41.83982" lon="8.86888">
        <ele>658.16</ele>
        <time>2022-04-25T14:02:21Z</time>
      </trkpt>
      <trkpt lat="41.83985" lon="8.86895">
        <ele>659.6</ele>
        <time>2022-04-25T14:02:33Z</time>
      </trkpt>
      <trkpt lat="41.83987" lon="8.86898">
        <ele>660.08</ele>
        <time>2022-04-25T14:02:36Z</time>
      </trkpt>
      <trkpt lat="41.83995" lon="8.869">
        <ele>660.56</ele>
        <time>2022-04-25T14:02:49Z</time>
      </trkpt>
      <trkpt lat="41.84001" lon="8.86899">
        <ele>662.01</ele>
        <time>2022-04-25T14:03:03Z</time>
      </trkpt>
      <trkpt lat="41.84" lon="8.86899">
        <ele>662.49</ele>
        <time>2022-04-25T14:03:21Z</time>
      </trkpt>
      <trkpt lat="41.84006" lon="8.86903">
        <ele>663.93</ele>
        <time>2022-04-25T14:03:31Z</time>
      </trkpt>
      <trkpt lat="41.84012" lon="8.869">
        <ele>665.37</ele>
        <time>2022-04-25T14:03:44Z</time>
      </trkpt>
      <trkpt lat="41.8401" lon="8.86899">
        <ele>665.85</ele>
        <time>2022-04-25T14:04:02Z</time>
      </trkpt>
    </trkseg>
  </trk>
</gpx>